Provisional Data: Choconut Creek near Vestal Center, NY


Please select a monitoring station.
Please select start date.
Please select start date.

Toggle Unit: C/F Toggle Unit: C/F
Sample Time Temperature (C) Temperature (F) Specific Conductivity (mS/cm) pH   Turbidity (NTU+) DO (mg/L)
5/4/2021 12:00:00 AM 11.7 53.06 0.078 7.15 7.3 9.9
5/4/2021 12:15:00 AM 11.66 52.988 0.078 7.14 7.25 9.9
5/4/2021 12:30:00 AM 11.63 52.934 0.079 7.14 7.53 9.91
5/4/2021 12:45:00 AM 11.6 52.88 0.079 7.14 7.4 9.91
5/4/2021 1:00:00 AM 11.57 52.826 0.079 7.16 7.28 9.92
5/4/2021 1:15:00 AM 11.54 52.772 0.079 7.14 7.17 9.93
5/4/2021 1:30:00 AM 11.51 52.718 0.079 7.13 8.33 9.94
5/4/2021 1:45:00 AM 11.48 52.664 0.079 7.13 7.69 9.94
5/4/2021 2:00:00 AM 11.45 52.61 0.082 7.14 6.96 9.94
5/4/2021 2:15:00 AM 11.43 52.574 0.079 7.14 13.84 9.95
5/4/2021 2:30:00 AM 11.4 52.52 0.079 7.14 12 9.95
5/4/2021 2:45:00 AM 11.38 52.484 0.079 7.14 8.06 9.95
5/4/2021 3:00:00 AM 11.36 52.448 0.079 7.14 7.05 9.95
5/4/2021 3:15:00 AM 11.34 52.412 0.079 7.14 6.73 9.96
5/4/2021 3:30:00 AM 11.33 52.394 0.079 7.13 7.84 9.96
5/4/2021 3:45:00 AM 11.31 52.358 0.079 7.17 11.71 9.97
5/4/2021 4:00:00 AM 11.29 52.322 0.079 7.14 12.38 9.96
5/4/2021 4:15:00 AM 11.28 52.304 0.078 7.15 7.48 9.98
5/4/2021 4:30:00 AM 11.26 52.268 0.078 7.15 7.79 9.98
5/4/2021 4:45:00 AM 11.24 52.232 0.078 7.14 7.39 10
5/4/2021 5:00:00 AM 11.23 52.214 0.078 7.15 7.1 10
5/4/2021 5:15:00 AM 11.21 52.178 0.078 7.15 6.99 10
5/4/2021 5:30:00 AM 11.19 52.142 0.078 7.14 6.82 10.01
5/4/2021 5:45:00 AM 11.18 52.124 0.078 7.15 7.1 10.01
5/4/2021 6:00:00 AM 11.16 52.088 0.078 7.15 6.76 10.02
5/4/2021 6:15:00 AM 11.15 52.07 0.078 7.15 6.79 10.02
5/4/2021 6:30:00 AM 11.14 52.052 0.078 7.15 6.44 10.03
5/4/2021 6:45:00 AM 11.14 52.052 0.079 7.15 6.38 10.04
5/4/2021 7:00:00 AM 11.13 52.034 0.079 7.15 6.24 10.06
5/4/2021 7:15:00 AM 11.13 52.034 0.078 7.16 6.75 10.08
5/4/2021 7:30:00 AM 11.13 52.034 0.079 7.16 6.19 10.1
5/4/2021 7:45:00 AM 11.13 52.034 0.079 7.17 6.35 10.12
5/4/2021 8:00:00 AM 11.13 52.034 0.079 7.17 6.27 10.14
5/4/2021 8:15:00 AM 11.14 52.052 0.079 7.18 5.75 10.16
5/4/2021 8:30:00 AM 11.16 52.088 0.078 7.18 5.84 10.22
5/4/2021 8:45:00 AM 11.17 52.106 0.079 7.2 5.8 10.24
5/4/2021 9:00:00 AM 11.22 52.196 0.079 7.21 5.81 10.31
5/4/2021 9:15:00 AM 11.26 52.268 0.078 7.22 5.91 10.35
5/4/2021 9:30:00 AM 11.36 52.448 0.079 7.23 5.81 10.4
5/4/2021 9:45:00 AM 11.42 52.556 0.079 7.23 6.56 10.44
5/4/2021 10:00:00 AM 11.44 52.592 0.078 7.24 5.49 10.45
5/4/2021 10:15:00 AM 11.49 52.682 0.079 7.24 5.42 10.48
5/4/2021 10:30:00 AM 11.57 52.826 0.078 7.27 5.31 10.52
5/4/2021 10:45:00 AM 11.64 52.952 0.079 7.28 7.43 10.54
5/4/2021 11:00:00 AM 11.74 53.132 0.078 7.29 5.53 10.58
5/4/2021 11:15:00 AM 11.8 53.24 0.078 7.3 5.35 10.58
5/4/2021 11:30:00 AM 11.87 53.366 0.078 7.3 5.34 10.6
5/4/2021 11:45:00 AM 12.13 53.834 0.078 7.31 5.47 10.6
5/4/2021 12:00:00 PM 12.12 53.816 0.078 7.3 5.26 10.6
5/4/2021 12:15:00 PM 12.22 53.996 0.078 7.31 5.16 10.61
5/4/2021 12:30:00 PM 12.29 54.122 0.08 6.66 4.27 10.67
5/4/2021 12:45:00 PM 12.56 54.608 0.08 6.91 4.71 10.69
5/4/2021 1:00:00 PM 12.74 54.932 0.08 6.97 5.63 10.68
5/4/2021 1:15:00 PM 12.86 55.148 0.08 6.94 4.44 10.66
5/4/2021 1:30:00 PM 12.97 55.346 0.081 6.93 4.13 10.64
5/4/2021 1:45:00 PM 13.15 55.67 0.08 6.96 4.55 10.63
5/4/2021 2:00:00 PM 13.31 55.958 0.08 6.98 4.37 10.6
5/4/2021 2:15:00 PM 13.73 56.714 0.08 7.02 4.16 10.58
5/4/2021 2:30:00 PM 13.92 57.056 0.08 7.02 4.33 10.56
5/4/2021 2:45:00 PM 13.96 57.128 0.08 7 4.38 10.53
5/4/2021 3:00:00 PM 14.07 57.326 0.08 7 4.29 10.51
5/4/2021 3:15:00 PM 14.24 57.632 0.08 7.01 4.36 10.5
5/4/2021 3:30:00 PM 14.33 57.794 0.08 7.03 4.56 10.47
5/4/2021 3:45:00 PM 14.49 58.082 0.08 7.02 4.66 10.44
5/4/2021 4:00:00 PM 14.55 58.19 0.08 7.05 4.78 10.39
5/4/2021 4:15:00 PM 14.59 58.262 0.08 7 4.79 10.32
5/4/2021 4:30:00 PM 14.64 58.352 0.08 6.99 4.92 10.27
5/4/2021 4:45:00 PM 14.72 58.496 0.08 7 4.65 10.23
5/4/2021 5:00:00 PM 14.83 58.694 0.08 7.01 4.65 10.2
5/4/2021 5:15:00 PM 14.94 58.892 0.08 7.02 4.39 10.16
5/4/2021 5:30:00 PM 15.06 59.108 0.08 7.02 4.42 10.13
5/4/2021 5:45:00 PM 15.13 59.234 0.08 7.01 4.36 10.08
5/4/2021 6:00:00 PM 15.16 59.288 0.08 6.99 4.61 10.01
5/4/2021 6:15:00 PM 15.19 59.342 0.08 6.95 4.75 9.91
5/4/2021 6:30:00 PM 15.21 59.378 0.08 6.96 4.65 9.86
5/4/2021 6:45:00 PM 15.22 59.396 0.08 6.96 4.57 9.83
5/4/2021 7:00:00 PM 15.22 59.396 0.08 6.93 4.61 9.8
5/4/2021 7:15:00 PM 15.19 59.342 0.08 6.94 4.73 9.78
5/4/2021 7:30:00 PM 15.16 59.288 0.08 6.9 4.8 9.74
5/4/2021 7:45:00 PM 15.11 59.198 0.08 6.91 4.56 9.69
5/4/2021 8:00:00 PM 15.06 59.108 0.08 6.87 4.99 9.62
5/4/2021 8:15:00 PM 15.01 59.018 0.08 6.84 4.61 9.56
5/4/2021 8:30:00 PM 14.97 58.946 0.081 6.82 4.85 9.51
5/4/2021 8:45:00 PM 14.92 58.856 0.08 6.81 5.03 9.46
5/4/2021 9:00:00 PM 14.88 58.784 0.081 6.78 5.71 9.43
5/4/2021 9:15:00 PM 14.83 58.694 0.081 6.76 5.1 9.4
5/4/2021 9:30:00 PM 14.79 58.622 0.081 6.76 5.12 9.38
5/4/2021 9:45:00 PM 14.73 58.514 0.081 6.77 4.97 9.36
5/4/2021 10:00:00 PM 14.67 58.406 0.081 6.74 5.2 9.35
5/4/2021 10:15:00 PM 14.61 58.298 0.081 6.78 5.27 9.33
5/4/2021 10:30:00 PM 14.55 58.19 0.081 6.73 5.1 9.31
5/4/2021 10:45:00 PM 14.5 58.1 0.081 6.71 5.11 9.3
5/4/2021 11:00:00 PM 14.43 57.974 0.081 6.69 5.5 9.29
5/4/2021 11:15:00 PM 14.37 57.866 0.081 6.69 5.44 9.3
5/4/2021 11:30:00 PM 14.31 57.758 0.081 6.69 5.26 9.29
5/4/2021 11:45:00 PM 14.24 57.632 0.081 6.7 5.44 9.3
5/5/2021 12:00:00 AM 14.17 57.506 0.082 6.71 5.67 9.3
5/5/2021 12:15:00 AM 14.11 57.398 0.081 6.68 5.69 9.31
5/5/2021 12:30:00 AM 14.05 57.29 0.082 6.69 5.57 9.31
5/5/2021 12:45:00 AM 13.98 57.164 0.081 6.71 6.02 9.32
5/5/2021 1:00:00 AM 13.93 57.074 0.082 6.66 5.37 9.33
5/5/2021 1:15:00 AM 13.87 56.966 0.081 6.68 5.37 9.33
5/5/2021 1:30:00 AM 13.81 56.858 0.082 6.67 5.46 9.34
5/5/2021 1:45:00 AM 13.76 56.768 0.082 6.68 5.69 9.35
5/5/2021 2:00:00 AM 13.72 56.696 0.081 6.69 5.84 9.36
5/5/2021 2:15:00 AM 13.68 56.624 0.081 6.66 6.03 9.37
5/5/2021 2:30:00 AM 13.64 56.552 0.081 6.72 6.12 9.38
5/5/2021 2:45:00 AM 13.59 56.462 0.081 6.67 5.72 9.38
5/5/2021 3:00:00 AM 13.55 56.39 0.081 6.7 5.89 9.39
5/5/2021 3:15:00 AM 13.51 56.318 0.081 6.68 5.64 9.4
5/5/2021 3:30:00 AM 13.46 56.228 0.082 6.69 5.53 9.41
5/5/2021 3:45:00 AM 13.42 56.156 0.082 6.66 5.8 9.42
5/5/2021 4:00:00 AM 13.38 56.084 0.082 6.67 5.84 9.42
5/5/2021 4:15:00 AM 13.35 56.03 0.082 6.73 5.83 9.43
5/5/2021 4:30:00 AM 13.31 55.958 0.082 6.69 5.79 9.45
5/5/2021 4:45:00 AM 13.27 55.886 0.083 6.72 5.63 9.45
5/5/2021 5:00:00 AM 13.23 55.814 0.083 6.66 5.6 9.46
5/5/2021 5:15:00 AM 13.19 55.742 0.083 6.68 5.76 9.47
5/5/2021 5:30:00 AM 13.15 55.67 0.083 6.72 5.91 9.47
5/5/2021 5:45:00 AM 13.11 55.598 0.083 6.69 5.82 9.49
5/5/2021 6:00:00 AM 13.07 55.526 0.083 6.72 6.11 9.5
5/5/2021 6:15:00 AM 13.03 55.454 0.083 6.71 5.4 9.51
5/5/2021 6:30:00 AM 13.01 55.418 0.083 6.67 5.34 9.53
5/5/2021 6:45:00 AM 12.98 55.364 0.083 6.67 5.01 9.56
5/5/2021 7:00:00 AM 12.96 55.328 0.083 6.74 5.13 9.59
5/5/2021 7:15:00 AM 12.94 55.292 0.084 6.69 5.19 9.63
5/5/2021 7:30:00 AM 12.93 55.274 0.084 6.72 5.03 9.68
5/5/2021 7:45:00 AM 12.92 55.256 0.083 6.74 5.13 9.73
5/5/2021 8:00:00 AM 12.91 55.238 0.084 6.76 5.05 9.78
5/5/2021 8:15:00 AM 12.93 55.274 0.084 6.74 4.82 9.84
5/5/2021 8:30:00 AM 12.94 55.292 0.084 6.77 4.77 9.9
5/5/2021 8:45:00 AM 12.94 55.292 0.084 6.83 4.73 9.93
5/5/2021 9:00:00 AM 12.93 55.274 0.084 6.79 5.13 9.9
5/5/2021 9:15:00 AM 12.92 55.256 0.084 6.8 5.21 9.89
5/5/2021 9:30:00 AM 12.91 55.238 0.084 6.78 4.99 9.9
5/5/2021 9:45:00 AM 12.9 55.22 0.084 6.79 4.78 9.92
5/5/2021 10:00:00 AM 12.91 55.238 0.084 6.82 4.99 9.98
5/5/2021 10:15:00 AM 12.9 55.22 0.084 6.86 5.32 9.99
5/5/2021 10:30:00 AM 12.89 55.202 0.084 6.83 5.4 10.03
5/5/2021 10:45:00 AM 12.88 55.184 0.084 6.88 5.31 10.03
5/5/2021 11:00:00 AM 12.86 55.148 0.084 6.84 5.5 10.05
5/5/2021 11:15:00 AM 12.85 55.13 0.084 6.89 6.04 10.06
5/5/2021 11:30:00 AM 12.83 55.094 0.084 6.84 7.4 10.07
5/5/2021 11:45:00 AM 12.83 55.094 0.084 6.88 8.03 10.11
5/5/2021 12:00:00 PM 12.83 55.094 0.084 6.93 7.41 10.16
5/5/2021 12:15:00 PM 12.83 55.094 0.084 6.93 7.95 10.19
5/5/2021 12:30:00 PM 12.82 55.076 0.085 6.94 7.79 10.2
5/5/2021 12:45:00 PM 12.81 55.058 0.086 6.93 8.03 10.2
5/5/2021 1:00:00 PM 12.79 55.022 0.087 6.95 7.84 10.21
5/5/2021 1:15:00 PM 12.78 55.004 0.087 6.94 7.51 10.23
5/5/2021 1:30:00 PM 12.77 54.986 0.087 6.99 7.66 10.27
5/5/2021 1:45:00 PM 12.78 55.004 0.087 6.96 7.13 10.32
5/5/2021 2:00:00 PM 12.78 55.004 0.088 6.98 7.13 10.35
5/5/2021 2:15:00 PM 12.76 54.968 0.088 6.97 8.15 10.35
5/5/2021 2:30:00 PM 12.73 54.914 0.088 6.96 7.95 10.35
5/5/2021 2:45:00 PM 12.71 54.878 0.089 7.02 9.09 10.36
5/5/2021 3:00:00 PM 12.71 54.878 0.089 7.01 8.59 10.37
5/5/2021 3:15:00 PM 12.7 54.86 0.09 7.05 9.57 10.39
5/5/2021 3:30:00 PM 12.68 54.824 0.09 7 10.84 10.37
5/5/2021 3:45:00 PM 12.66 54.788 0.09 7.03 11.45 10.38
5/5/2021 4:00:00 PM 12.63 54.734 0.089 7.01 11.92 10.35
5/5/2021 4:15:00 PM 12.6 54.68 0.089 7.01 12.35 10.32
5/5/2021 4:30:00 PM 12.57 54.626 0.089 6.98 12.43 10.29
5/5/2021 4:45:00 PM 12.55 54.59 0.088 6.96 11.7 10.29
5/5/2021 5:00:00 PM 12.53 54.554 0.087 6.97 11.93 10.31
5/5/2021 5:15:00 PM 12.5 54.5 0.085 6.96 11.86 10.29
5/5/2021 5:30:00 PM 12.45 54.41 0.085 6.96 11.66 10.25
5/5/2021 5:45:00 PM 12.41 54.338 0.084 6.94 10.37 10.22
5/5/2021 6:00:00 PM 12.37 54.266 0.084 6.96 10.24 10.21
5/5/2021 6:15:00 PM 12.33 54.194 0.083 6.92 9.66 10.2
5/5/2021 6:30:00 PM 12.29 54.122 0.083 6.89 9.19 10.19
5/5/2021 6:45:00 PM 12.25 54.05 0.083 6.89 9.42 10.19
5/5/2021 7:00:00 PM 12.21 53.978 0.083 6.9 9.6 10.17
5/5/2021 7:15:00 PM 12.17 53.906 0.083 6.89 8.8 10.16
5/5/2021 7:30:00 PM 12.12 53.816 0.083 6.88 8.73 10.14
5/5/2021 7:45:00 PM 12.07 53.726 0.083 6.86 8.61 10.13
5/5/2021 8:00:00 PM 12.02 53.636 0.083 6.84 9.11 10.11
5/5/2021 8:15:00 PM 11.97 53.546 0.084 6.82 8.4 10.1
5/5/2021 8:30:00 PM 11.92 53.456 0.084 6.82 8.28 10.08
5/5/2021 8:45:00 PM 11.87 53.366 0.084 6.82 8.24 10.07
5/5/2021 9:00:00 PM 11.82 53.276 0.084 6.8 7.81 10.06
5/5/2021 9:15:00 PM 11.77 53.186 0.084 6.78 7.95 10.05
5/5/2021 9:30:00 PM 11.73 53.114 0.084 6.78 8.5 10.04
5/5/2021 9:45:00 PM 11.68 53.024 0.084 6.83 8.07 10.04
5/5/2021 10:00:00 PM 11.62 52.916 0.084 6.77 7.99 10.04
5/5/2021 10:15:00 PM 11.57 52.826 0.084 6.78 8.25 10.04
5/5/2021 10:30:00 PM 11.51 52.718 0.084 6.79 7.37 10.05
5/5/2021 10:45:00 PM 11.46 52.628 0.084 6.75 7.52 10.05
5/5/2021 11:00:00 PM 11.41 52.538 0.084 6.8 7.19 10.05
5/5/2021 11:15:00 PM 11.35 52.43 0.084 6.77 7.4 10.05
5/5/2021 11:30:00 PM 11.3 52.34 0.084 6.78 7.47 10.07
5/5/2021 11:45:00 PM 11.24 52.232 0.084 6.76 7.13 10.07
5/6/2021 12:00:00 AM 11.19 52.142 0.084 6.75 7.26 10.08
5/6/2021 12:15:00 AM 11.14 52.052 0.084 6.76 6.67 10.09
5/6/2021 12:30:00 AM 11.08 51.944 0.084 6.75 6.92 10.09
5/6/2021 12:45:00 AM 11.03 51.854 0.084 6.76 6.93 10.11
5/6/2021 1:00:00 AM 10.97 51.746 0.084 6.76 6.94 10.12
5/6/2021 1:15:00 AM 10.91 51.638 0.084 6.75 6.52 10.12
5/6/2021 1:30:00 AM 10.86 51.548 0.084 6.77 6.55 10.14
5/6/2021 1:45:00 AM 10.81 51.458 0.084 6.74 6.75 10.16
5/6/2021 2:00:00 AM 10.76 51.368 0.084 6.74 6.43 10.15
5/6/2021 2:15:00 AM 10.71 51.278 0.084 6.73 6.33 10.17
5/6/2021 2:30:00 AM 10.66 51.188 0.084 6.76 6.13 10.18
5/6/2021 2:45:00 AM 10.61 51.098 0.083 6.77 6.23 10.19
5/6/2021 3:00:00 AM 10.57 51.026 0.084 6.78 6.01 10.21
5/6/2021 3:15:00 AM 10.52 50.936 0.083 6.75 6.35 10.22
5/6/2021 3:30:00 AM 10.48 50.864 0.083 6.77 5.99 10.23
5/6/2021 3:45:00 AM 10.43 50.774 0.083 6.78 5.85 10.25
5/6/2021 4:00:00 AM 10.38 50.684 0.083 6.77 5.99 10.26
5/6/2021 4:15:00 AM 10.33 50.594 0.084 6.74 5.97 10.27
5/6/2021 4:30:00 AM 10.29 50.522 0.083 6.74 6.28 10.28
5/6/2021 4:45:00 AM 10.24 50.432 0.083 6.76 5.69 10.29
5/6/2021 5:00:00 AM 10.2 50.36 0.083 6.76 5.99 10.31
5/6/2021 5:15:00 AM 10.16 50.288 0.083 6.73 6.35 10.32
5/6/2021 5:30:00 AM 10.11 50.198 0.083 6.74 5.75 10.33
5/6/2021 5:45:00 AM 10.07 50.126 0.083 6.76 5.79 10.34
5/6/2021 6:00:00 AM 10.03 50.054 0.083 6.76 5.77 10.36
5/6/2021 6:15:00 AM 9.99 49.982 0.083 6.75 5.66 10.37
5/6/2021 6:30:00 AM 9.95 49.91 0.083 6.77 5.54 10.4
5/6/2021 6:45:00 AM 9.92 49.856 0.083 6.77 5.48 10.42
5/6/2021 7:00:00 AM 9.88 49.784 0.083 6.75 5.68 10.46
5/6/2021 7:15:00 AM 9.86 49.748 0.083 6.8 5.73 10.5
5/6/2021 7:30:00 AM 9.83 49.694 0.083 6.79 5.2 10.54
5/6/2021 7:45:00 AM 9.8 49.64 0.083 6.79 5.07 10.6
5/6/2021 8:00:00 AM 9.8 49.64 0.082 6.79 5.05 10.65
5/6/2021 8:15:00 AM 9.79 49.622 0.083 6.78 5.11 10.71
5/6/2021 8:30:00 AM 9.79 49.622 0.083 6.81 5.24 10.76
5/6/2021 8:45:00 AM 9.83 49.694 0.083 6.83 4.94 10.82
5/6/2021 9:00:00 AM 9.9 49.82 0.082 6.86 4.71 10.86
5/6/2021 9:15:00 AM 9.94 49.892 0.082 6.88 4.88 10.92
5/6/2021 9:30:00 AM 9.98 49.964 0.082 6.86 4.77 10.95
5/6/2021 9:45:00 AM 10.11 50.198 0.082 6.88 4.76 10.99
5/6/2021 10:00:00 AM 10.17 50.306 0.082 6.89 4.76 11.02
5/6/2021 10:15:00 AM 10.31 50.558 0.082 6.94 4.58 11.05
5/6/2021 10:30:00 AM 10.46 50.828 0.082 6.96 4.8 11.07
5/6/2021 10:45:00 AM 10.57 51.026 0.082 6.94 4.55 11.08
5/6/2021 11:00:00 AM 10.72 51.296 0.082 6.99 4.57 11.09
5/6/2021 11:15:00 AM 10.91 51.638 0.082 6.98 4.64 11.08
5/6/2021 11:30:00 AM 11.12 52.016 0.082 7.01 4.42 11.1
5/6/2021 11:45:00 AM 11.38 52.484 0.082 7.02 4.5 11.08
5/6/2021 12:00:00 PM 11.62 52.916 0.081 7.02 4.46 11.06
5/6/2021 12:15:00 PM 11.85 53.33 0.081 7.02 4.19 11.05
5/6/2021 12:30:00 PM 12.08 53.744 0.081 7.04 4.49 11.04
5/6/2021 12:45:00 PM 12.29 54.122 0.082 7.05 4.36 11.01
5/6/2021 1:00:00 PM 12.52 54.536 0.081 7.05 4.32 10.99
5/6/2021 1:15:00 PM 12.71 54.878 0.081 7.05 4.26 10.97
5/6/2021 1:30:00 PM 12.88 55.184 0.081 7.07 4.52 10.95
5/6/2021 1:45:00 PM 13.04 55.472 0.081 7.07 4.3 10.93
5/6/2021 2:00:00 PM 13.21 55.778 0.081 7.06 4.35 10.89
5/6/2021 2:15:00 PM 13.37 56.066 0.081 7.07 4.25 10.86
5/6/2021 2:30:00 PM 13.52 56.336 0.081 7.08 4.19 10.84
5/6/2021 2:45:00 PM 13.67 56.606 0.081 7.1 4.36 10.8
5/6/2021 3:00:00 PM 13.8 56.84 0.081 7.11 4.22 10.77
5/6/2021 3:15:00 PM 13.92 57.056 0.081 7.08 4.21 10.73
5/6/2021 3:30:00 PM 13.99 57.182 0.08 7.06 4.44 10.7
5/6/2021 3:45:00 PM 13.96 57.128 0.081 7.05 4.12 10.66
5/6/2021 4:00:00 PM 13.96 57.128 0.081 7.06 4.2 10.63
5/6/2021 4:15:00 PM 13.98 57.164 0.081 7.05 4.46 10.6
5/6/2021 4:30:00 PM 14.03 57.254 0.081 7.05 4.31 10.57
5/6/2021 4:45:00 PM 14.08 57.344 0.081 7.05 4.19 10.54
5/6/2021 5:00:00 PM 14.08 57.344 0.081 7.06 4.35 10.51
5/6/2021 5:15:00 PM 14.04 57.272 0.081 7.05 4.38 10.48
5/6/2021 5:30:00 PM 14.01 57.218 0.081 7.04 4.16 10.45
5/6/2021 5:45:00 PM 13.98 57.164 0.081 7.04 4 10.44
5/6/2021 6:00:00 PM 13.95 57.11 0.081 7.02 4.08 10.42
5/6/2021 6:15:00 PM 13.89 57.002 0.081 7 4.24 10.38
5/6/2021 6:30:00 PM 13.82 56.876 0.081 7 4.57 10.35
5/6/2021 6:45:00 PM 13.74 56.732 0.081 6.99 4.19 10.32
5/6/2021 7:00:00 PM 13.65 56.57 0.081 6.98 4.37 10.28
5/6/2021 7:15:00 PM 13.57 56.426 0.081 6.94 4.11 10.24
5/6/2021 7:30:00 PM 13.5 56.3 0.081 6.96 4.25 10.21
5/6/2021 7:45:00 PM 13.4 56.12 0.081 6.92 4.21 10.17
5/6/2021 8:00:00 PM 13.29 55.922 0.081 6.9 4.35 10.13
5/6/2021 8:15:00 PM 13.17 55.706 0.081 6.85 4.22 10.08
5/6/2021 8:30:00 PM 13.05 55.49 0.081 6.82 4.06 10.04
5/6/2021 8:45:00 PM 12.92 55.256 0.081 6.85 4.68 10.02
5/6/2021 9:00:00 PM 12.8 55.04 0.081 6.81 4.57 10
5/6/2021 9:15:00 PM 12.67 54.806 0.081 6.82 4.42 9.98
5/6/2021 9:30:00 PM 12.54 54.572 0.082 6.77 4.52 9.97
5/6/2021 9:45:00 PM 12.4 54.32 0.082 6.76 4.54 9.97
5/6/2021 10:00:00 PM 12.27 54.086 0.081 6.78 4.5 9.96
5/6/2021 10:15:00 PM 12.14 53.852 0.082 6.75 4.77 9.97
5/6/2021 10:30:00 PM 12 53.6 0.082 6.73 5.23 9.96
5/6/2021 10:45:00 PM 11.87 53.366 0.082 6.71 5.21 9.96
5/6/2021 11:00:00 PM 11.74 53.132 0.082 6.71 5.1 9.97
5/6/2021 11:15:00 PM 11.61 52.898 0.082 6.72 4.49 9.99
5/6/2021 11:30:00 PM 11.48 52.664 0.082 6.71 4.81 10
5/6/2021 11:45:00 PM 11.36 52.448 0.082 6.69 5 10.02
5/7/2021 12:00:00 AM 11.24 52.232 0.082 6.73 4.47 10.03
5/7/2021 12:15:00 AM 11.11 51.998 0.082 6.7 4.46 10.06
5/7/2021 12:30:00 AM 11 51.8 0.083 6.7 4.54 10.07
5/7/2021 12:45:00 AM 10.88 51.584 0.083 6.7 4.57 10.09
5/7/2021 1:00:00 AM 10.76 51.368 0.082 6.69 4.52 10.12
5/7/2021 1:15:00 AM 10.64 51.152 0.083 6.68 4.68 10.14
5/7/2021 1:30:00 AM 10.52 50.936 0.083 6.67 4.97 10.16
5/7/2021 1:45:00 AM 10.41 50.738 0.083 6.69 4.63 10.2
5/7/2021 2:00:00 AM 10.29 50.522 0.083 6.69 4.69 10.22
5/7/2021 2:15:00 AM 10.18 50.324 0.083 6.69 4.58 10.24
5/7/2021 2:30:00 AM 10.07 50.126 0.083 6.67 4.48 10.27
5/7/2021 2:45:00 AM 9.96 49.928 0.084 6.68 4.52 10.29
5/7/2021 3:00:00 AM 9.85 49.73 0.084 6.69 4.55 10.32
5/7/2021 3:15:00 AM 9.74 49.532 0.083 6.69 4.29 10.34
5/7/2021 3:30:00 AM 9.64 49.352 0.083 6.69 4.43 10.37
5/7/2021 3:45:00 AM 9.55 49.19 0.084 6.69 4.27 10.39
5/7/2021 4:00:00 AM 9.46 49.028 0.083 6.68 4.48 10.42
5/7/2021 4:15:00 AM 9.36 48.848 0.084 6.68 4.42 10.44
5/7/2021 4:30:00 AM 9.27 48.686 0.083 6.72 4.41 10.46
5/7/2021 4:45:00 AM 9.18 48.524 0.084 6.7 4.34 10.49
5/7/2021 5:00:00 AM 9.09 48.362 0.084 6.73 4.18 10.52
5/7/2021 5:15:00 AM 9.01 48.218 0.084 6.71 4.34 10.54
5/7/2021 5:30:00 AM 8.92 48.056 0.083 6.69 4.16 10.56
5/7/2021 5:45:00 AM 8.84 47.912 0.084 6.72 4.26 10.59
5/7/2021 6:00:00 AM 8.76 47.768 0.084 6.69 4.19 10.62
5/7/2021 6:15:00 AM 8.68 47.624 0.083 6.74 4.18 10.66
5/7/2021 6:30:00 AM 8.61 47.498 0.084 6.71 4.19 10.71
5/7/2021 6:45:00 AM 8.55 47.39 0.083 6.72 4.32 10.76
5/7/2021 7:00:00 AM 8.5 47.3 0.083 6.73 4.08 10.82
5/7/2021 7:15:00 AM 8.45 47.21 0.083 6.73 3.94 10.89
5/7/2021 7:30:00 AM 8.41 47.138 0.084 6.74 3.91 10.95
5/7/2021 7:45:00 AM 8.38 47.084 0.083 6.8 3.77 11
5/7/2021 8:00:00 AM 8.36 47.048 0.083 6.79 3.87 11.06
5/7/2021 8:15:00 AM 8.35 47.03 0.083 6.78 3.81 11.12
5/7/2021 8:30:00 AM 8.37 47.066 0.083 6.81 3.7 11.18
5/7/2021 8:45:00 AM 8.41 47.138 0.083 6.84 3.77 11.23
5/7/2021 9:00:00 AM 8.48 47.264 0.083 6.87 3.79 11.29
5/7/2021 9:15:00 AM 8.57 47.426 0.083 6.87 3.79 11.33
5/7/2021 9:30:00 AM 8.68 47.624 0.083 6.91 3.69 11.36
5/7/2021 9:45:00 AM 8.82 47.876 0.083 6.91 3.7 11.38
5/7/2021 10:00:00 AM 9 48.2 0.082 6.97 3.64 11.41
5/7/2021 10:15:00 AM 9.21 48.578 0.083 6.96 3.69 11.42
5/7/2021 10:30:00 AM 9.43 48.974 0.083 6.99 3.65 11.43
5/7/2021 10:45:00 AM 9.67 49.406 0.082 6.99 3.54 11.43
5/7/2021 11:00:00 AM 9.76 49.568 0.083 6.97 3.39 11.42
5/7/2021 11:15:00 AM 9.86 49.748 0.083 6.98 3.54 11.42
5/7/2021 11:30:00 AM 9.92 49.856 0.082 7 3.58 11.41
5/7/2021 11:45:00 AM 9.95 49.91 0.083 6.97 3.44 11.4
5/7/2021 12:00:00 PM 9.98 49.964 0.083 6.97 3.4 11.39
5/7/2021 12:15:00 PM 10.02 50.036 0.082 6.98 6.45 11.38
5/7/2021 12:30:00 PM 10.1 50.18 0.082 6.99 3.43 11.38
5/7/2021 12:45:00 PM 10.16 50.288 0.082 6.99 3.41 11.38
5/7/2021 1:00:00 PM 10.23 50.414 0.082 7.01 3.41 11.39
5/7/2021 1:15:00 PM 10.31 50.558 0.082 7.01 3.46 11.39
5/7/2021 1:30:00 PM 10.41 50.738 0.081 7.04 3.35 11.39
5/7/2021 1:45:00 PM 10.48 50.864 0.082 7.04 3.39 11.39
5/7/2021 2:00:00 PM 10.55 50.99 0.081 7.05 3.53 11.36
5/7/2021 2:15:00 PM 10.58 51.044 0.082 7.02 3.48 11.34
5/7/2021 2:30:00 PM 10.65 51.17 0.082 7.05 3.56 11.34
5/7/2021 2:45:00 PM 10.7 51.26 0.081 7.07 3.29 11.32
5/7/2021 3:00:00 PM 10.74 51.332 0.082 7.04 3.53 11.3
5/7/2021 3:15:00 PM 10.77 51.386 0.082 7.03 3.44 11.27
5/7/2021 3:30:00 PM 10.8 51.44 0.081 7.03 3.4 11.23
5/7/2021 3:45:00 PM 10.84 51.512 0.081 7.04 3.47 11.22
5/7/2021 4:00:00 PM 10.89 51.602 0.081 7.05 3.31 11.19
5/7/2021 4:15:00 PM 10.95 51.71 0.082 7.04 3.38 11.18
5/7/2021 4:30:00 PM 10.99 51.782 0.081 7.03 3.5 11.18
5/7/2021 4:45:00 PM 11.02 51.836 0.081 7.05 3.49 11.15
5/7/2021 5:00:00 PM 11.04 51.872 0.081 7.05 3.44 11.13
5/7/2021 5:15:00 PM 11.01 51.818 0.081 7.02 3.35 11.07
5/7/2021 5:30:00 PM 11.01 51.818 0.081 7 3.41 11.05
5/7/2021 5:45:00 PM 11.02 51.836 0.081 7 3.46 11.03
5/7/2021 6:00:00 PM 11.03 51.854 0.081 7.02 3.39 11.03
5/7/2021 6:15:00 PM 11.04 51.872 0.081 7.02 3.56 11.03
5/7/2021 6:30:00 PM 11.03 51.854 0.081 7.02 3.57 11
5/7/2021 6:45:00 PM 11 51.8 0.081 7.01 3.53 10.94
5/7/2021 7:00:00 PM 10.97 51.746 0.081 6.97 3.56 10.87
5/7/2021 7:15:00 PM 10.93 51.674 0.081 6.94 3.61 10.79
5/7/2021 7:30:00 PM 10.9 51.62 0.081 6.92 3.58 10.75
5/7/2021 7:45:00 PM 10.87 51.566 0.081 6.91 3.68 10.71
5/7/2021 8:00:00 PM 10.85 51.53 0.081 6.9 3.7 10.66
5/7/2021 8:15:00 PM 10.82 51.476 0.081 6.87 3.72 10.61
5/7/2021 8:30:00 PM 10.78 51.404 0.081 6.87 3.99 10.56
5/7/2021 8:45:00 PM 10.74 51.332 0.082 6.85 3.75 10.53
5/7/2021 9:00:00 PM 10.71 51.278 0.082 6.83 3.86 10.48
5/7/2021 9:15:00 PM 10.67 51.206 0.082 6.83 3.91 10.47
5/7/2021 9:30:00 PM 10.63 51.134 0.082 6.82 3.97 10.44
5/7/2021 9:45:00 PM 10.59 51.062 0.082 6.8 4.3 10.42
5/7/2021 10:00:00 PM 10.56 51.008 0.082 6.81 4.22 10.4
5/7/2021 10:15:00 PM 10.52 50.936 0.082 6.79 4.1 10.38
5/7/2021 10:30:00 PM 10.48 50.864 0.082 6.81 4.33 10.36
5/7/2021 10:45:00 PM 10.44 50.792 0.082 6.77 4.39 10.34
5/7/2021 11:00:00 PM 10.39 50.702 0.082 6.8 4.46 10.34
5/7/2021 11:15:00 PM 10.35 50.63 0.083 6.77 4.36 10.33
5/7/2021 11:30:00 PM 10.32 50.576 0.082 6.76 4.87 10.33
5/7/2021 11:45:00 PM 10.28 50.504 0.082 6.79 5.55 10.33
5/8/2021 12:00:00 AM 10.24 50.432 0.083 6.76 5.91 10.33
5/8/2021 12:15:00 AM 10.19 50.342 0.083 6.77 5.38 10.33
5/8/2021 12:30:00 AM 10.15 50.27 0.083 6.76 5.29 10.32
5/8/2021 12:45:00 AM 10.1 50.18 0.084 6.76 5.83 10.33
5/8/2021 1:00:00 AM 10.05 50.09 0.084 6.76 5.71 10.33
5/8/2021 1:15:00 AM 10 50 0.085 6.76 5.65 10.34
5/8/2021 1:30:00 AM 9.96 49.928 0.085 6.78 6.57 10.35
5/8/2021 1:45:00 AM 9.9 49.82 0.086 6.76 8.27 10.36
5/8/2021 2:00:00 AM 9.85 49.73 0.087 6.76 7.25 10.37
5/8/2021 2:15:00 AM 9.8 49.64 0.087 6.78 6.76 10.39
5/8/2021 2:30:00 AM 9.75 49.55 0.088 6.76 7.37 10.4
5/8/2021 2:45:00 AM 9.7 49.46 0.088 6.78 9.48 10.42
5/8/2021 3:00:00 AM 9.65 49.37 0.089 6.78 11.94 10.45
5/8/2021 3:15:00 AM 9.6 49.28 0.09 6.79 14.7 10.48
5/8/2021 3:30:00 AM 9.54 49.172 0.091 6.79 12.39 10.5
5/8/2021 3:45:00 AM 9.49 49.082 0.093 6.82 14.31 10.52
5/8/2021 4:00:00 AM 9.42 48.956 0.095 6.81 16.76 10.56
5/8/2021 4:15:00 AM 9.35 48.83 0.097 6.82 27.66 10.61
5/8/2021 4:30:00 AM 9.28 48.704 0.099 6.84 31.46 10.65
5/8/2021 4:45:00 AM 9.21 48.578 0.101 6.85 46.82 10.7
5/8/2021 5:00:00 AM 9.13 48.434 0.101 6.87 45.22 10.76
5/8/2021 5:15:00 AM 9.03 48.254 0.099 6.86 70.38 10.81
5/8/2021 5:30:00 AM 8.93 48.074 0.098 6.85 74.07 10.88
5/8/2021 5:45:00 AM 8.84 47.912 0.094 6.9 91.68 10.94
5/8/2021 6:00:00 AM 8.76 47.768 0.09 6.85 126.97 10.99
5/8/2021 6:15:00 AM 8.68 47.624 0.084 6.85 132.29 11.03
5/8/2021 6:30:00 AM 8.62 47.516 0.079 6.73 131.31 11.06
5/8/2021 6:45:00 AM 8.58 47.444 0.077 6.76 133.84 11.06
5/8/2021 7:00:00 AM 8.54 47.372 0.071 6.76 126.17 11.1
5/8/2021 7:15:00 AM 8.52 47.336 0.067 6.73 157.62 11.11
5/8/2021 7:30:00 AM 8.5 47.3 0.065 6.75 167.68 11.11
5/8/2021 7:45:00 AM 8.48 47.264 0.063 6.69 146.06 11.11
5/8/2021 8:00:00 AM 8.48 47.264 0.062 6.73 173.06 11.11
5/8/2021 8:15:00 AM 8.47 47.246 0.061 6.67 134.73 11.1
5/8/2021 8:30:00 AM 8.47 47.246 0.06 6.71 139.23 11.1
5/8/2021 8:45:00 AM 8.47 47.246 0.061 6.69 131.01 11.1
5/8/2021 9:00:00 AM 8.48 47.264 0.061 6.65 121.63 11.1
5/8/2021 9:15:00 AM 8.49 47.282 0.061 6.64 104.29 11.08
5/8/2021 9:30:00 AM 8.51 47.318 0.061 6.66 105.54 11.1
5/8/2021 9:45:00 AM 8.53 47.354 0.061 6.66 109.39 11.07
5/8/2021 10:00:00 AM 8.57 47.426 0.061 6.67 89.35 11.07
5/8/2021 10:15:00 AM 8.59 47.462 0.061 6.65 96.62 11.07
5/8/2021 10:30:00 AM 8.62 47.516 0.061 6.66 73.76 11.07
5/8/2021 10:45:00 AM 8.66 47.588 0.062 6.66 54.48 11.06
5/8/2021 11:00:00 AM 8.69 47.642 0.062 6.66 61.9 11.07
5/8/2021 11:15:00 AM 8.72 47.696 0.062 6.66 63.23 11.06
5/8/2021 11:30:00 AM 8.78 47.804 0.062 6.66 41.62 11.06
5/8/2021 11:45:00 AM 8.84 47.912 0.062 6.69 50.01 11.05
5/8/2021 12:00:00 PM 8.91 48.038 0.063 6.68 44.67 11.05
5/8/2021 12:15:00 PM 8.96 48.128 0.064 6.7 43.75 11.05
5/8/2021 12:30:00 PM 9.03 48.254 0.063 6.71 31.13 11.03
5/8/2021 12:45:00 PM 9.08 48.344 0.063 6.66 29.59 11.03
5/8/2021 1:00:00 PM 9.13 48.434 0.063 6.7 28.7 11.02
5/8/2021 1:15:00 PM 9.19 48.542 0.064 6.71 45.14 11.02
5/8/2021 1:30:00 PM 9.24 48.632 0.064 6.68 30.98 11
5/8/2021 1:45:00 PM 9.28 48.704 0.064 6.67 29.13 10.99
5/8/2021 2:00:00 PM 9.32 48.776 0.065 6.71 19.08 10.97
5/8/2021 2:15:00 PM 9.36 48.848 0.064 6.72 26.16 10.95
5/8/2021 2:30:00 PM 9.42 48.956 0.065 6.71 23.9 10.96
5/8/2021 2:45:00 PM 9.54 49.172 0.065 6.76 27.54 10.96
5/8/2021 3:00:00 PM 9.61 49.298 0.064 6.71 23.84 10.96
5/8/2021 3:15:00 PM 9.64 49.352 0.065 6.74 23.62 10.93
5/8/2021 3:30:00 PM 9.68 49.424 0.065 6.73 17.42 10.92
5/8/2021 3:45:00 PM 9.72 49.496 0.065 6.75 22.11 10.91
5/8/2021 4:00:00 PM 9.74 49.532 0.065 6.72 22.81 10.89
5/8/2021 4:15:00 PM 9.78 49.604 0.066 6.71 19.29 10.89
5/8/2021 4:30:00 PM 9.8 49.64 0.066 6.75 25.62 10.9
5/8/2021 4:45:00 PM 9.88 49.784 0.065 6.73 20.08 10.9
5/8/2021 5:00:00 PM 9.9 49.82 0.066 6.77 18.22 10.9
5/8/2021 5:15:00 PM 9.92 49.856 0.066 6.78 19.13 10.9
5/8/2021 5:30:00 PM 9.94 49.892 0.066 6.75 19.81 10.9
5/8/2021 5:45:00 PM 9.93 49.874 0.066 6.74 18.6 10.9
5/8/2021 6:00:00 PM 9.94 49.892 0.066 6.77 19.46 10.89
5/8/2021 6:15:00 PM 9.94 49.892 0.066 6.73 18.19 10.87
5/8/2021 6:30:00 PM 9.93 49.874 0.066 6.72 18.92 10.86
5/8/2021 6:45:00 PM 9.92 49.856 0.066 6.73 16.74 10.85
5/8/2021 7:00:00 PM 9.89 49.802 0.066 6.72 17.1 10.86
5/8/2021 7:15:00 PM 9.87 49.766 0.067 6.73 16.45 10.83
5/8/2021 7:30:00 PM 9.84 49.712 0.067 6.71 16.88 10.82
5/8/2021 7:45:00 PM 9.8 49.64 0.067 6.7 15.93 10.81
5/8/2021 8:00:00 PM 9.77 49.586 0.067 6.7 15.39 10.79
5/8/2021 8:15:00 PM 9.73 49.514 0.067 6.67 14.89 10.78
5/8/2021 8:30:00 PM 9.69 49.442 0.067 6.68 15.61 10.76
5/8/2021 8:45:00 PM 9.64 49.352 0.067 6.67 16.76 10.75
5/8/2021 9:00:00 PM 9.59 49.262 0.067 6.65 16.07 10.75
5/8/2021 9:15:00 PM 9.53 49.154 0.068 6.7 14.28 10.74
5/8/2021 9:30:00 PM 9.46 49.028 0.068 6.66 15.13 10.75
5/8/2021 9:45:00 PM 9.4 48.92 0.068 6.68 14.58 10.74
5/8/2021 10:00:00 PM 9.33 48.794 0.068 6.68 14.77 10.75
5/8/2021 10:15:00 PM 9.26 48.668 0.068 6.62 15 10.75
5/8/2021 10:30:00 PM 9.2 48.56 0.068 6.63 15.26 10.76
5/8/2021 10:45:00 PM 9.13 48.434 0.068 6.61 14.59 10.78
5/8/2021 11:00:00 PM 9.07 48.326 0.068 6.61 13.3 10.79
5/8/2021 11:15:00 PM 9.01 48.218 0.068 6.62 13.8 10.8
5/8/2021 11:30:00 PM 8.95 48.11 0.068 6.6 13.08 10.82
5/8/2021 11:45:00 PM 8.89 48.002 0.068 6.62 12.98 10.83
5/9/2021 12:00:00 AM 8.83 47.894 0.068 6.66 13.05 10.85
5/9/2021 12:15:00 AM 8.78 47.804 0.069 6.62 12.61 10.86
5/9/2021 12:30:00 AM 8.73 47.714 0.068 6.6 13 10.88
5/9/2021 12:45:00 AM 8.67 47.606 0.069 6.62 13.18 10.89
5/9/2021 1:00:00 AM 8.61 47.498 0.069 6.6 12.32 10.91
5/9/2021 1:15:00 AM 8.55 47.39 0.069 6.6 13.36 10.93
5/9/2021 1:30:00 AM 8.49 47.282 0.069 6.62 12.13 10.95
5/9/2021 1:45:00 AM 8.43 47.174 0.069 6.62 11.8 10.96
5/9/2021 2:00:00 AM 8.37 47.066 0.069 6.62 10.92 10.97
5/9/2021 2:15:00 AM 8.31 46.958 0.069 6.63 11.57 10.99
5/9/2021 2:30:00 AM 8.26 46.868 0.069 6.61 11.92 11
5/9/2021 2:45:00 AM 8.2 46.76 0.069 6.66 12.13 11.02
5/9/2021 3:00:00 AM 8.13 46.634 0.069 6.66 11.7 11.05
5/9/2021 3:15:00 AM 8.08 46.544 0.069 6.62 10.86 11.05
5/9/2021 3:30:00 AM 8.02 46.436 0.069 6.61 11.09 11.07
5/9/2021 3:45:00 AM 7.96 46.328 0.069 6.6 11.51 11.09
5/9/2021 4:00:00 AM 7.91 46.238 0.069 6.66 11.51 11.11
5/9/2021 4:15:00 AM 7.86 46.148 0.069 6.62 10.67 11.12
5/9/2021 4:30:00 AM 7.8 46.04 0.069 6.62 11.53 11.14
5/9/2021 4:45:00 AM 7.75 45.95 0.07 6.6 11.71 11.15
5/9/2021 5:00:00 AM 7.69 45.842 0.07 6.63 10.97 11.17
5/9/2021 5:15:00 AM 7.64 45.752 0.07 6.6 10.88 11.19
5/9/2021 5:30:00 AM 7.59 45.662 0.07 6.63 11.4 11.2
5/9/2021 5:45:00 AM 7.54 45.572 0.069 6.64 11.78 11.21
5/9/2021 6:00:00 AM 7.48 45.464 0.069 6.63 10.34 11.23
5/9/2021 6:15:00 AM 7.43 45.374 0.07 6.63 11.14 11.26
5/9/2021 6:30:00 AM 7.39 45.302 0.07 6.65 10.89 11.29
5/9/2021 6:45:00 AM 7.35 45.23 0.07 6.63 10.55 11.32
5/9/2021 7:00:00 AM 7.32 45.176 0.069 6.64 10.31 11.34
5/9/2021 7:15:00 AM 7.3 45.14 0.07 6.66 9.89 11.37
5/9/2021 7:30:00 AM 7.28 45.104 0.07 6.64 10.2 11.41
5/9/2021 7:45:00 AM 7.28 45.104 0.07 6.68 9.8 11.45
5/9/2021 8:00:00 AM 7.3 45.14 0.07 6.69 9.37 11.48
5/9/2021 8:15:00 AM 7.34 45.212 0.07 6.69 9.09 11.51
5/9/2021 8:30:00 AM 7.4 45.32 0.07 6.72 8.45 11.54
5/9/2021 8:45:00 AM 7.47 45.446 0.069 6.72 8.58 11.57
5/9/2021 9:00:00 AM 7.56 45.608 0.07 6.75 8.69 11.59
5/9/2021 9:15:00 AM 7.64 45.752 0.069 6.77 8.79 11.61
5/9/2021 9:30:00 AM 7.75 45.95 0.07 6.77 8.75 11.61
5/9/2021 9:45:00 AM 7.85 46.13 0.07 6.77 8.31 11.62
5/9/2021 10:00:00 AM 7.96 46.328 0.07 6.77 7.97 11.62
5/9/2021 10:15:00 AM 8.08 46.544 0.069 6.79 8.17 11.63
5/9/2021 10:30:00 AM 8.2 46.76 0.069 6.8 7.84 11.62
5/9/2021 10:45:00 AM 8.3 46.94 0.069 6.8 9.17 11.62
5/9/2021 11:00:00 AM 8.38 47.084 0.069 6.84 7.81 11.6
5/9/2021 11:15:00 AM 8.49 47.282 0.069 6.84 7.75 11.59
5/9/2021 11:30:00 AM 8.59 47.462 0.069 6.83 7.63 11.58
5/9/2021 11:45:00 AM 8.7 47.66 0.069 6.86 8.14 11.56
5/9/2021 12:00:00 PM 8.81 47.858 0.069 6.83 8.02 11.54
5/9/2021 12:15:00 PM 8.93 48.074 0.069 6.84 7.75 11.52
5/9/2021 12:30:00 PM 9.07 48.326 0.069 6.84 7.78 11.49
5/9/2021 12:45:00 PM 9.21 48.578 0.069 6.84 7.96 11.46
5/9/2021 1:00:00 PM 9.32 48.776 0.069 6.86 8.11 11.43
5/9/2021 1:15:00 PM 9.38 48.884 0.069 6.85 7.91 11.4
5/9/2021 1:30:00 PM 9.45 49.01 0.069 6.82 7.73 11.37
5/9/2021 1:45:00 PM 9.52 49.136 0.068 6.86 8.75 11.33
5/9/2021 2:00:00 PM 9.6 49.28 0.069 6.85 8.27 11.31
5/9/2021 2:15:00 PM 9.65 49.37 0.069 6.9 20.27 11.28
5/9/2021 2:30:00 PM 9.66 49.388 0.069 6.82 7.85 11.24
5/9/2021 2:45:00 PM 9.68 49.424 0.068 6.81 7.33 11.21
5/9/2021 3:00:00 PM 9.71 49.478 0.069 6.83 9.88 11.2
5/9/2021 3:15:00 PM 9.75 49.55 0.069 6.85 7.77 11.2
5/9/2021 3:30:00 PM 9.77 49.586 0.069 6.84 8.06 11.17
5/9/2021 3:45:00 PM 9.76 49.568 0.069 6.85 7.98 11.14
5/9/2021 4:00:00 PM 9.74 49.532 0.069 6.79 7.39 11.11
5/9/2021 4:15:00 PM 9.72 49.496 0.069 6.79 7.76 11.1
5/9/2021 4:30:00 PM 9.69 49.442 0.069 6.82 9.43 11.08
5/9/2021 4:45:00 PM 9.66 49.388 0.069 6.82 9.06 11.06
5/9/2021 5:00:00 PM 9.62 49.316 0.069 6.78 10.19 11.05
5/9/2021 5:15:00 PM 9.58 49.244 0.07 6.74 10.6 11.03
5/9/2021 5:30:00 PM 9.53 49.154 0.071 6.8 10.3 11.02
5/9/2021 5:45:00 PM 9.47 49.046 0.071 6.76 10.94 11
5/9/2021 6:00:00 PM 9.42 48.956 0.072 6.79 12.62 11
5/9/2021 6:15:00 PM 9.36 48.848 0.072 6.76 11.88 11
5/9/2021 6:30:00 PM 9.3 48.74 0.073 6.77 13.59 11
5/9/2021 6:45:00 PM 9.23 48.614 0.073 6.78 13.49 11.01
5/9/2021 7:00:00 PM 9.16 48.488 0.074 6.74 13.2 11
5/9/2021 7:15:00 PM 9.08 48.344 0.074 6.77 15.38 11
5/9/2021 7:30:00 PM 9 48.2 0.075 6.73 17.22 11.01
5/9/2021 7:45:00 PM 8.93 48.074 0.075 6.75 19.15 11.01
5/9/2021 8:00:00 PM 8.86 47.948 0.075 6.75 19.23 11.03
5/9/2021 8:15:00 PM 8.79 47.822 0.075 6.75 20.51 11.04
5/9/2021 8:30:00 PM 8.73 47.714 0.075 6.72 24.88 11.05
5/9/2021 8:45:00 PM 8.67 47.606 0.075 6.74 27.88 11.06
5/9/2021 9:00:00 PM 8.62 47.516 0.074 6.71 23.24 11.07
5/9/2021 9:15:00 PM 8.56 47.408 0.073 6.72 44.83 11.08
5/9/2021 9:30:00 PM 8.51 47.318 0.072 6.73 31.13 11.09
5/9/2021 9:45:00 PM 8.47 47.246 0.072 6.7 37.12 11.09
5/9/2021 10:00:00 PM 8.42 47.156 0.071 6.72 46.93 11.11
5/9/2021 10:15:00 PM 8.38 47.084 0.071 6.7 29.05 11.11
5/9/2021 10:30:00 PM 8.34 47.012 0.071 6.69 51.52 11.13
5/9/2021 10:45:00 PM 8.31 46.958 0.071 6.74 73 11.14
5/9/2021 11:00:00 PM 8.27 46.886 0.071 6.69 42.96 11.13
5/9/2021 11:15:00 PM 8.24 46.832 0.071 6.69 32.82 11.15
5/9/2021 11:30:00 PM 8.2 46.76 0.07 6.69 34 11.18
5/9/2021 11:45:00 PM 8.17 46.706 0.069 6.72 25.47 11.17
5/10/2021 12:00:00 AM 8.15 46.67 0.068 6.66 36.52 11.18
5/10/2021 12:15:00 AM 8.12 46.616 0.068 6.66 29.39 11.19
5/10/2021 12:30:00 AM 8.09 46.562 0.068 6.67 42.24 11.19
5/10/2021 12:45:00 AM 8.07 46.526 0.068 6.67 38.69 11.2
5/10/2021 1:00:00 AM 8.05 46.49 0.067 6.67 40.56 11.22
5/10/2021 1:15:00 AM 8.03 46.454 0.066 6.69 46.95 11.23
5/10/2021 1:30:00 AM 8.01 46.418 0.066 6.68 38.68 11.21
5/10/2021 1:45:00 AM 8 46.4 0.066 6.65 57.65 11.22
5/10/2021 2:00:00 AM 7.99 46.382 0.065 6.67 66.44 11.23
5/10/2021 2:15:00 AM 7.98 46.364 0.065 6.66 64.53 11.23
5/10/2021 2:30:00 AM 7.97 46.346 0.064 6.67 45.93 11.25
5/10/2021 2:45:00 AM 7.96 46.328 0.063 6.65 38.38 11.24
5/10/2021 3:00:00 AM 7.96 46.328 0.062 6.65 52.85 11.25
5/10/2021 3:15:00 AM 7.95 46.31 0.062 6.63 53.29 11.24
5/10/2021 3:30:00 AM 7.95 46.31 0.062 6.63 36.66 11.24
5/10/2021 3:45:00 AM 7.94 46.292 0.061 6.65 50.89 11.23
5/10/2021 4:00:00 AM 7.93 46.274 0.061 6.63 46.85 11.22
5/10/2021 4:15:00 AM 7.93 46.274 0.06 6.65 38.38 11.23
5/10/2021 4:30:00 AM 7.92 46.256 0.06 6.66 79.9 11.23
5/10/2021 4:45:00 AM 7.92 46.256 0.06 6.61 49.78 11.23
5/10/2021 5:00:00 AM 7.92 46.256 0.06 6.63 58.82 11.22
5/10/2021 5:15:00 AM 7.91 46.238 0.06 6.6 40.82 11.22
5/10/2021 5:30:00 AM 7.91 46.238 0.06 6.59 40.14 11.22
5/10/2021 5:45:00 AM 7.91 46.238 0.06 6.61 36.74 11.22
5/10/2021 6:00:00 AM 7.9 46.22 0.06 6.62 37.2 11.22
5/10/2021 6:15:00 AM 7.89 46.202 0.06 6.62 32.63 11.21
5/10/2021 6:30:00 AM 7.89 46.202 0.06 6.58 33.82 11.21
5/10/2021 6:45:00 AM 7.88 46.184 0.06 6.62 33.81 11.23
5/10/2021 7:00:00 AM 7.88 46.184 0.06 6.62 30.81 11.23
5/10/2021 7:15:00 AM 7.88 46.184 0.061 6.58 29.2 11.22
5/10/2021 7:30:00 AM 7.88 46.184 0.061 6.61 40.16 11.24
5/10/2021 7:45:00 AM 7.89 46.202 0.061 6.63 40.9 11.24
5/10/2021 8:00:00 AM 7.91 46.238 0.062 6.59 40.2 11.25
5/10/2021 8:15:00 AM 7.92 46.256 0.061 6.62 31.58 11.26
5/10/2021 8:30:00 AM 7.94 46.292 0.061 6.62 31.13 11.27
5/10/2021 8:45:00 AM 7.95 46.31 0.061 6.63 35.88 11.27
5/10/2021 9:00:00 AM 7.97 46.346 0.061 6.67 18.3 11.29
5/10/2021 9:15:00 AM 8.01 46.418 0.062 6.65 20.94 11.3
5/10/2021 9:30:00 AM 8.04 46.472 0.061 6.66 24.41 11.31
5/10/2021 9:45:00 AM 8.06 46.508 0.062 6.65 22.43 11.31
5/10/2021 10:00:00 AM 8.09 46.562 0.062 6.67 15.43 11.33
5/10/2021 10:15:00 AM 8.13 46.634 0.062 6.67 23.86 11.33
5/10/2021 10:30:00 AM 8.16 46.688 0.062 6.66 16.3 11.34
5/10/2021 10:45:00 AM 8.19 46.742 0.062 6.67 20.34 11.34
5/10/2021 11:00:00 AM 8.21 46.778 0.062 6.67 28.35 11.35
5/10/2021 11:15:00 AM 8.25 46.85 0.062 6.64 33.28 11.36
5/10/2021 11:30:00 AM 8.31 46.958 0.063 6.68 19.8 11.37
5/10/2021 11:45:00 AM 8.38 47.084 0.062 6.7 19.18 11.38
5/10/2021 12:00:00 PM 8.49 47.282 0.062 6.71 18.18 11.38
5/10/2021 12:15:00 PM 8.58 47.444 0.062 6.69 16.29 11.38
5/10/2021 12:30:00 PM 8.66 47.588 0.062 6.71 16.6 11.37
5/10/2021 12:45:00 PM 8.73 47.714 0.063 6.71 15.93 11.38
5/10/2021 1:00:00 PM 8.78 47.804 0.063 6.72 17.73 11.37
5/10/2021 1:15:00 PM 8.88 47.984 0.062 6.74 16.96 11.36
5/10/2021 1:30:00 PM 8.94 48.092 0.063 6.75 17.07 11.35
5/10/2021 1:45:00 PM 8.97 48.146 0.062 6.73 16.86 11.33
5/10/2021 2:00:00 PM 9.04 48.272 0.063 6.75 16.3 11.33
5/10/2021 2:15:00 PM 9.14 48.452 0.063 6.76 15.7 11.32
5/10/2021 2:30:00 PM 9.23 48.614 0.063 6.78 16.39 11.3
5/10/2021 2:45:00 PM 9.34 48.812 0.063 6.76 16.06 11.31
5/10/2021 3:00:00 PM 9.44 48.992 0.063 6.76 25.3 11.28
5/10/2021 3:15:00 PM 9.57 49.226 0.063 6.77 14.85 11.26
5/10/2021 3:30:00 PM 9.74 49.532 0.063 6.79 14.53 11.24
5/10/2021 3:45:00 PM 9.8 49.64 0.063 6.77 13.85 11.21
5/10/2021 4:00:00 PM 9.89 49.802 0.063 6.77 20.46 11.19
5/10/2021 4:15:00 PM 9.96 49.928 0.063 6.77 15.42 11.16
5/10/2021 4:30:00 PM 9.99 49.982 0.063 6.8 14 11.13
5/10/2021 4:45:00 PM 10.04 50.072 0.063 6.77 14.36 11.11
5/10/2021 5:00:00 PM 10.1 50.18 0.063 6.75 14.1 11.08
5/10/2021 5:15:00 PM 10.13 50.234 0.063 6.74 13.7 11.06
5/10/2021 5:30:00 PM 10.15 50.27 0.063 6.78 13.3 11.01
5/10/2021 5:45:00 PM 10.19 50.342 0.063 6.78 14.68 10.98
5/10/2021 6:00:00 PM 10.22 50.396 0.063 6.74 13.75 10.95
5/10/2021 6:15:00 PM 10.23 50.414 0.063 6.73 12.95 10.93
5/10/2021 6:30:00 PM 10.23 50.414 0.063 6.75 13.33 10.91
5/10/2021 6:45:00 PM 10.22 50.396 0.063 6.72 12.97 10.9
5/10/2021 7:00:00 PM 10.19 50.342 0.063 6.74 13.11 10.86
5/10/2021 7:15:00 PM 10.16 50.288 0.064 6.73 13.06 10.85
5/10/2021 7:30:00 PM 10.12 50.216 0.064 6.71 13.05 10.84
5/10/2021 7:45:00 PM 10.06 50.108 0.064 6.68 13.51 10.83
5/10/2021 8:00:00 PM 10 50 0.064 6.65 13.19 10.8
5/10/2021 8:15:00 PM 9.93 49.874 0.063 6.65 12.86 10.81
5/10/2021 8:30:00 PM 9.86 49.748 0.064 6.64 12.45 10.77
5/10/2021 8:45:00 PM 9.78 49.604 0.064 6.61 12.74 10.75
5/10/2021 9:00:00 PM 9.7 49.46 0.064 6.6 12.88 10.73
5/10/2021 9:15:00 PM 9.63 49.334 0.064 6.62 12.96 10.75
5/10/2021 9:30:00 PM 9.54 49.172 0.064 6.62 13.49 10.76
5/10/2021 9:45:00 PM 9.46 49.028 0.064 6.59 19.36 10.78
5/10/2021 10:00:00 PM 9.38 48.884 0.064 6.57 15.7 10.79
5/10/2021 10:15:00 PM 9.3 48.74 0.064 6.59 12.46 10.79
5/10/2021 10:30:00 PM 9.23 48.614 0.065 6.59 13.33 10.8
5/10/2021 10:45:00 PM 9.15 48.47 0.064 6.57 11.41 10.81
5/10/2021 11:00:00 PM 9.08 48.344 0.065 6.57 12.79 10.82
5/10/2021 11:15:00 PM 9 48.2 0.065 6.58 12.23 10.84
5/10/2021 11:30:00 PM 8.93 48.074 0.065 6.55 11.72 10.86
5/10/2021 11:45:00 PM 8.85 47.93 0.065 6.56 11.68 10.88
5/11/2021 12:00:00 AM 8.77 47.786 0.065 6.56 13.29 10.9
5/11/2021 12:15:00 AM 8.7 47.66 0.065 6.56 12.14 10.92
5/11/2021 12:30:00 AM 8.64 47.552 0.065 6.55 12.09 10.93
5/11/2021 12:45:00 AM 8.57 47.426 0.065 6.54 12.28 10.95
5/11/2021 1:00:00 AM 8.5 47.3 0.065 6.55 12.17 10.97
5/11/2021 1:15:00 AM 8.44 47.192 0.065 6.57 11.61 10.99
5/11/2021 1:30:00 AM 8.38 47.084 0.065 6.56 12.17 11
5/11/2021 1:45:00 AM 8.32 46.976 0.065 6.59 11.27 11.01
5/11/2021 2:00:00 AM 8.27 46.886 0.065 6.58 12.44 11.04
5/11/2021 2:15:00 AM 8.22 46.796 0.065 6.58 11.56 11.06
5/11/2021 2:30:00 AM 8.17 46.706 0.065 6.55 11.66 11.06
5/11/2021 2:45:00 AM 8.12 46.616 0.066 6.6 12.73 11.09
5/11/2021 3:00:00 AM 8.08 46.544 0.066 6.57 11.76 11.11
5/11/2021 3:15:00 AM 8.03 46.454 0.065 6.56 11.62 11.11
5/11/2021 3:30:00 AM 7.99 46.382 0.065 6.55 11.15 11.12
5/11/2021 3:45:00 AM 7.94 46.292 0.065 6.56 11.75 11.14
5/11/2021 4:00:00 AM 7.89 46.202 0.065 6.57 11.87 11.15
5/11/2021 4:15:00 AM 7.84 46.112 0.065 6.55 11.38 11.16
5/11/2021 4:30:00 AM 7.79 46.022 0.066 6.55 11.4 11.17
5/11/2021 4:45:00 AM 7.74 45.932 0.065 6.57 11.35 11.18
5/11/2021 5:00:00 AM 7.68 45.824 0.066 6.54 11.45 11.2
5/11/2021 5:15:00 AM 7.63 45.734 0.065 6.57 11.55 11.21
5/11/2021 5:30:00 AM 7.58 45.644 0.066 6.55 12.88 11.22
5/11/2021 5:45:00 AM 7.53 45.554 0.066 6.56 11.87 11.24
5/11/2021 6:00:00 AM 7.48 45.464 0.065 6.54 14.21 11.25
5/11/2021 6:15:00 AM 7.43 45.374 0.066 6.56 13.55 11.27
5/11/2021 6:30:00 AM 7.39 45.302 0.066 6.56 10.62 11.29
5/11/2021 6:45:00 AM 7.34 45.212 0.066 6.56 11.84 11.32
5/11/2021 7:00:00 AM 7.31 45.158 0.066 6.61 10.81 11.35
5/11/2021 7:15:00 AM 7.28 45.104 0.066 6.62 9.73 11.38
5/11/2021 7:30:00 AM 7.26 45.068 0.066 6.6 44.6 11.4
5/11/2021 7:45:00 AM 7.25 45.05 0.066 6.61 11.96 11.44
5/11/2021 8:00:00 AM 7.26 45.068 0.066 6.63 9.87 11.48
5/11/2021 8:15:00 AM 7.29 45.122 0.066 6.64 9.89 11.51
5/11/2021 8:30:00 AM 7.33 45.194 0.066 6.67 11.24 11.55
5/11/2021 8:45:00 AM 7.39 45.302 0.066 6.66 10.15 11.58
5/11/2021 9:00:00 AM 7.48 45.464 0.066 6.71 10.21 11.61
5/11/2021 9:15:00 AM 7.58 45.644 0.066 6.7 10 11.63
5/11/2021 9:30:00 AM 7.69 45.842 0.066 6.7 9.94 11.64
5/11/2021 9:45:00 AM 7.81 46.058 0.066 6.76 11.44 11.65
5/11/2021 10:00:00 AM 7.94 46.292 0.066 6.74 8.79 11.66
5/11/2021 10:15:00 AM 8.08 46.544 0.066 6.73 9.44 11.67
5/11/2021 10:30:00 AM 8.27 46.886 0.065 6.77 9.16 11.66
5/11/2021 10:45:00 AM 8.35 47.03 0.066 6.74 9.18 11.66
5/11/2021 11:00:00 AM 8.48 47.264 0.066 6.77 8.88 11.65
5/11/2021 11:15:00 AM 8.56 47.408 0.066 6.77 8.71 11.63
5/11/2021 11:30:00 AM 8.6 47.48 0.066 6.75 8.74 11.6
5/11/2021 11:45:00 AM 8.67 47.606 0.066 6.81 9.35 11.59
5/11/2021 12:00:00 PM 8.74 47.732 0.065 6.79 8.58 11.57
5/11/2021 12:15:00 PM 8.88 47.984 0.066 6.8 8.62 11.56
5/11/2021 12:30:00 PM 8.98 48.164 0.065 6.82 8.82 11.53
5/11/2021 12:45:00 PM 9.07 48.326 0.066 6.8 8.27 11.5
5/11/2021 1:00:00 PM 9.16 48.488 0.065 6.84 8.85 11.48
5/11/2021 1:15:00 PM 9.28 48.704 0.065 6.8 8.39 11.45
5/11/2021 1:30:00 PM 9.34 48.812 0.066 6.81 8.65 11.42
5/11/2021 1:45:00 PM 9.52 49.136 0.065 6.81 8.42 11.41
5/11/2021 2:00:00 PM 9.59 49.262 0.065 6.81 8.36 11.38
5/11/2021 2:15:00 PM 9.66 49.388 0.065 6.81 9.45 11.36
5/11/2021 2:30:00 PM 9.69 49.442 0.065 6.8 9.27 11.34
5/11/2021 2:45:00 PM 9.8 49.64 0.065 6.85 9.2 11.33
5/11/2021 3:00:00 PM 9.96 49.928 0.066 6.85 9.21 11.32
5/11/2021 3:15:00 PM 10.05 50.09 0.065 6.85 9.22 11.3
5/11/2021 3:30:00 PM 10.12 50.216 0.065 6.82 8.51 11.27
5/11/2021 3:45:00 PM 10.13 50.234 0.066 6.83 8.33 11.25
5/11/2021 4:00:00 PM 10.16 50.288 0.065 6.81 8.15 11.24
5/11/2021 4:15:00 PM 10.23 50.414 0.066 6.84 8.25 11.22
5/11/2021 4:30:00 PM 10.32 50.576 0.066 6.82 8.4 11.2
5/11/2021 4:45:00 PM 10.31 50.558 0.065 6.81 9.03 11.17
5/11/2021 5:00:00 PM 10.29 50.522 0.066 6.84 7.95 11.15
5/11/2021 5:15:00 PM 10.33 50.594 0.066 6.81 8.66 11.15
5/11/2021 5:30:00 PM 10.34 50.612 0.066 6.8 7.73 11.13
5/11/2021 5:45:00 PM 10.34 50.612 0.066 6.79 7.8 11.11
5/11/2021 6:00:00 PM 10.34 50.612 0.066 6.78 7.67 11.08
5/11/2021 6:15:00 PM 10.33 50.594 0.065 6.79 7.81 11.06
5/11/2021 6:30:00 PM 10.31 50.558 0.066 6.8 8.53 11.05
5/11/2021 6:45:00 PM 10.28 50.504 0.066 6.77 8.58 11.01
5/11/2021 7:00:00 PM 10.23 50.414 0.066 6.76 8.78 10.98
5/11/2021 7:15:00 PM 10.17 50.306 0.066 6.75 8.27 10.94
5/11/2021 7:30:00 PM 10.11 50.198 0.066 6.74 8.15 10.91
5/11/2021 7:45:00 PM 10.03 50.054 0.066 6.73 8.56 10.89
5/11/2021 8:00:00 PM 9.97 49.946 0.066 6.69 8.51 10.86
5/11/2021 8:15:00 PM 9.9 49.82 0.066 6.72 9.02 10.84
5/11/2021 8:30:00 PM 9.82 49.676 0.066 6.67 9.1 10.83
5/11/2021 8:45:00 PM 9.72 49.496 0.067 6.65 9.15 10.82
5/11/2021 9:00:00 PM 9.61 49.298 0.067 6.63 8.57 10.82
5/11/2021 9:15:00 PM 9.5 49.1 0.067 6.66 8.49 10.82
5/11/2021 9:30:00 PM 9.39 48.902 0.067 6.62 8.61 10.82
5/11/2021 9:45:00 PM 9.29 48.722 0.067 6.61 8.78 10.83
5/11/2021 10:00:00 PM 9.21 48.578 0.067 6.61 8.4 10.83
5/11/2021 10:15:00 PM 9.12 48.416 0.067 6.6 9.02 10.84
5/11/2021 10:30:00 PM 9.04 48.272 0.067 6.64 9.19 10.84
5/11/2021 10:45:00 PM 8.96 48.128 0.067 6.6 8.4 10.86
5/11/2021 11:00:00 PM 8.88 47.984 0.067 6.59 9 10.87
5/11/2021 11:15:00 PM 8.79 47.822 0.067 6.6 8 10.89
5/11/2021 11:30:00 PM 8.7 47.66 0.068 6.63 8.63 10.91
5/11/2021 11:45:00 PM 8.62 47.516 0.068 6.59 8.74 10.92
5/12/2021 12:00:00 AM 8.53 47.354 0.068 6.59 9.66 10.95
5/12/2021 12:15:00 AM 8.44 47.192 0.068 6.58 8.59 10.96
5/12/2021 12:30:00 AM 8.36 47.048 0.068 6.59 8.52 10.98
5/12/2021 12:45:00 AM 8.28 46.904 0.068 6.57 9.41 11.01
5/12/2021 1:00:00 AM 8.21 46.778 0.068 6.58 9.02 11.03
5/12/2021 1:15:00 AM 8.14 46.652 0.068 6.57 10.18 11.05
5/12/2021 1:30:00 AM 8.08 46.544 0.068 6.58 9.93 11.06
5/12/2021 1:45:00 AM 8.01 46.418 0.068 6.57 11.01 11.09
5/12/2021 2:00:00 AM 7.94 46.292 0.068 6.57 9.09 11.1
5/12/2021 2:15:00 AM 7.88 46.184 0.068 6.56 9.47 11.12
5/12/2021 2:30:00 AM 7.81 46.058 0.068 6.57 8.74 11.14
5/12/2021 2:45:00 AM 7.75 45.95 0.069 6.57 8.75 11.16
5/12/2021 3:00:00 AM 7.69 45.842 0.069 6.58 9.27 11.17
5/12/2021 3:15:00 AM 7.63 45.734 0.068 6.59 9.77 11.19
5/12/2021 3:30:00 AM 7.57 45.626 0.069 6.58 8.43 11.21
5/12/2021 3:45:00 AM 7.52 45.536 0.068 6.58 9.39 11.22
5/12/2021 4:00:00 AM 7.47 45.446 0.069 6.57 9.06 11.23
5/12/2021 4:15:00 AM 7.44 45.392 0.069 6.59 9.03 11.25
5/12/2021 4:30:00 AM 7.41 45.338 0.069 6.59 8.76 11.26
5/12/2021 4:45:00 AM 7.38 45.284 0.069 6.59 8.72 11.27
5/12/2021 5:00:00 AM 7.35 45.23 0.069 6.59 8.87 11.28
5/12/2021 5:15:00 AM 7.33 45.194 0.069 6.61 8.29 11.29
5/12/2021 5:30:00 AM 7.31 45.158 0.069 6.58 8.27 11.3
5/12/2021 5:45:00 AM 7.29 45.122 0.069 6.6 9.27 11.31
5/12/2021 6:00:00 AM 7.27 45.086 0.069 6.59 8.76 11.33
5/12/2021 6:15:00 AM 7.25 45.05 0.069 6.61 8.57 11.34
5/12/2021 6:30:00 AM 7.24 45.032 0.069 6.62 9.03 11.36
5/12/2021 6:45:00 AM 7.24 45.032 0.069 6.62 8.34 11.38
5/12/2021 7:00:00 AM 7.23 45.014 0.069 6.64 8.71 11.41
5/12/2021 7:15:00 AM 7.23 45.014 0.069 6.62 8.12 11.43
5/12/2021 7:30:00 AM 7.23 45.014 0.069 6.64 8.3 11.45
5/12/2021 7:45:00 AM 7.23 45.014 0.07 6.63 8.92 11.47
5/12/2021 8:00:00 AM 7.24 45.032 0.069 6.68 8.21 11.5
5/12/2021 8:15:00 AM 7.26 45.068 0.069 6.7 7.66 11.54
5/12/2021 8:30:00 AM 7.28 45.104 0.069 6.67 7.74 11.58
5/12/2021 8:45:00 AM 7.33 45.194 0.069 6.69 7.99 11.61
5/12/2021 9:00:00 AM 7.42 45.356 0.069 6.75 8.14 11.66
5/12/2021 9:15:00 AM 7.53 45.554 0.069 6.76 8.14 11.69
5/12/2021 9:30:00 AM 7.64 45.752 0.069 6.75 8.48 11.72
5/12/2021 9:45:00 AM 7.75 45.95 0.069 6.75 8 11.73
5/12/2021 10:00:00 AM 7.83 46.094 0.069 6.75 7.39 11.74
5/12/2021 10:15:00 AM 8.04 46.472 0.069 6.77 13.64 11.74
5/12/2021 10:30:00 AM 8.26 46.868 0.069 6.8 9.55 11.74
5/12/2021 10:45:00 AM 8.48 47.264 0.069 6.81 7.49 11.74
5/12/2021 11:00:00 AM 8.68 47.624 0.069 6.84 7.03 11.73
5/12/2021 11:15:00 AM 8.9 48.02 0.069 6.83 6.99 11.71
5/12/2021 11:30:00 AM 9.15 48.47 0.069 6.85 8.01 11.69
5/12/2021 11:45:00 AM 9.41 48.938 0.069 6.87 8.48 11.66
5/12/2021 12:00:00 PM 9.65 49.37 0.068 6.87 7.17 11.63
5/12/2021 12:15:00 PM 9.9 49.82 0.069 6.87 7.18 11.59
5/12/2021 12:30:00 PM 10.14 50.252 0.069 6.91 7.31 11.55
5/12/2021 12:45:00 PM 10.42 50.756 0.068 6.91 9.01 11.51
5/12/2021 1:00:00 PM 10.65 51.17 0.069 6.93 8.71 11.46
5/12/2021 1:15:00 PM 10.96 51.728 0.069 6.91 7.63 11.4
5/12/2021 1:30:00 PM 11.08 51.944 0.068 6.89 7.37 11.34
5/12/2021 1:45:00 PM 11.32 52.376 0.069 6.89 6.83 11.29
5/12/2021 2:00:00 PM 11.41 52.538 0.069 6.9 8.02 11.23
5/12/2021 2:15:00 PM 11.61 52.898 0.068 6.91 8.52 11.18
5/12/2021 2:30:00 PM 11.71 53.078 0.069 6.89 7.78 11.13
5/12/2021 2:45:00 PM 11.91 53.438 0.069 6.9 7.4 11.09
5/12/2021 3:00:00 PM 12.02 53.636 0.068 6.93 6.91 11.02
5/12/2021 3:15:00 PM 12.11 53.798 0.069 6.92 7.42 10.98
5/12/2021 3:30:00 PM 12.15 53.87 0.068 6.9 8.32 10.95
5/12/2021 3:45:00 PM 12.2 53.96 0.069 6.89 7.62 10.91
5/12/2021 4:00:00 PM 12.37 54.266 0.068 6.91 8.36 10.88
5/12/2021 4:15:00 PM 12.4 54.32 0.069 6.89 7.47 10.82
5/12/2021 4:30:00 PM 12.5 54.5 0.069 6.93 8.14 10.8
5/12/2021 4:45:00 PM 12.55 54.59 0.069 6.9 7.64 10.78
5/12/2021 5:00:00 PM 12.59 54.662 0.069 6.92 7.27 10.76
5/12/2021 5:15:00 PM 12.57 54.626 0.069 6.89 8.62 10.74
5/12/2021 5:30:00 PM 12.54 54.572 0.069 6.88 8.95 10.72
5/12/2021 5:45:00 PM 12.51 54.518 0.069 6.88 9.76 10.69
5/12/2021 6:00:00 PM 12.44 54.392 0.069 6.86 9.03 10.66
5/12/2021 6:15:00 PM 12.37 54.266 0.069 6.86 10.23 10.63
5/12/2021 6:30:00 PM 12.34 54.212 0.069 6.84 8.96 10.61
5/12/2021 6:45:00 PM 12.27 54.086 0.069 6.81 8.2 10.59
5/12/2021 7:00:00 PM 12.2 53.96 0.069 6.8 8.42 10.57
5/12/2021 7:15:00 PM 12.1 53.78 0.069 6.78 8.21 10.54
5/12/2021 7:30:00 PM 12 53.6 0.069 6.77 8.15 10.52
5/12/2021 7:45:00 PM 11.89 53.402 0.07 6.73 7.97 10.49
5/12/2021 8:00:00 PM 11.77 53.186 0.069 6.72 7.51 10.48
5/12/2021 8:15:00 PM 11.66 52.988 0.07 6.7 7.56 10.46
5/12/2021 8:30:00 PM 11.55 52.79 0.07 6.74 8.85 10.43
5/12/2021 8:45:00 PM 11.44 52.592 0.07 6.7 8.19 10.43
5/12/2021 9:00:00 PM 11.33 52.394 0.07 6.71 8.59 10.42
5/12/2021 9:15:00 PM 11.21 52.178 0.07 6.69 8.04 10.41
5/12/2021 9:30:00 PM 11.09 51.962 0.07 6.66 8.08 10.41
5/12/2021 9:45:00 PM 10.96 51.728 0.07 6.65 8.15 10.4
5/12/2021 10:00:00 PM 10.83 51.494 0.07 6.65 9.31 10.41
5/12/2021 10:15:00 PM 10.71 51.278 0.07 6.65 8.29 10.42
5/12/2021 10:30:00 PM 10.59 51.062 0.071 6.62 8.2 10.43
5/12/2021 10:45:00 PM 10.47 50.846 0.071 6.6 8.4 10.43
5/12/2021 11:00:00 PM 10.35 50.63 0.071 6.59 8.67 10.45
5/12/2021 11:15:00 PM 10.23 50.414 0.071 6.6 8.27 10.47
5/12/2021 11:30:00 PM 10.11 50.198 0.07 6.59 8.32 10.49
5/12/2021 11:45:00 PM 9.99 49.982 0.071 6.6 8.33 10.51
5/13/2021 12:00:00 AM 9.88 49.784 0.071 6.6 8.19 10.53
5/13/2021 12:15:00 AM 9.76 49.568 0.071 6.6 8.93 10.56
5/13/2021 12:30:00 AM 9.65 49.37 0.071 6.59 8.97 10.58
5/13/2021 12:45:00 AM 9.53 49.154 0.072 6.61 9.66 10.61
5/13/2021 1:00:00 AM 9.42 48.956 0.071 6.59 9.09 10.64
5/13/2021 1:15:00 AM 9.31 48.758 0.071 6.58 9.21 10.66
5/13/2021 1:30:00 AM 9.21 48.578 0.072 6.61 9.19 10.7
5/13/2021 1:45:00 AM 9.1 48.38 0.072 6.59 7.98 10.72
5/13/2021 2:00:00 AM 9 48.2 0.072 6.6 8.35 10.75
5/13/2021 2:15:00 AM 8.9 48.02 0.072 6.62 8.98 10.77
5/13/2021 2:30:00 AM 8.8 47.84 0.072 6.63 8.51 10.8
5/13/2021 2:45:00 AM 8.71 47.678 0.072 6.6 8.01 10.84
5/13/2021 3:00:00 AM 8.61 47.498 0.072 6.6 9.58 10.86
5/13/2021 3:15:00 AM 8.52 47.336 0.072 6.6 9.26 10.89
5/13/2021 3:30:00 AM 8.43 47.174 0.072 6.6 8.81 10.91
5/13/2021 3:45:00 AM 8.34 47.012 0.072 6.59 7.97 10.94
5/13/2021 4:00:00 AM 8.25 46.85 0.072 6.63 7.94 10.96
5/13/2021 4:15:00 AM 8.16 46.688 0.072 6.64 7.96 10.99
5/13/2021 4:30:00 AM 8.08 46.544 0.073 6.62 8.45 11.01
5/13/2021 4:45:00 AM 8 46.4 0.073 6.61 8.49 11.04
5/13/2021 5:00:00 AM 7.92 46.256 0.073 6.58 8.06 11.06
5/13/2021 5:15:00 AM 7.84 46.112 0.073 6.59 8.19 11.09
5/13/2021 5:30:00 AM 7.76 45.968 0.072 6.61 8.07 11.11
5/13/2021 5:45:00 AM 7.69 45.842 0.073 6.6 9.42 11.14
5/13/2021 6:00:00 AM 7.62 45.716 0.073 6.63 7.88 11.16
5/13/2021 6:15:00 AM 7.55 45.59 0.073 6.61 8.99 11.2
5/13/2021 6:30:00 AM 7.49 45.482 0.073 6.64 8.66 11.24
5/13/2021 6:45:00 AM 7.43 45.374 0.073 6.62 9.11 11.28
5/13/2021 7:00:00 AM 7.38 45.284 0.073 6.62 8.54 11.32
5/13/2021 7:15:00 AM 7.34 45.212 0.073 6.63 7.29 11.37
5/13/2021 7:30:00 AM 7.31 45.158 0.073 6.64 7.15 11.42
5/13/2021 7:45:00 AM 7.3 45.14 0.073 6.65 8.7 11.47
5/13/2021 8:00:00 AM 7.29 45.122 0.073 6.66 6.84 11.51
5/13/2021 8:15:00 AM 7.31 45.158 0.073 6.72 6.83 11.56
5/13/2021 8:30:00 AM 7.36 45.248 0.073 6.72 6.53 11.61
5/13/2021 8:45:00 AM 7.44 45.392 0.072 6.73 9.2 11.67
5/13/2021 9:00:00 AM 7.54 45.572 0.073 6.76 8.27 11.7
5/13/2021 9:15:00 AM 7.64 45.752 0.073 6.82 13.52 11.73
5/13/2021 9:30:00 AM 7.78 46.004 0.072 6.79 7.67 11.75
5/13/2021 9:45:00 AM 7.94 46.292 0.072 6.81 8.21 11.77
5/13/2021 10:00:00 AM 8.11 46.598 0.073 6.81 12.46 11.77
5/13/2021 10:15:00 AM 8.31 46.958 0.072 6.87 13.39 11.78
5/13/2021 10:30:00 AM 8.53 47.354 0.072 6.86 8.41 11.77
5/13/2021 10:45:00 AM 8.77 47.786 0.072 6.88 8.01 11.77
5/13/2021 11:00:00 AM 9.02 48.236 0.072 6.89 7.86 11.76
5/13/2021 11:15:00 AM 9.27 48.686 0.072 6.89 7.24 11.73
5/13/2021 11:30:00 AM 9.55 49.19 0.072 6.91 7.12 11.71
5/13/2021 11:45:00 AM 9.67 49.406 0.072 6.9 8.82 11.68
5/13/2021 12:00:00 PM 9.83 49.694 0.072 6.9 8.29 11.65
5/13/2021 12:15:00 PM 10.07 50.126 0.072 6.92 7.57 11.62
5/13/2021 12:30:00 PM 10.19 50.342 0.072 6.91 6.71 11.6
5/13/2021 12:45:00 PM 10.41 50.738 0.072 6.97 7.05 11.56
5/13/2021 1:00:00 PM 10.43 50.774 0.072 6.92 8.93 11.53
5/13/2021 1:15:00 PM 10.52 50.936 0.072 6.93 9.61 11.51
5/13/2021 1:30:00 PM 10.55 50.99 0.072 6.92 7.66 11.48
5/13/2021 1:45:00 PM 10.63 51.134 0.072 6.92 6.85 11.45
5/13/2021 2:00:00 PM 10.83 51.494 0.072 6.95 6.98 11.42
5/13/2021 2:15:00 PM 10.99 51.782 0.072 6.96 8.07 11.4
5/13/2021 2:30:00 PM 11.1 51.98 0.072 6.94 8.55 11.36
5/13/2021 2:45:00 PM 11.28 52.304 0.071 6.96 6.88 11.33
5/13/2021 3:00:00 PM 11.39 52.502 0.072 6.95 8.51 11.28
5/13/2021 3:15:00 PM 11.71 53.078 0.072 7.01 6.65 11.25
5/13/2021 3:30:00 PM 11.76 53.168 0.072 6.96 7.01 11.17
5/13/2021 3:45:00 PM 11.83 53.294 0.072 6.95 7.86 11.14
5/13/2021 4:00:00 PM 11.88 53.384 0.072 6.97 7.52 11.1
5/13/2021 4:15:00 PM 11.86 53.348 0.072 6.95 7.46 11.06
5/13/2021 4:30:00 PM 11.97 53.546 0.072 6.94 9.14 11.06
5/13/2021 4:45:00 PM 11.93 53.474 0.072 6.92 8.64 11.01
5/13/2021 5:00:00 PM 11.94 53.492 0.072 6.94 8.24 10.97
5/13/2021 5:15:00 PM 12 53.6 0.072 6.91 8.81 10.96
5/13/2021 5:30:00 PM 12.05 53.69 0.071 6.93 8.93 10.96
5/13/2021 5:45:00 PM 12.13 53.834 0.072 6.92 7.57 10.95
5/13/2021 6:00:00 PM 12.14 53.852 0.072 6.96 9.26 10.92
5/13/2021 6:15:00 PM 12.08 53.744 0.072 6.95 8.04 10.88
5/13/2021 6:30:00 PM 12.06 53.708 0.072 6.91 8.44 10.85
5/13/2021 6:45:00 PM 12 53.6 0.072 6.89 7.85 10.81
5/13/2021 7:00:00 PM 11.95 53.51 0.072 6.87 8.88 10.75
5/13/2021 7:15:00 PM 11.91 53.438 0.072 6.85 7.54 10.71
5/13/2021 7:30:00 PM 11.87 53.366 0.072 6.88 9.66 10.66
5/13/2021 7:45:00 PM 11.83 53.294 0.072 6.85 7.42 10.63
5/13/2021 8:00:00 PM 11.77 53.186 0.072 6.81 8.02 10.58
5/13/2021 8:15:00 PM 11.69 53.042 0.072 6.81 7.35 10.54
5/13/2021 8:30:00 PM 11.59 52.862 0.073 6.76 9.32 10.49
5/13/2021 8:45:00 PM 11.48 52.664 0.073 6.76 9.79 10.47
5/13/2021 9:00:00 PM 11.37 52.466 0.073 6.73 8.32 10.44
5/13/2021 9:15:00 PM 11.26 52.268 0.073 6.7 7.43 10.43
5/13/2021 9:30:00 PM 11.14 52.052 0.073 6.69 8.24 10.42
5/13/2021 9:45:00 PM 11.03 51.854 0.073 6.68 9.56 10.42
5/13/2021 10:00:00 PM 10.93 51.674 0.073 6.68 16.65 10.41
5/13/2021 10:15:00 PM 10.82 51.476 0.073 6.67 14.66 10.41
5/13/2021 10:30:00 PM 10.72 51.296 0.073 6.65 8.01 10.41
5/13/2021 10:45:00 PM 10.61 51.098 0.073 6.64 7.86 10.41
5/13/2021 11:00:00 PM 10.51 50.918 0.074 6.66 7.55 10.4
5/13/2021 11:15:00 PM 10.41 50.738 0.073 6.65 7.56 10.41
5/13/2021 11:30:00 PM 10.31 50.558 0.074 6.63 7.41 10.43
5/13/2021 11:45:00 PM 10.21 50.378 0.074 6.66 7.72 10.44
5/14/2021 12:00:00 AM 10.11 50.198 0.074 6.64 7.35 10.45
5/14/2021 12:15:00 AM 10.01 50.018 0.074 6.62 15.13 10.47
5/14/2021 12:30:00 AM 9.92 49.856 0.074 6.62 7.43 10.48
5/14/2021 12:45:00 AM 9.82 49.676 0.074 6.61 9.04 10.5
5/14/2021 1:00:00 AM 9.72 49.496 0.074 6.6 8.08 10.52
5/14/2021 1:15:00 AM 9.63 49.334 0.074 6.59 16.93 10.54
5/14/2021 1:30:00 AM 9.53 49.154 0.074 6.61 7.78 10.57
5/14/2021 1:45:00 AM 9.44 48.992 0.074 6.59 11.98 10.59
5/14/2021 2:00:00 AM 9.34 48.812 0.075 6.57 7.78 10.61
5/14/2021 2:15:00 AM 9.25 48.65 0.075 6.6 8.64 10.64
5/14/2021 2:30:00 AM 9.16 48.488 0.075 6.58 8.09 10.66
5/14/2021 2:45:00 AM 9.07 48.326 0.074 6.59 7.99 10.69
5/14/2021 3:00:00 AM 8.98 48.164 0.075 6.6 8.85 10.72
5/14/2021 3:15:00 AM 8.89 48.002 0.075 6.61 7.47 10.74
5/14/2021 3:30:00 AM 8.8 47.84 0.075 6.59 8.24 10.77
5/14/2021 3:45:00 AM 8.72 47.696 0.075 6.6 9.62 10.79
5/14/2021 4:00:00 AM 8.64 47.552 0.075 6.59 8.09 10.82
5/14/2021 4:15:00 AM 8.56 47.408 0.075 6.59 8.68 10.84
5/14/2021 4:30:00 AM 8.48 47.264 0.075 6.6 7.45 10.86
5/14/2021 4:45:00 AM 8.4 47.12 0.075 6.6 7.03 10.88
5/14/2021 5:00:00 AM 8.33 46.994 0.075 6.6 7.41 10.91
5/14/2021 5:15:00 AM 8.26 46.868 0.075 6.59 7.43 10.93
5/14/2021 5:30:00 AM 8.18 46.724 0.075 6.6 6.82 10.95
5/14/2021 5:45:00 AM 8.11 46.598 0.076 6.6 7.13 10.98
5/14/2021 6:00:00 AM 8.05 46.49 0.076 6.6 13.84 11.01
5/14/2021 6:15:00 AM 7.98 46.364 0.075 6.64 6.8 11.04
5/14/2021 6:30:00 AM 7.92 46.256 0.075 6.65 8.64 11.08
5/14/2021 6:45:00 AM 7.87 46.166 0.076 6.62 7.48 11.13
5/14/2021 7:00:00 AM 7.83 46.094 0.075 6.67 7.11 11.18
5/14/2021 7:15:00 AM 7.79 46.022 0.075 6.65 9.11 11.23
5/14/2021 7:30:00 AM 7.77 45.986 0.076 6.7 6.45 11.28
5/14/2021 7:45:00 AM 7.76 45.968 0.075 6.7 6.45 11.33
5/14/2021 8:00:00 AM 7.76 45.968 0.076 6.68 6.64 11.38
5/14/2021 8:15:00 AM 7.78 46.004 0.075 6.69 7.83 11.44
5/14/2021 8:30:00 AM 7.82 46.076 0.075 6.7 6.64 11.49
5/14/2021 8:45:00 AM 7.9 46.22 0.076 6.75 6.45 11.54
5/14/2021 9:00:00 AM 8 46.4 0.076 6.77 6.34 11.58
5/14/2021 9:15:00 AM 8.12 46.616 0.075 6.77 8.52 11.62
5/14/2021 9:30:00 AM 8.26 46.868 0.075 6.82 6.08 11.64
5/14/2021 9:45:00 AM 8.42 47.156 0.075 6.83 8.2 11.66
5/14/2021 10:00:00 AM 8.61 47.498 0.075 6.84 7.76 11.68
5/14/2021 10:15:00 AM 8.81 47.858 0.075 6.85 6.6 11.69
5/14/2021 10:30:00 AM 9.04 48.272 0.075 6.88 6.22 11.69
5/14/2021 10:45:00 AM 9.29 48.722 0.075 6.9 6.18 11.69
5/14/2021 11:00:00 AM 9.55 49.19 0.075 6.9 6.08 11.67
5/14/2021 11:15:00 AM 9.83 49.694 0.075 6.92 6.22 11.66
5/14/2021 11:30:00 AM 10.11 50.198 0.075 6.94 6.32 11.65
5/14/2021 11:45:00 AM 10.4 50.72 0.075 6.97 6.07 11.62
5/14/2021 12:00:00 PM 10.69 51.242 0.075 6.98 6.53 11.6
5/14/2021 12:15:00 PM 11.02 51.836 0.074 6.99 7.58 11.56
5/14/2021 12:30:00 PM 11.13 52.034 0.075 6.98 6.2 11.51
5/14/2021 12:45:00 PM 11.5 52.7 0.075 6.98 5.74 11.5
5/14/2021 1:00:00 PM 11.59 52.862 0.075 6.98 8.45 11.42
5/14/2021 1:15:00 PM 11.67 53.006 0.075 6.98 5.8 11.39
5/14/2021 1:30:00 PM 11.99 53.582 0.074 6.99 6.8 11.36
5/14/2021 1:45:00 PM 12.3 54.14 0.075 7 6.89 11.33
5/14/2021 2:00:00 PM 12.53 54.554 0.074 7.02 6.63 11.29
5/14/2021 2:15:00 PM 12.83 55.094 0.074 7.03 5.62 11.25
5/14/2021 2:30:00 PM 12.89 55.202 0.074 7.03 5.63 11.2
5/14/2021 2:45:00 PM 13.05 55.49 0.074 7.05 6.82 11.16
5/14/2021 3:00:00 PM 13.05 55.49 0.074 7.05 6.66 11.1
5/14/2021 3:15:00 PM 13.01 55.418 0.074 7.03 6.45 11.05
5/14/2021 3:30:00 PM 12.97 55.346 0.074 6.99 6.64 11.01
5/14/2021 3:45:00 PM 13.1 55.58 0.074 7 6.11 10.98
5/14/2021 4:00:00 PM 13.32 55.976 0.074 7.04 6.85 10.96
5/14/2021 4:15:00 PM 13.54 56.372 0.074 7.04 5.9 10.93
5/14/2021 4:30:00 PM 13.67 56.606 0.074 7.07 5.95 10.89
5/14/2021 4:45:00 PM 13.74 56.732 0.074 7.08 6.37 10.86
5/14/2021 5:00:00 PM 13.78 56.804 0.074 7.05 6.39 10.82
5/14/2021 5:15:00 PM 13.77 56.786 0.074 7.04 6.69 10.77
5/14/2021 5:30:00 PM 13.77 56.786 0.074 7.03 5.83 10.73
5/14/2021 5:45:00 PM 13.8 56.84 0.074 7 5.91 10.69
5/14/2021 6:00:00 PM 13.79 56.822 0.074 7.01 6.53 10.65
5/14/2021 6:15:00 PM 13.76 56.768 0.074 6.99 6.3 10.62
5/14/2021 6:30:00 PM 13.68 56.624 0.074 6.97 6.65 10.58
5/14/2021 6:45:00 PM 13.56 56.408 0.074 6.94 6.21 10.51
5/14/2021 7:00:00 PM 13.46 56.228 0.074 6.91 9.27 10.46
5/14/2021 7:15:00 PM 13.35 56.03 0.074 6.87 6.56 10.42
5/14/2021 7:30:00 PM 13.24 55.832 0.074 6.85 6.3 10.37
5/14/2021 7:45:00 PM 13.13 55.634 0.074 6.82 6.24 10.32
5/14/2021 8:00:00 PM 13.02 55.436 0.074 6.82 6.11 10.29
5/14/2021 8:15:00 PM 12.9 55.22 0.074 6.79 6.45 10.25
5/14/2021 8:30:00 PM 12.79 55.022 0.075 6.76 7.76 10.2
5/14/2021 8:45:00 PM 12.68 54.824 0.075 6.75 6.22 10.17
5/14/2021 9:00:00 PM 12.57 54.626 0.075 6.72 6.72 10.14
5/14/2021 9:15:00 PM 12.46 54.428 0.075 6.72 6.26 10.12
5/14/2021 9:30:00 PM 12.34 54.212 0.075 6.7 6.52 10.11
5/14/2021 9:45:00 PM 12.22 53.996 0.075 6.72 7.02 10.09
5/14/2021 10:00:00 PM 12.09 53.762 0.075 6.66 19.78 10.09
5/14/2021 10:15:00 PM 11.97 53.546 0.075 6.68 6.36 10.08
5/14/2021 10:30:00 PM 11.83 53.294 0.075 6.67 11 10.09
5/14/2021 10:45:00 PM 11.71 53.078 0.076 6.64 9.42 10.09
5/14/2021 11:00:00 PM 11.59 52.862 0.076 6.65 9.83 10.1
5/14/2021 11:15:00 PM 11.48 52.664 0.076 6.66 10.73 10.11
5/14/2021 11:30:00 PM 11.36 52.448 0.076 6.64 7.52 10.12
5/14/2021 11:45:00 PM 11.25 52.25 0.076 6.64 9.08 10.14
5/15/2021 12:00:00 AM 11.15 52.07 0.076 6.66 10.57 10.15
5/15/2021 12:15:00 AM 11.05 51.89 0.077 6.65 9.21 10.16
5/15/2021 12:30:00 AM 10.95 51.71 0.076 6.64 7.93 10.17
5/15/2021 12:45:00 AM 10.86 51.548 0.077 6.66 29.75 10.19
5/15/2021 1:00:00 AM 10.76 51.368 0.077 6.63 314.02 10.21
5/15/2021 1:15:00 AM 10.66 51.188 0.077 6.62 17.72 10.22
5/15/2021 1:30:00 AM 10.56 51.008 0.077 6.62 7.01 10.25
5/15/2021 1:45:00 AM 10.46 50.828 0.077 6.62 9.42 10.26
5/15/2021 2:00:00 AM 10.36 50.648 0.077 6.62 7.17 10.29
5/15/2021 2:15:00 AM 10.26 50.468 0.077 6.6 9.08 10.31
5/15/2021 2:30:00 AM 10.16 50.288 0.077 6.63 8.38 10.34
5/15/2021 2:45:00 AM 10.06 50.108 0.077 6.61 7.23 10.36
5/15/2021 3:00:00 AM 9.96 49.928 0.078 6.6 7.18 10.39
5/15/2021 3:15:00 AM 9.86 49.748 0.077 6.6 8.73 10.41
5/15/2021 3:30:00 AM 9.77 49.586 0.077 6.61 7.69 10.44
5/15/2021 3:45:00 AM 9.68 49.424 0.078 6.59 6.66 10.46
5/15/2021 4:00:00 AM 9.58 49.244 0.078 6.61 7.31 10.49
5/15/2021 4:15:00 AM 9.5 49.1 0.077 6.63 8.21 10.51
5/15/2021 4:30:00 AM 9.41 48.938 0.077 6.62 7.49 10.55
5/15/2021 4:45:00 AM 9.32 48.776 0.078 6.61 6.58 10.57
5/15/2021 5:00:00 AM 9.24 48.632 0.078 6.63 7.45 10.59
5/15/2021 5:15:00 AM 9.16 48.488 0.077 6.62 7.15 10.62
5/15/2021 5:30:00 AM 9.08 48.344 0.078 6.63 13.02 10.64
5/15/2021 5:45:00 AM 9 48.2 0.078 6.63 7.13 10.67
5/15/2021 6:00:00 AM 8.93 48.074 0.077 6.62 8.6 10.7
5/15/2021 6:15:00 AM 8.86 47.948 0.077 6.61 12.14 10.75
5/15/2021 6:30:00 AM 8.79 47.822 0.078 6.63 6.33 10.8
5/15/2021 6:45:00 AM 8.73 47.714 0.078 6.63 9.5 10.84
5/15/2021 7:00:00 AM 8.69 47.642 0.078 6.65 6.38 10.9
5/15/2021 7:15:00 AM 8.65 47.57 0.078 6.66 14.95 10.96
5/15/2021 7:30:00 AM 8.62 47.516 0.078 6.7 8.81 11.03
5/15/2021 7:45:00 AM 8.6 47.48 0.078 6.69 8.86 11.08
5/15/2021 8:00:00 AM 8.6 47.48 0.078 6.7 7.26 11.14
5/15/2021 8:15:00 AM 8.61 47.498 0.078 6.72 7.68 11.2
5/15/2021 8:30:00 AM 8.65 47.57 0.077 6.73 7.33 11.26
5/15/2021 8:45:00 AM 8.7 47.66 0.078 6.75 6.05 11.33
5/15/2021 9:00:00 AM 8.8 47.84 0.078 6.77 8.56 11.38
5/15/2021 9:15:00 AM 8.91 48.038 0.078 6.79 5.48 11.43
5/15/2021 9:30:00 AM 9.04 48.272 0.078 6.82 5.16 11.47
5/15/2021 9:45:00 AM 9.2 48.56 0.078 6.85 5.47 11.5
5/15/2021 10:00:00 AM 9.37 48.866 0.077 6.87 4.95 11.52
5/15/2021 10:15:00 AM 9.57 49.226 0.077 6.89 5.28 11.54
5/15/2021 10:30:00 AM 9.79 49.622 0.08 6.9 6.83 11.55
5/15/2021 10:45:00 AM 10.04 50.072 0.077 6.91 5.76 11.55
5/15/2021 11:00:00 AM 10.31 50.558 0.077 6.96 5.04 11.55
5/15/2021 11:15:00 AM 10.45 50.81 0.077 6.97 5.07 11.5
5/15/2021 11:30:00 AM 10.74 51.332 0.077 6.97 5.09 11.5
5/15/2021 11:45:00 AM 10.81 51.458 0.077 6.95 5.53 11.47
5/15/2021 12:00:00 PM 10.88 51.584 0.077 6.94 5.11 11.44
5/15/2021 12:15:00 PM 10.95 51.71 0.077 6.94 5.08 11.43
5/15/2021 12:30:00 PM 11 51.8 0.077 6.94 5.39 11.42
5/15/2021 12:45:00 PM 11.08 51.944 0.077 6.96 5.62 11.42
5/15/2021 1:00:00 PM 11.15 52.07 0.077 6.97 5.14 11.4
5/15/2021 1:15:00 PM 11.22 52.196 0.076 6.99 4.94 11.36
5/15/2021 1:30:00 PM 11.3 52.34 0.077 6.98 4.92 11.35
5/15/2021 1:45:00 PM 11.38 52.484 0.077 6.98 5.95 11.35
5/15/2021 2:00:00 PM 11.42 52.556 0.077 6.99 5.04 11.34
5/15/2021 2:15:00 PM 11.49 52.682 0.076 7 5.15 11.34
5/15/2021 2:30:00 PM 11.58 52.844 0.076 7.02 5.06 11.35
5/15/2021 2:45:00 PM 11.75 53.15 0.076 7.03 5.04 11.35
5/15/2021 3:00:00 PM 11.97 53.546 0.076 7.04 4.85 11.32
5/15/2021 3:15:00 PM 12.12 53.816 0.076 7.05 5.39 11.3
5/15/2021 3:30:00 PM 12.36 54.248 0.076 7.06 6.13 11.28
5/15/2021 3:45:00 PM 12.48 54.464 0.076 7.08 7.02 11.24
5/15/2021 4:00:00 PM 12.57 54.626 0.076 7.08 10.79 11.23
5/15/2021 4:15:00 PM 12.74 54.932 0.076 7.12 8.86 11.2
5/15/2021 4:30:00 PM 12.88 55.184 0.076 7.1 12.13 11.17
5/15/2021 4:45:00 PM 12.97 55.346 0.076 7.1 9.84 11.13
5/15/2021 5:00:00 PM 13.05 55.49 0.076 7.09 5.7 11.09
5/15/2021 5:15:00 PM 13.08 55.544 0.076 7.07 5.42 11.04
5/15/2021 5:30:00 PM 13.15 55.67 0.076 7.08 5.13 11.02
5/15/2021 5:45:00 PM 13.18 55.724 0.076 7.11 6.2 10.98
5/15/2021 6:00:00 PM 13.19 55.742 0.076 7.07 5.13 10.93
5/15/2021 6:15:00 PM 13.19 55.742 0.076 7.07 5.34 10.86
5/15/2021 6:30:00 PM 13.2 55.76 0.076 7.03 5.31 10.8
5/15/2021 6:45:00 PM 13.19 55.742 0.076 7.03 5.55 10.72
5/15/2021 7:00:00 PM 13.19 55.742 0.076 7 5.37 10.69
5/15/2021 7:15:00 PM 13.21 55.778 0.076 6.97 5.46 10.66
5/15/2021 7:30:00 PM 13.22 55.796 0.076 6.97 5.36 10.61
5/15/2021 7:45:00 PM 13.2 55.76 0.076 6.95 5.37 10.54
5/15/2021 8:00:00 PM 13.16 55.688 0.077 6.91 5.8 10.45
5/15/2021 8:15:00 PM 13.1 55.58 0.077 6.88 6.39 10.36
5/15/2021 8:30:00 PM 13.04 55.472 0.077 6.84 10.4 10.29
5/15/2021 8:45:00 PM 12.97 55.346 0.077 6.81 6.66 10.21
5/15/2021 9:00:00 PM 12.9 55.22 0.077 6.79 7.75 10.17
5/15/2021 9:15:00 PM 12.83 55.094 0.077 6.79 5.97 10.12
5/15/2021 9:30:00 PM 12.76 54.968 0.077 6.8 5.86 10.09
5/15/2021 9:45:00 PM 12.69 54.842 0.077 6.76 5.65 10.05
5/15/2021 10:00:00 PM 12.62 54.716 0.078 6.73 7.51 10.03
5/15/2021 10:15:00 PM 12.55 54.59 0.078 6.73 7.03 10
5/15/2021 10:30:00 PM 12.47 54.446 0.078 6.72 7.41 9.98
5/15/2021 10:45:00 PM 12.4 54.32 0.078 6.71 7.58 9.96
5/15/2021 11:00:00 PM 12.32 54.176 0.078 6.69 7.86 9.94
5/15/2021 11:15:00 PM 12.25 54.05 0.078 6.69 7.9 9.93
5/15/2021 11:30:00 PM 12.18 53.924 0.078 6.67 8.85 9.93
5/15/2021 11:45:00 PM 12.1 53.78 0.078 6.71 9.7 9.92
5/16/2021 12:00:00 AM 12.02 53.636 0.078 6.7 10.04 9.93
5/16/2021 12:15:00 AM 11.94 53.492 0.078 6.65 7.57 9.92
5/16/2021 12:30:00 AM 11.85 53.33 0.079 6.65 9.07 9.93
5/16/2021 12:45:00 AM 11.77 53.186 0.079 6.64 8.65 9.94
5/16/2021 1:00:00 AM 11.68 53.024 0.079 6.64 6.89 9.95
5/16/2021 1:15:00 AM 11.61 52.898 0.079 6.64 5.68 9.96
5/16/2021 1:30:00 AM 11.53 52.754 0.079 6.64 5.39 9.97
5/16/2021 1:45:00 AM 11.45 52.61 0.079 6.67 5.46 9.99
5/16/2021 2:00:00 AM 11.36 52.448 0.079 6.63 5.56 10.01
5/16/2021 2:15:00 AM 11.28 52.304 0.079 6.63 5.49 10.02
5/16/2021 2:30:00 AM 11.18 52.124 0.079 6.62 7.09 10.04
5/16/2021 2:45:00 AM 11.1 51.98 0.08 6.63 5.69 10.06
5/16/2021 3:00:00 AM 11.02 51.836 0.079 6.63 5.87 10.08
5/16/2021 3:15:00 AM 10.94 51.692 0.08 6.63 5.96 10.09
5/16/2021 3:30:00 AM 10.85 51.53 0.079 6.63 5.44 10.12
5/16/2021 3:45:00 AM 10.78 51.404 0.08 6.63 5.51 10.12
5/16/2021 4:00:00 AM 10.71 51.278 0.08 6.63 5.46 10.16
5/16/2021 4:15:00 AM 10.64 51.152 0.08 6.63 5.5 10.17
5/16/2021 4:30:00 AM 10.56 51.008 0.08 6.62 6.1 10.18
5/16/2021 4:45:00 AM 10.49 50.882 0.08 6.63 5.72 10.21
5/16/2021 5:00:00 AM 10.41 50.738 0.08 6.63 5.58 10.23
5/16/2021 5:15:00 AM 10.33 50.594 0.08 6.62 5.71 10.25
5/16/2021 5:30:00 AM 10.25 50.45 0.08 6.63 15.56 10.27
5/16/2021 5:45:00 AM 10.18 50.324 0.08 6.62 6.61 10.28
5/16/2021 6:00:00 AM 10.11 50.198 0.08 6.67 5.94 10.32
5/16/2021 6:15:00 AM 10.04 50.072 0.08 6.65 5.88 10.36
5/16/2021 6:30:00 AM 9.97 49.946 0.08 6.65 7.98 10.41
5/16/2021 6:45:00 AM 9.91 49.838 0.08 6.68 5.61 10.47
5/16/2021 7:00:00 AM 9.86 49.748 0.08 6.7 6.35 10.54
5/16/2021 7:15:00 AM 9.83 49.694 0.08 6.69 5.73 10.61
5/16/2021 7:30:00 AM 9.81 49.658 0.08 6.69 5.99 10.69
5/16/2021 7:45:00 AM 9.8 49.64 0.08 6.71 5.43 10.75
5/16/2021 8:00:00 AM 9.78 49.604 0.08 6.74 5.23 10.82
5/16/2021 8:15:00 AM 9.81 49.658 0.08 6.76 5.29 10.9
5/16/2021 8:30:00 AM 9.85 49.73 0.08 6.77 5.28 10.98
5/16/2021 8:45:00 AM 9.9 49.82 0.081 6.79 5.19 11.06
5/16/2021 9:00:00 AM 9.96 49.928 0.08 6.82 5.17 11.13
5/16/2021 9:15:00 AM 10.05 50.09 0.08 6.84 5.08 11.2
5/16/2021 9:30:00 AM 10.22 50.396 0.08 6.87 6.21 11.26
5/16/2021 9:45:00 AM 10.33 50.594 0.079 6.89 5.34 11.3
5/16/2021 10:00:00 AM 10.45 50.81 0.079 6.91 4.82 11.35
5/16/2021 10:15:00 AM 10.56 51.008 0.08 6.94 5.2 11.37
5/16/2021 10:30:00 AM 10.66 51.188 0.079 6.93 5.36 11.38
5/16/2021 10:45:00 AM 10.75 51.35 0.08 6.98 5.2 11.37
5/16/2021 11:00:00 AM 10.82 51.476 0.079 6.99 5.45 11.37
5/16/2021 11:15:00 AM 10.9 51.62 0.079 6.96 4.61 11.39
5/16/2021 11:30:00 AM 11 51.8 0.079 6.96 4.81 11.42
5/16/2021 11:45:00 AM 11.18 52.124 0.079 7 5.49 11.44
5/16/2021 12:00:00 PM 11.4 52.52 0.079 7.06 4.57 11.45
5/16/2021 12:15:00 PM 11.69 53.042 0.079 7.07 4.87 11.44
5/16/2021 12:30:00 PM 11.91 53.438 0.079 7.06 4.68 11.43
5/16/2021 12:45:00 PM 12.24 54.032 0.079 7.09 5.41 11.4
5/16/2021 1:00:00 PM 12.48 54.464 0.079 7.1 5.01 11.38
5/16/2021 1:15:00 PM 12.75 54.95 0.079 7.12 4.87 11.36
5/16/2021 1:30:00 PM 13.05 55.49 0.079 7.12 5.21 11.34
5/16/2021 1:45:00 PM 13.32 55.976 0.079 7.13 6.74 11.3
5/16/2021 2:00:00 PM 13.61 56.498 0.079 7.14 5.59 11.28
5/16/2021 2:15:00 PM 13.91 57.038 0.079 7.15 8.27 11.24
5/16/2021 2:30:00 PM 14.18 57.524 0.079 7.16 4.64 11.2
5/16/2021 2:45:00 PM 14.43 57.974 0.078 7.17 4.59 11.16
5/16/2021 3:00:00 PM 14.65 58.37 0.079 7.17 4.83 11.11
5/16/2021 3:15:00 PM 14.67 58.406 0.078 7.16 4.42 11.07
5/16/2021 3:30:00 PM 14.7 58.46 0.078 7.14 5 10.99
5/16/2021 3:45:00 PM 14.65 58.37 0.078 7.11 5.27 10.9
5/16/2021 4:00:00 PM 14.67 58.406 0.079 7.1 4.74 10.86
5/16/2021 4:15:00 PM 14.54 58.172 0.078 7.06 4.72 10.77
5/16/2021 4:30:00 PM 14.42 57.956 0.079 7.02 4.94 10.68
5/16/2021 4:45:00 PM 14.37 57.866 0.079 6.99 4.44 10.57
5/16/2021 5:00:00 PM 14.33 57.794 0.079 6.96 5.23 10.45
5/16/2021 5:15:00 PM 14.28 57.704 0.079 6.93 5.75 10.37
5/16/2021 5:30:00 PM 14.24 57.632 0.079 6.93 5.54 10.37
5/16/2021 5:45:00 PM 14.24 57.632 0.079 6.95 5.4 10.4
5/16/2021 6:00:00 PM 14.2 57.56 0.079 6.93 5.24 10.4
5/16/2021 6:15:00 PM 14.16 57.488 0.079 6.93 5.28 10.39
5/16/2021 6:30:00 PM 14.09 57.362 0.079 6.93 5.75 10.32
5/16/2021 6:45:00 PM 14.04 57.272 0.079 6.9 5.74 10.28
5/16/2021 7:00:00 PM 13.98 57.164 0.079 6.89 5.61 10.23
5/16/2021 7:15:00 PM 13.91 57.038 0.079 6.85 5.24 10.16
5/16/2021 7:30:00 PM 13.85 56.93 0.079 6.83 7.52 10.1
5/16/2021 7:45:00 PM 13.81 56.858 0.08 6.83 5.84 10.06
5/16/2021 8:00:00 PM 13.75 56.75 0.079 6.82 5.29 10.02
5/16/2021 8:15:00 PM 13.7 56.66 0.08 6.85 7.62 9.97
5/16/2021 8:30:00 PM 13.64 56.552 0.08 6.78 5.19 9.92
5/16/2021 8:45:00 PM 13.57 56.426 0.08 6.77 5.52 9.88
5/16/2021 9:00:00 PM 13.5 56.3 0.08 6.75 5.25 9.85
5/16/2021 9:15:00 PM 13.42 56.156 0.08 6.79 5.52 9.82
5/16/2021 9:30:00 PM 13.34 56.012 0.081 6.73 5.52 9.79
5/16/2021 9:45:00 PM 13.26 55.868 0.081 6.77 16.56 9.77
5/16/2021 10:00:00 PM 13.16 55.688 0.081 6.71 8.02 9.75
5/16/2021 10:15:00 PM 13.06 55.508 0.08 6.7 11.23 9.75
5/16/2021 10:30:00 PM 12.96 55.328 0.081 6.68 6.92 9.73
5/16/2021 10:45:00 PM 12.86 55.148 0.081 6.71 6.3 9.73
5/16/2021 11:00:00 PM 12.77 54.986 0.081 6.67 7.95 9.73
5/16/2021 11:15:00 PM 12.67 54.806 0.082 6.67 10.93 9.73
5/16/2021 11:30:00 PM 12.58 54.644 0.081 6.68 11.45 9.73
5/16/2021 11:45:00 PM 12.5 54.5 0.081 6.66 6.2 9.74
5/17/2021 12:00:00 AM 12.41 54.338 0.081 6.67 6.57 9.75
5/17/2021 12:15:00 AM 12.32 54.176 0.081 6.67 7.67 9.76
5/17/2021 12:30:00 AM 12.22 53.996 0.086 6.65 7.91 9.78
5/17/2021 12:45:00 AM 12.12 53.816 0.081 6.67 7.02 9.79
5/17/2021 1:00:00 AM 12.03 53.654 0.082 6.65 8.02 9.81
5/17/2021 1:15:00 AM 11.93 53.474 0.082 6.66 6.5 9.83
5/17/2021 1:30:00 AM 11.84 53.312 0.082 6.66 8.78 9.85
5/17/2021 1:45:00 AM 11.75 53.15 0.082 6.63 5.97 9.87
5/17/2021 2:00:00 AM 11.66 52.988 0.082 6.7 7.89 9.88
5/17/2021 2:15:00 AM 11.58 52.844 0.083 6.65 5.88 9.9
5/17/2021 2:30:00 AM 11.49 52.682 0.082 6.66 5.86 9.92
5/17/2021 2:45:00 AM 11.41 52.538 0.082 6.65 6.58 9.94
5/17/2021 3:00:00 AM 11.33 52.394 0.082 6.66 6.51 9.96
5/17/2021 3:15:00 AM 11.25 52.25 0.083 6.68 5.85 9.98
5/17/2021 3:30:00 AM 11.17 52.106 0.082 6.68 6.3 10
5/17/2021 3:45:00 AM 11.09 51.962 0.083 6.66 5.75 10.02
5/17/2021 4:00:00 AM 11.02 51.836 0.082 6.67 5.76 10.04
5/17/2021 4:15:00 AM 10.94 51.692 0.082 6.66 5.56 10.06
5/17/2021 4:30:00 AM 10.87 51.566 0.082 6.67 5.34 10.08
5/17/2021 4:45:00 AM 10.79 51.422 0.082 6.66 5.39 10.1
5/17/2021 5:00:00 AM 10.72 51.296 0.083 6.64 5.45 10.1
5/17/2021 5:15:00 AM 10.64 51.152 0.082 6.67 5.44 10.13
5/17/2021 5:30:00 AM 10.57 51.026 0.083 6.66 5.47 10.15
5/17/2021 5:45:00 AM 10.5 50.9 0.083 6.69 5.52 10.18
5/17/2021 6:00:00 AM 10.43 50.774 0.083 6.66 5.78 10.21
5/17/2021 6:15:00 AM 10.36 50.648 0.082 6.67 5.45 10.25
5/17/2021 6:30:00 AM 10.3 50.54 0.083 6.67 5.37 10.3
5/17/2021 6:45:00 AM 10.25 50.45 0.083 6.69 5.24 10.36
5/17/2021 7:00:00 AM 10.2 50.36 0.083 6.69 5.21 10.42
5/17/2021 7:15:00 AM 10.17 50.306 0.083 6.74 5.16 10.5
5/17/2021 7:30:00 AM 10.14 50.252 0.083 6.75 5.11 10.56
5/17/2021 7:45:00 AM 10.13 50.234 0.083 6.73 5.35 10.63
5/17/2021 8:00:00 AM 10.12 50.216 0.082 6.75 5.32 10.69
5/17/2021 8:15:00 AM 10.14 50.252 0.082 6.79 5.23 10.76
5/17/2021 8:30:00 AM 10.17 50.306 0.083 6.81 5.08 10.82
5/17/2021 8:45:00 AM 10.23 50.414 0.083 6.84 5.54 10.89
5/17/2021 9:00:00 AM 10.3 50.54 0.083 6.84 5.35 10.95
5/17/2021 9:15:00 AM 10.4 50.72 0.082 6.85 5.03 11.01
5/17/2021 9:30:00 AM 10.52 50.936 0.082 6.86 5.26 11.07
5/17/2021 9:45:00 AM 10.66 51.188 0.082 6.89 6.49 11.11
5/17/2021 10:00:00 AM 10.82 51.476 0.082 6.96 5.18 11.16
5/17/2021 10:15:00 AM 11.02 51.836 0.082 6.95 5.12 11.19
5/17/2021 10:30:00 AM 11.23 52.214 0.082 6.97 5.19 11.22
5/17/2021 10:45:00 AM 11.48 52.664 0.082 6.99 5.45 11.24
5/17/2021 11:00:00 AM 11.75 53.15 0.082 7.03 4.81 11.25
5/17/2021 11:15:00 AM 12.04 53.672 0.082 7.03 5.47 11.25
5/17/2021 11:30:00 AM 12.35 54.23 0.082 7.05 7.03 11.24
5/17/2021 11:45:00 AM 12.68 54.824 0.082 7.08 4.94 11.23
5/17/2021 12:00:00 PM 12.97 55.346 0.082 7.1 5.75 11.22
5/17/2021 12:15:00 PM 13.18 55.724 0.082 7.12 5.32 11.19
5/17/2021 12:30:00 PM 13.25 55.85 0.082 7.07 5.31 11.16
5/17/2021 12:45:00 PM 13.68 56.624 0.082 7.11 6.6 11.17
5/17/2021 1:00:00 PM 13.83 56.894 0.081 7.11 6.8 11.13
5/17/2021 1:15:00 PM 14.11 57.398 0.082 7.12 4.85 11.13
5/17/2021 1:30:00 PM 14.42 57.956 0.081 7.16 4.94 11.11
5/17/2021 1:45:00 PM 14.74 58.532 0.081 7.17 4.56 11.1
5/17/2021 2:00:00 PM 14.99 58.982 0.081 7.18 4.8 11.05
5/17/2021 2:15:00 PM 15.2 59.36 0.081 7.22 4.64 11.02
5/17/2021 2:30:00 PM 15.21 59.378 0.081 7.17 4.69 10.95
5/17/2021 2:45:00 PM 15.43 59.774 0.081 7.19 5.1 10.95
5/17/2021 3:00:00 PM 15.6 60.08 0.081 7.2 5.28 10.9
5/17/2021 3:15:00 PM 15.58 60.044 0.081 7.19 5.31 10.85
5/17/2021 3:30:00 PM 15.79 60.422 0.081 7.19 5.23 10.83
5/17/2021 3:45:00 PM 15.97 60.746 0.081 7.21 5.12 10.79
5/17/2021 4:00:00 PM 16.02 60.836 0.081 7.21 4.88 10.73
5/17/2021 4:15:00 PM 15.99 60.782 0.081 7.18 5.82 10.67
5/17/2021 4:30:00 PM 16.08 60.944 0.081 7.21 4.83 10.65
5/17/2021 4:45:00 PM 16.14 61.052 0.081 7.19 5.6 10.63
5/17/2021 5:00:00 PM 16.07 60.926 0.081 7.21 4.93 10.59
5/17/2021 5:15:00 PM 16.06 60.908 0.081 7.17 5 10.55
5/17/2021 5:30:00 PM 16.07 60.926 0.081 7.16 5.02 10.52
5/17/2021 5:45:00 PM 16.06 60.908 0.081 7.15 4.83 10.48
5/17/2021 6:00:00 PM 16.02 60.836 0.081 7.13 4.91 10.44
5/17/2021 6:15:00 PM 15.96 60.728 0.081 7.1 4.87 10.37
5/17/2021 6:30:00 PM 15.92 60.656 0.081 7.09 4.58 10.3
5/17/2021 6:45:00 PM 15.88 60.584 0.081 7.07 5.18 10.24
5/17/2021 7:00:00 PM 15.82 60.476 0.081 7.07 5.21 10.15
5/17/2021 7:15:00 PM 15.76 60.368 0.081 7.02 5.26 10.07
5/17/2021 7:30:00 PM 15.7 60.26 0.081 6.98 4.98 9.99
5/17/2021 7:45:00 PM 15.64 60.152 0.081 6.94 4.89 9.9
5/17/2021 8:00:00 PM 15.57 60.026 0.081 6.92 5.05 9.82
5/17/2021 8:15:00 PM 15.49 59.882 0.082 6.89 4.88 9.74
5/17/2021 8:30:00 PM 15.41 59.738 0.082 6.86 4.88 9.65
5/17/2021 8:45:00 PM 15.33 59.594 0.082 6.83 5.12 9.58
5/17/2021 9:00:00 PM 15.26 59.468 0.082 6.82 5.56 9.51
5/17/2021 9:15:00 PM 15.19 59.342 0.082 6.83 4.9 9.46
5/17/2021 9:30:00 PM 15.12 59.216 0.082 6.79 5.14 9.41
5/17/2021 9:45:00 PM 15.03 59.054 0.082 6.78 5.44 9.38
5/17/2021 10:00:00 PM 14.95 58.91 0.082 6.75 4.93 9.36
5/17/2021 10:15:00 PM 14.86 58.748 0.082 6.74 5.35 9.34
5/17/2021 10:30:00 PM 14.76 58.568 0.083 6.74 5 9.32
5/17/2021 10:45:00 PM 14.65 58.37 0.083 6.73 5.44 9.31
5/17/2021 11:00:00 PM 14.55 58.19 0.083 6.72 5.1 9.3
5/17/2021 11:15:00 PM 14.44 57.992 0.083 6.71 5.8 9.3
5/17/2021 11:30:00 PM 14.32 57.776 0.083 6.71 5.45 9.3
5/17/2021 11:45:00 PM 14.19 57.542 0.083 6.68 5.41 9.3
5/18/2021 12:00:00 AM 14.07 57.326 0.083 6.69 10.09 9.31
5/18/2021 12:15:00 AM 13.94 57.092 0.083 6.67 5.58 9.32
5/18/2021 12:30:00 AM 13.82 56.876 0.084 6.69 6.48 9.33
5/18/2021 12:45:00 AM 13.7 56.66 0.084 6.67 5.59 9.35
5/18/2021 1:00:00 AM 13.57 56.426 0.084 6.65 5.74 9.37
5/18/2021 1:15:00 AM 13.45 56.21 0.084 6.66 6.26 9.39
5/18/2021 1:30:00 AM 13.34 56.012 0.084 6.65 5.96 9.4
5/18/2021 1:45:00 AM 13.22 55.796 0.084 6.65 5.86 9.43
5/18/2021 2:00:00 AM 13.11 55.598 0.084 6.66 6.16 9.45
5/18/2021 2:15:00 AM 12.99 55.382 0.085 6.65 6.19 9.47
5/18/2021 2:30:00 AM 12.88 55.184 0.084 6.66 6.06 9.47
5/18/2021 2:45:00 AM 12.78 55.004 0.084 6.64 6.98 9.51
5/18/2021 3:00:00 AM 12.67 54.806 0.088 6.72 5.38 9.53
5/18/2021 3:15:00 AM 12.56 54.608 0.09 6.71 67.3 9.56
5/18/2021 3:30:00 AM 12.46 54.428 0.09 6.71 7.85 9.58
5/18/2021 3:45:00 AM 12.35 54.23 0.084 6.62 13.27 9.61
5/18/2021 4:00:00 AM 12.25 54.05 0.084 6.61 6.06 9.63
5/18/2021 4:15:00 AM 12.15 53.87 0.085 6.7 18.09 9.66
5/18/2021 4:30:00 AM 12.04 53.672 0.085 6.66 5.81 9.69
5/18/2021 4:45:00 AM 11.95 53.51 0.085 6.69 5.94 9.71
5/18/2021 5:00:00 AM 11.84 53.312 0.085 6.64 5.51 9.74
5/18/2021 5:15:00 AM 11.75 53.15 0.084 6.65 5.36 9.76
5/18/2021 5:30:00 AM 11.65 52.97 0.084 6.66 5.18 9.8
5/18/2021 5:45:00 AM 11.56 52.808 0.085 6.65 5.57 9.83
5/18/2021 6:00:00 AM 11.47 52.646 0.084 6.67 5.04 9.87
5/18/2021 6:15:00 AM 11.39 52.502 0.084 6.66 5.37 9.93
5/18/2021 6:30:00 AM 11.32 52.376 0.085 6.71 5.23 9.98
5/18/2021 6:45:00 AM 11.24 52.232 0.084 6.67 5.1 10.04
5/18/2021 7:00:00 AM 11.19 52.142 0.084 6.69 4.94 10.12
5/18/2021 7:15:00 AM 11.12 52.016 0.085 6.69 4.96 10.18
5/18/2021 7:30:00 AM 11.08 51.944 0.084 6.76 4.86 10.25
5/18/2021 7:45:00 AM 11.05 51.89 0.084 6.75 4.86 10.34
5/18/2021 8:00:00 AM 11.06 51.908 0.085 6.78 4.78 10.43
5/18/2021 8:15:00 AM 11.06 51.908 0.085 6.81 4.97 10.51
5/18/2021 8:30:00 AM 11.08 51.944 0.085 6.82 4.79 10.57
5/18/2021 8:45:00 AM 11.13 52.034 0.085 6.82 5.05 10.64
5/18/2021 9:00:00 AM 11.19 52.142 0.085 6.9 4.76 10.7
5/18/2021 9:15:00 AM 11.28 52.304 0.085 6.87 4.62 10.77
5/18/2021 9:30:00 AM 11.36 52.448 0.085 6.9 4.66 10.83
5/18/2021 9:45:00 AM 11.48 52.664 0.085 6.9 4.56 10.88
5/18/2021 10:00:00 AM 11.62 52.916 0.085 6.96 4.74 10.94
5/18/2021 10:15:00 AM 11.79 53.222 0.085 6.95 4.65 10.99
5/18/2021 10:30:00 AM 11.99 53.582 0.085 7.01 4.7 11.02
5/18/2021 10:45:00 AM 12.22 53.996 0.085 7.01 4.67 11.05
5/18/2021 11:00:00 AM 12.48 54.464 0.084 7.04 4.48 11.07
5/18/2021 11:15:00 AM 12.77 54.986 0.084 7.06 4.52 11.08
5/18/2021 11:30:00 AM 13.09 55.562 0.084 7.09 4.76 11.1
5/18/2021 11:45:00 AM 13.42 56.156 0.084 7.1 4.81 11.1
5/18/2021 12:00:00 PM 13.76 56.768 0.084 7.15 4.42 11.09
5/18/2021 12:15:00 PM 14.1 57.38 0.084 7.14 4.51 11.09
5/18/2021 12:30:00 PM 14.45 58.01 0.084 7.16 4.34 11.08
5/18/2021 12:45:00 PM 14.79 58.622 0.084 7.18 4.48 11.07
5/18/2021 1:00:00 PM 15.11 59.198 0.084 7.2 4.42 11.05
5/18/2021 1:15:00 PM 15.34 59.612 0.084 7.22 4.48 11.02
5/18/2021 1:30:00 PM 15.62 60.116 0.084 7.22 4.35 10.99
5/18/2021 1:45:00 PM 15.7 60.26 0.084 7.2 4.2 10.94
5/18/2021 2:00:00 PM 15.99 60.782 0.084 7.23 4.43 10.94
5/18/2021 2:15:00 PM 16.26 61.268 0.084 7.25 4.56 10.91
5/18/2021 2:30:00 PM 16.42 61.556 0.084 7.25 4.19 10.88
5/18/2021 2:45:00 PM 16.61 61.898 0.084 7.25 4.41 10.85
5/18/2021 3:00:00 PM 16.81 62.258 0.084 7.27 4.59 10.81
5/18/2021 3:15:00 PM 16.98 62.564 0.084 7.27 4.24 10.77
5/18/2021 3:30:00 PM 17.14 62.852 0.084 7.28 4.31 10.73
5/18/2021 3:45:00 PM 17.27 63.086 0.084 7.29 4.34 10.68
5/18/2021 4:00:00 PM 17.35 63.23 0.084 7.28 4.31 10.63
5/18/2021 4:15:00 PM 17.39 63.302 0.084 7.28 4.28 10.59
5/18/2021 4:30:00 PM 17.4 63.32 0.083 7.26 4.34 10.55
5/18/2021 4:45:00 PM 17.39 63.302 0.084 7.25 4.33 10.5
5/18/2021 5:00:00 PM 17.37 63.266 0.084 7.24 4.3 10.46
5/18/2021 5:15:00 PM 17.35 63.23 0.084 7.23 4.27 10.43
5/18/2021 5:30:00 PM 17.29 63.122 0.083 7.22 4.56 10.36
5/18/2021 5:45:00 PM 17.16 62.888 0.084 7.16 4.23 10.26
5/18/2021 6:00:00 PM 17.13 62.834 0.084 7.13 4.24 10.19
5/18/2021 6:15:00 PM 17.16 62.888 0.084 7.14 4.37 10.18
5/18/2021 6:30:00 PM 17.12 62.816 0.084 7.12 4.34 10.11
5/18/2021 6:45:00 PM 17.05 62.69 0.084 7.09 4.56 10.01
5/18/2021 7:00:00 PM 17.01 62.618 0.084 7.06 4.38 9.94
5/18/2021 7:15:00 PM 16.96 62.528 0.084 7.04 4.39 9.86
5/18/2021 7:30:00 PM 16.9 62.42 0.084 7.01 4.43 9.76
5/18/2021 7:45:00 PM 16.85 62.33 0.084 6.99 4.38 9.68
5/18/2021 8:00:00 PM 16.81 62.258 0.084 6.96 4.66 9.58
5/18/2021 8:15:00 PM 16.74 62.132 0.084 6.98 4.45 9.49
5/18/2021 8:30:00 PM 16.67 62.006 0.084 6.88 4.46 9.39
5/18/2021 8:45:00 PM 16.6 61.88 0.084 6.87 4.66 9.31
5/18/2021 9:00:00 PM 16.52 61.736 0.084 6.84 5.88 9.24
5/18/2021 9:15:00 PM 16.43 61.574 0.085 6.81 5.7 9.19
5/18/2021 9:30:00 PM 16.33 61.394 0.085 6.79 5.55 9.14
5/18/2021 9:45:00 PM 16.22 61.196 0.085 6.82 5.1 9.11
5/18/2021 10:00:00 PM 16.11 60.998 0.085 6.77 4.93 9.08
5/18/2021 10:15:00 PM 15.99 60.782 0.085 6.75 4.78 9.06
5/18/2021 10:30:00 PM 15.87 60.566 0.085 6.72 4.88 9.05
5/18/2021 10:45:00 PM 15.74 60.332 0.085 6.72 4.88 9.04
5/18/2021 11:00:00 PM 15.61 60.098 0.085 6.71 5.09 9.04
5/18/2021 11:15:00 PM 15.47 59.846 0.086 6.7 4.97 9.01
5/18/2021 11:30:00 PM 15.34 59.612 0.085 6.69 5.11 9.04
5/18/2021 11:45:00 PM 15.21 59.378 0.086 6.68 10.06 9.04
5/19/2021 12:00:00 AM 15.08 59.144 0.085 6.67 7.3 9.05
5/19/2021 12:15:00 AM 14.95 58.91 0.085 6.67 5.18 9.05
5/19/2021 12:30:00 AM 14.82 58.676 0.085 6.65 5.59 9.06
5/19/2021 12:45:00 AM 14.69 58.442 0.086 6.65 6.82 9.08
5/19/2021 1:00:00 AM 14.56 58.208 0.086 6.65 5.06 9.09
5/19/2021 1:15:00 AM 14.43 57.974 0.087 6.62 5.61 9.1
5/19/2021 1:30:00 AM 14.29 57.722 0.089 6.64 6.37 9.11
5/19/2021 1:45:00 AM 14.18 57.524 0.088 6.66 4.99 9.14
5/19/2021 2:00:00 AM 14.05 57.29 0.089 6.68 5.48 9.18
5/19/2021 2:15:00 AM 13.95 57.11 0.088 6.64 5.24 9.2
5/19/2021 2:30:00 AM 13.84 56.912 0.088 6.63 4.92 9.21
5/19/2021 2:45:00 AM 13.75 56.75 0.088 6.69 9.65 9.23
5/19/2021 3:00:00 AM 13.62 56.516 0.09 6.67 17.64 9.26
5/19/2021 3:15:00 AM 13.49 56.282 0.092 6.67 17.28 9.29
5/19/2021 3:30:00 AM 13.38 56.084 0.092 6.66 13.4 9.31
5/19/2021 3:45:00 AM 13.31 55.958 0.091 6.72 9.87 9.32
5/19/2021 4:00:00 AM 13.23 55.814 0.089 6.68 7.82 9.34
5/19/2021 4:15:00 AM 13.14 55.652 0.089 6.67 7.2 9.36
5/19/2021 4:30:00 AM 13.04 55.472 0.091 6.69 7.35 9.39
5/19/2021 4:45:00 AM 12.94 55.292 0.093 6.68 6.24 9.41
5/19/2021 5:00:00 AM 12.84 55.112 0.095 6.68 6.31 9.43
5/19/2021 5:15:00 AM 12.74 54.932 0.095 6.69 8.87 9.46
5/19/2021 5:30:00 AM 12.66 54.788 0.095 6.69 6.59 9.48
5/19/2021 5:45:00 AM 12.58 54.644 0.093 6.67 5.57 9.5
5/19/2021 6:00:00 AM 12.51 54.518 0.091 6.68 7.34 9.54
5/19/2021 6:15:00 AM 12.44 54.392 0.09 6.69 5.44 9.59
5/19/2021 6:30:00 AM 12.36 54.248 0.09 6.68 5.71 9.64
5/19/2021 6:45:00 AM 12.3 54.14 0.089 6.69 5.56 9.71
5/19/2021 7:00:00 AM 12.24 54.032 0.089 6.73 7.92 9.79
5/19/2021 7:15:00 AM 12.2 53.96 0.089 6.75 5.18 9.88
5/19/2021 7:30:00 AM 12.16 53.888 0.089 6.76 5.25 9.96
5/19/2021 7:45:00 AM 12.14 53.852 0.088 6.77 5.36 10.05
5/19/2021 8:00:00 AM 12.13 53.834 0.088 6.77 6.43 10.12
5/19/2021 8:15:00 AM 12.13 53.834 0.088 6.86 6.02 10.19
5/19/2021 8:30:00 AM 12.15 53.87 0.088 6.82 4.63 10.27
5/19/2021 8:45:00 AM 12.2 53.96 0.088 6.91 5.33 10.34
5/19/2021 9:00:00 AM 12.26 54.068 0.088 6.87 8.76 10.42
5/19/2021 9:15:00 AM 12.34 54.212 0.088 6.92 5.1 10.49
5/19/2021 9:30:00 AM 12.43 54.374 0.087 6.91 4.84 10.56
5/19/2021 9:45:00 AM 12.53 54.554 0.088 6.92 4.83 10.62
5/19/2021 10:00:00 AM 12.66 54.788 0.087 6.96 4.68 10.68
5/19/2021 10:15:00 AM 12.82 55.076 0.087 6.97 4.58 10.74
5/19/2021 10:30:00 AM 13.01 55.418 0.087 7 4.63 10.8
5/19/2021 10:45:00 AM 13.25 55.85 0.087 7.03 4.58 10.84
5/19/2021 11:00:00 AM 13.51 56.318 0.087 7.07 4.42 10.88
5/19/2021 11:15:00 AM 13.81 56.858 0.087 7.08 4.41 10.91
5/19/2021 11:30:00 AM 14.12 57.416 0.087 7.11 4.47 10.94
5/19/2021 11:45:00 AM 14.46 58.028 0.087 7.13 4.39 10.95
5/19/2021 12:00:00 PM 14.82 58.676 0.087 7.15 4.33 10.95
5/19/2021 12:15:00 PM 15.18 59.324 0.087 7.17 4.35 10.95
5/19/2021 12:30:00 PM 15.54 59.972 0.087 7.21 4.46 10.95
5/19/2021 12:45:00 PM 15.89 60.602 0.087 7.22 4.72 10.94
5/19/2021 1:00:00 PM 16.24 61.232 0.087 7.24 4.45 10.92
5/19/2021 1:15:00 PM 16.55 61.79 0.086 7.25 4.17 10.91
5/19/2021 1:30:00 PM 16.87 62.366 0.087 7.32 4.39 10.88
5/19/2021 1:45:00 PM 17.18 62.924 0.087 7.33 4.35 10.85
5/19/2021 2:00:00 PM 17.45 63.41 0.087 7.31 4.3 10.83
5/19/2021 2:15:00 PM 17.7 63.86 0.086 7.33 4.4 10.8
5/19/2021 2:30:00 PM 17.92 64.256 0.087 7.34 4.39 10.76
5/19/2021 2:45:00 PM 18.15 64.67 0.086 7.4 4.3 10.72
5/19/2021 3:00:00 PM 18.33 64.994 0.087 7.37 4.44 10.68
5/19/2021 3:15:00 PM 18.5 65.3 0.087 7.38 4.35 10.65
5/19/2021 3:30:00 PM 18.65 65.57 0.087 7.38 4.39 10.61
5/19/2021 3:45:00 PM 18.72 65.696 0.086 7.43 4.37 10.57
5/19/2021 4:00:00 PM 18.72 65.696 0.087 7.4 4.37 10.53
5/19/2021 4:15:00 PM 18.78 65.804 0.086 7.39 4.51 10.5
5/19/2021 4:30:00 PM 18.82 65.876 0.086 7.37 4.6 10.45
5/19/2021 4:45:00 PM 18.84 65.912 0.086 7.37 4.42 10.42
5/19/2021 5:00:00 PM 18.81 65.858 0.086 7.36 5.3 10.39
5/19/2021 5:15:00 PM 18.74 65.732 0.086 7.33 5.51 10.33
5/19/2021 5:30:00 PM 18.66 65.588 0.086 7.31 5.89 10.25
5/19/2021 5:45:00 PM 18.65 65.57 0.087 7.3 5.65 10.21
5/19/2021 6:00:00 PM 18.59 65.462 0.087 7.26 5.11 10.12
5/19/2021 6:15:00 PM 18.52 65.336 0.086 7.23 5.16 10.04
5/19/2021 6:30:00 PM 18.49 65.282 0.087 7.21 4.85 10.01
5/19/2021 6:45:00 PM 18.48 65.264 0.087 7.21 5.72 9.98
5/19/2021 7:00:00 PM 18.45 65.21 0.087 7.18 5.64 9.94
5/19/2021 7:15:00 PM 18.41 65.138 0.087 7.17 5.06 9.87
5/19/2021 7:30:00 PM 18.37 65.066 0.087 7.12 4.91 9.76
5/19/2021 7:45:00 PM 18.32 64.976 0.087 7.1 5.11 9.63
5/19/2021 8:00:00 PM 18.27 64.886 0.087 7.04 5.48 9.52
5/19/2021 8:15:00 PM 18.21 64.778 0.087 7 5.09 9.39
5/19/2021 8:30:00 PM 18.15 64.67 0.088 6.95 4.88 9.26
5/19/2021 8:45:00 PM 18.08 64.544 0.088 6.92 4.93 9.15
5/19/2021 9:00:00 PM 18.01 64.418 0.088 6.89 4.96 9.05
5/19/2021 9:15:00 PM 17.94 64.292 0.088 6.91 6.9 8.97
5/19/2021 9:30:00 PM 17.88 64.184 0.088 6.85 7.3 8.9
5/19/2021 9:45:00 PM 17.81 64.058 0.088 6.83 5.56 8.84
5/19/2021 10:00:00 PM 17.74 63.932 0.088 6.8 7.19 8.81
5/19/2021 10:15:00 PM 17.68 63.824 0.088 6.81 4.93 8.77
5/19/2021 10:30:00 PM 17.6 63.68 0.088 6.79 5.68 8.73
5/19/2021 10:45:00 PM 17.52 63.536 0.088 6.82 9.74 8.7
5/19/2021 11:00:00 PM 17.44 63.392 0.088 6.76 10.17 8.68
5/19/2021 11:15:00 PM 17.35 63.23 0.088 6.74 16.38 8.65
5/19/2021 11:30:00 PM 17.25 63.05 0.089 6.73 12.11 8.62
5/19/2021 11:45:00 PM 17.15 62.87 0.089 6.71 54.17 8.59
5/20/2021 12:00:00 AM 17.05 62.69 0.089 6.71 16.3 8.59
5/20/2021 12:15:00 AM 16.94 62.492 0.089 6.71 7.83 8.59
5/20/2021 12:30:00 AM 16.83 62.294 0.089 6.69 5.34 8.59
5/20/2021 12:45:00 AM 16.72 62.096 0.089 6.68 5.19 8.59
5/20/2021 1:00:00 AM 16.61 61.898 0.089 6.68 5.12 8.6
5/20/2021 1:15:00 AM 16.49 61.682 0.09 6.67 5.07 8.61
5/20/2021 1:30:00 AM 16.38 61.484 0.089 6.67 5.16 8.62
5/20/2021 1:45:00 AM 16.26 61.268 0.089 6.67 9.93 8.63
5/20/2021 2:00:00 AM 16.13 61.034 0.089 6.71 5.18 8.65
5/20/2021 2:15:00 AM 16.01 60.818 0.09 6.67 5.34 8.67
5/20/2021 2:30:00 AM 15.9 60.62 0.09 6.66 5.2 8.69
5/20/2021 2:45:00 AM 15.78 60.404 0.09 6.64 5.1 8.71
5/20/2021 3:00:00 AM 15.66 60.188 0.09 6.64 5.13 8.74
5/20/2021 3:15:00 AM 15.54 59.972 0.09 6.64 4.91 8.76
5/20/2021 3:30:00 AM 15.42 59.756 0.09 6.63 5.72 8.78
5/20/2021 3:45:00 AM 15.3 59.54 0.09 6.69 10.59 8.81
5/20/2021 4:00:00 AM 15.18 59.324 0.09 6.63 6.98 8.8
5/20/2021 4:15:00 AM 15.07 59.126 0.09 6.64 7.01 8.86
5/20/2021 4:30:00 AM 14.96 58.928 0.09 6.63 11.4 8.88
5/20/2021 4:45:00 AM 14.85 58.73 0.09 6.65 6.96 8.91
5/20/2021 5:00:00 AM 14.75 58.55 0.09 6.67 6.02 8.93
5/20/2021 5:15:00 AM 14.66 58.388 0.09 6.66 6.67 8.96
5/20/2021 5:30:00 AM 14.56 58.208 0.093 6.65 6.41 8.98
5/20/2021 5:45:00 AM 14.48 58.064 0.054 6.64 6.92 9.01
5/20/2021 6:00:00 AM 14.39 57.902 0.052 6.66 5.25 9.04
5/20/2021 6:15:00 AM 14.3 57.74 0.049 6.75 5.39 9.1
5/20/2021 6:30:00 AM 14.23 57.614 0.065 6.74 4.55 9.18
5/20/2021 6:45:00 AM 14.15 57.47 0.091 6.74 4.6 9.25
5/20/2021 7:00:00 AM 14.07 57.326 0.09 6.72 4.72 9.34
5/20/2021 7:15:00 AM 14.01 57.218 0.091 6.73 4.66 9.44
5/20/2021 7:30:00 AM 13.97 57.146 0.091 6.76 4.78 9.56
5/20/2021 7:45:00 AM 13.9 57.02 0.091 6.77 4.84 9.64
5/20/2021 8:00:00 AM 13.89 57.002 0.091 6.8 4.89 9.75
5/20/2021 8:15:00 AM 13.88 56.984 0.091 6.82 4.8 9.86
5/20/2021 8:30:00 AM 13.9 57.02 0.09 6.84 4.78 9.96
5/20/2021 8:45:00 AM 13.93 57.074 0.091 6.85 4.69 10.05
5/20/2021 9:00:00 AM 13.97 57.146 0.09 6.88 4.63 10.12
5/20/2021 9:15:00 AM 14.03 57.254 0.09 6.9 4.72 10.2
5/20/2021 9:30:00 AM 14.11 57.398 0.09 6.93 4.52 10.3
5/20/2021 9:45:00 AM 14.2 57.56 0.09 6.96 4.59 10.38
5/20/2021 10:00:00 AM 14.29 57.722 0.09 6.98 4.49 10.44
5/20/2021 10:15:00 AM 14.4 57.92 0.09 7 4.54 10.51
5/20/2021 10:30:00 AM 14.53 58.154 0.09 7.09 4.41 10.6
5/20/2021 10:45:00 AM 14.78 58.604 0.09 7.13 4.39 10.68
5/20/2021 11:00:00 AM 15.01 59.018 0.09 7.12 4.38 10.72
5/20/2021 11:15:00 AM 15.28 59.504 0.09 7.15 4.34 10.76
5/20/2021 11:30:00 AM 15.58 60.044 0.09 7.18 4.48 10.8
5/20/2021 11:45:00 AM 15.89 60.602 0.09 7.21 4.33 10.82
5/20/2021 12:00:00 PM 16.2 61.16 0.089 7.24 4.22 10.84
5/20/2021 12:15:00 PM 16.53 61.754 0.089 7.27 4.43 10.85
5/20/2021 12:30:00 PM 16.87 62.366 0.09 7.29 4.27 10.86
5/20/2021 12:45:00 PM 17.26 63.068 0.089 7.35 4.22 10.87
5/20/2021 1:00:00 PM 17.63 63.734 0.09 7.35 4.38 10.86
5/20/2021 1:15:00 PM 17.93 64.274 0.09 7.39 4.36 10.85
5/20/2021 1:30:00 PM 18.26 64.868 0.089 7.42 4.17 10.85
5/20/2021 1:45:00 PM 18.49 65.282 0.089 7.44 4.08 10.8
5/20/2021 2:00:00 PM 18.49 65.282 0.089 7.41 4.27 10.69
5/20/2021 2:15:00 PM 18.52 65.336 0.089 7.4 4.26 10.67
5/20/2021 2:30:00 PM 18.75 65.75 0.089 7.43 4.54 10.68
5/20/2021 2:45:00 PM 18.82 65.876 0.089 7.45 4.24 10.63
5/20/2021 3:00:00 PM 18.96 66.128 0.089 7.46 4.2 10.62
5/20/2021 3:15:00 PM 19.09 66.362 0.089 7.48 4.27 10.62
5/20/2021 3:30:00 PM 19.2 66.56 0.089 7.5 4.14 10.59
5/20/2021 3:45:00 PM 19.23 66.614 0.089 7.48 4.46 10.51
5/20/2021 4:00:00 PM 19.2 66.56 0.089 7.43 4.38 10.42
5/20/2021 4:15:00 PM 19.43 66.974 0.089 7.47 4.28 10.43
5/20/2021 4:30:00 PM 19.59 67.262 0.089 7.49 4.28 10.38
5/20/2021 4:45:00 PM 19.53 67.154 0.089 7.45 4.19 10.25
5/20/2021 5:00:00 PM 19.56 67.208 0.089 7.43 4.11 10.22
5/20/2021 5:15:00 PM 19.62 67.316 0.089 7.48 4.09 10.22
5/20/2021 5:30:00 PM 19.6 67.28 0.089 7.42 4.2 10.16
5/20/2021 5:45:00 PM 19.55 67.19 0.089 7.4 4.18 10.09
5/20/2021 6:00:00 PM 19.5 67.1 0.089 7.36 4.13 10.04
5/20/2021 6:15:00 PM 19.52 67.136 0.089 7.33 4.15 9.98
5/20/2021 6:30:00 PM 19.51 67.118 0.089 7.3 4.11 9.89
5/20/2021 6:45:00 PM 19.5 67.1 0.09 7.27 4.31 9.8
5/20/2021 7:00:00 PM 19.48 67.064 0.09 7.22 4.24 9.68
5/20/2021 7:15:00 PM 19.45 67.01 0.09 7.2 4.29 9.57
5/20/2021 7:30:00 PM 19.42 66.956 0.089 7.15 4.4 9.45
5/20/2021 7:45:00 PM 19.37 66.866 0.088 7.11 4.54 9.35
5/20/2021 8:00:00 PM 19.3 66.74 0.09 7.06 4.53 9.23
5/20/2021 8:15:00 PM 19.24 66.632 0.09 7.05 4.54 9.11
5/20/2021 8:30:00 PM 19.17 66.506 0.09 7.01 4.54 8.98
5/20/2021 8:45:00 PM 19.11 66.398 0.091 6.95 4.81 8.88
5/20/2021 9:00:00 PM 19.04 66.272 0.091 6.95 4.66 8.79
5/20/2021 9:15:00 PM 18.98 66.164 0.091 6.9 4.95 8.71
5/20/2021 9:30:00 PM 18.91 66.038 0.091 6.87 5.35 8.65
5/20/2021 9:45:00 PM 18.83 65.894 0.091 6.88 4.83 8.59
5/20/2021 10:00:00 PM 18.76 65.768 0.091 6.84 4.74 8.54
5/20/2021 10:15:00 PM 18.68 65.624 0.091 6.84 5.52 8.49
5/20/2021 10:30:00 PM 18.61 65.498 0.091 6.81 4.99 8.46
5/20/2021 10:45:00 PM 18.54 65.372 0.091 6.78 4.94 8.43
5/20/2021 11:00:00 PM 18.46 65.228 0.091 6.8 5.2 8.4
5/20/2021 11:15:00 PM 18.39 65.102 0.092 6.78 5.11 8.38
5/20/2021 11:30:00 PM 18.31 64.958 0.092 6.77 5.27 8.36
5/20/2021 11:45:00 PM 18.24 64.832 0.092 6.76 5.08 8.35
5/21/2021 12:00:00 AM 18.16 64.688 0.092 6.78 5.21 8.33
5/21/2021 12:15:00 AM 18.07 64.526 0.091 6.74 5.13 8.32
5/21/2021 12:30:00 AM 17.99 64.382 0.092 6.74 5.04 8.31
5/21/2021 12:45:00 AM 17.89 64.202 0.092 6.73 5.13 8.3
5/21/2021 1:00:00 AM 17.79 64.022 0.092 6.73 5.64 8.3
5/21/2021 1:15:00 AM 17.7 63.86 0.092 6.73 4.91 8.3
5/21/2021 1:30:00 AM 17.61 63.698 0.092 6.72 5.76 8.31
5/21/2021 1:45:00 AM 17.5 63.5 0.092 6.71 5.21 8.32
5/21/2021 2:00:00 AM 17.4 63.32 0.092 6.71 6.27 8.33
5/21/2021 2:15:00 AM 17.29 63.122 0.093 6.71 4.9 8.34
5/21/2021 2:30:00 AM 17.18 62.924 0.092 6.7 5.16 8.36
5/21/2021 2:45:00 AM 17.08 62.744 0.093 6.69 5.03 8.38
5/21/2021 3:00:00 AM 16.97 62.546 0.093 6.7 5.02 8.4
5/21/2021 3:15:00 AM 16.86 62.348 0.093 6.68 6.27 8.42
5/21/2021 3:30:00 AM 16.75 62.15 0.093 6.67 5.25 8.44
5/21/2021 3:45:00 AM 16.63 61.934 0.093 6.67 5.43 8.46
5/21/2021 4:00:00 AM 16.52 61.736 0.093 6.66 5.36 8.49
5/21/2021 4:15:00 AM 16.42 61.556 0.094 6.69 7.81 8.5
5/21/2021 4:30:00 AM 16.32 61.376 0.094 6.67 7.38 8.53
5/21/2021 4:45:00 AM 16.21 61.178 0.093 6.67 6.5 8.56
5/21/2021 5:00:00 AM 16.12 61.016 0.093 6.71 6.32 8.58
5/21/2021 5:15:00 AM 16.03 60.854 0.094 6.68 5.31 8.61
5/21/2021 5:30:00 AM 15.93 60.674 0.093 6.68 5.18 8.62
5/21/2021 5:45:00 AM 15.83 60.494 0.093 6.67 5.46 8.66
5/21/2021 6:00:00 AM 15.74 60.332 0.094 6.68 5.3 8.7
5/21/2021 6:15:00 AM 15.66 60.188 0.093 6.7 5.96 8.76
5/21/2021 6:30:00 AM 15.57 60.026 0.094 6.7 5.69 8.83
5/21/2021 6:45:00 AM 15.49 59.882 0.094 6.74 5.28 8.92
5/21/2021 7:00:00 AM 15.42 59.756 0.093 6.74 5.38 9.04
5/21/2021 7:15:00 AM 15.36 59.648 0.094 6.75 4.99 9.14
5/21/2021 7:30:00 AM 15.31 59.558 0.094 6.77 5.21 9.25
5/21/2021 7:45:00 AM 15.28 59.504 0.094 6.8 5.13 9.35
5/21/2021 8:00:00 AM 15.25 59.45 0.094 6.81 5.28 9.46
5/21/2021 8:15:00 AM 15.24 59.432 0.094 6.84 5.22 9.56
5/21/2021 8:30:00 AM 15.24 59.432 0.094 6.86 5.17 9.66
5/21/2021 8:45:00 AM 15.26 59.468 0.094 6.9 5.33 9.75
5/21/2021 9:00:00 AM 15.32 59.576 0.094 6.97 5.2 9.84
5/21/2021 9:15:00 AM 15.38 59.684 0.094 6.96 4.99 9.93
5/21/2021 9:30:00 AM 15.46 59.828 0.094 6.97 4.99 10.02
5/21/2021 9:45:00 AM 15.51 59.918 0.094 7 4.99 10.09
5/21/2021 10:00:00 AM 15.59 60.062 0.094 7.02 4.83 10.16
5/21/2021 10:15:00 AM 15.69 60.242 0.094 7.09 4.96 10.24
5/21/2021 10:30:00 AM 15.83 60.494 0.094 7.08 5.03 10.33
5/21/2021 10:45:00 AM 15.97 60.746 0.093 7.11 4.97 10.41
5/21/2021 11:00:00 AM 16.17 61.106 0.094 7.14 4.93 10.48
5/21/2021 11:15:00 AM 16.42 61.556 0.093 7.19 5.01 10.54
5/21/2021 11:30:00 AM 16.67 62.006 0.093 7.22 4.85 10.6
5/21/2021 11:45:00 AM 16.97 62.546 0.093 7.27 4.83 10.65
5/21/2021 12:00:00 PM 17.31 63.158 0.093 7.31 4.76 10.68
5/21/2021 12:15:00 PM 17.63 63.734 0.093 7.35 4.61 10.73
5/21/2021 12:30:00 PM 17.99 64.382 0.092 7.39 4.94 10.75
5/21/2021 12:45:00 PM 18.34 65.012 0.093 7.47 4.77 10.77
5/21/2021 1:00:00 PM 18.67 65.606 0.093 7.48 4.68 10.79
5/21/2021 1:15:00 PM 19.03 66.254 0.093 7.51 4.83 10.78
5/21/2021 1:30:00 PM 19.35 66.83 0.092 7.56 4.7 10.79
5/21/2021 1:45:00 PM 19.67 67.406 0.092 7.62 4.6 10.78
5/21/2021 2:00:00 PM 19.92 67.856 0.091 7.64 4.49 10.76
5/21/2021 2:15:00 PM 20.13 68.234 0.082 7.65 4.77 10.74
5/21/2021 2:30:00 PM 20.31 68.558 0.088 7.67 4.64 10.7
5/21/2021 2:45:00 PM 20.39 68.702 0.092 7.68 4.67 10.66
5/21/2021 3:00:00 PM 20.52 68.936 0.088 7.7 4.67 10.64
5/21/2021 3:15:00 PM 20.69 69.242 0.092 7.76 4.53 10.64
5/21/2021 3:30:00 PM 20.81 69.458 0.092 7.78 4.71 10.6
5/21/2021 3:45:00 PM 20.91 69.638 0.088 7.78 4.58 10.58
5/21/2021 4:00:00 PM 21.04 69.872 0.086 7.78 4.71 10.54
5/21/2021 4:15:00 PM 21.1 69.98 0.091 7.82 4.97 10.52
5/21/2021 4:30:00 PM 21.09 69.962 0.085 7.8 4.84 10.48
5/21/2021 4:45:00 PM 21.13 70.034 0.085 7.82 4.86 10.48
5/21/2021 5:00:00 PM 21.16 70.088 0.089 7.81 4.87 10.42
5/21/2021 5:15:00 PM 21.14 70.052 0.091 7.78 5.11 10.37
5/21/2021 5:30:00 PM 21.07 69.926 0.087 7.76 5.01 10.32
5/21/2021 5:45:00 PM 20.95 69.71 0.087 7.7 5.02 10.26
5/21/2021 6:00:00 PM 20.85 69.53 0.086 7.65 4.85 10.2
5/21/2021 6:15:00 PM 20.76 69.368 0.089 7.61 4.89 10.11
5/21/2021 6:30:00 PM 20.68 69.224 0.089 7.51 5.04 10
5/21/2021 6:45:00 PM 20.59 69.062 0.087 7.44 4.91 9.9
5/21/2021 7:00:00 PM 20.53 68.954 0.089 7.39 5 9.81
5/21/2021 7:15:00 PM 20.45 68.81 0.093 7.33 4.92 9.72
5/21/2021 7:30:00 PM 20.38 68.684 0.092 7.28 4.99 9.61
5/21/2021 7:45:00 PM 20.28 68.504 0.092 7.21 4.95 9.48
5/21/2021 8:00:00 PM 20.19 68.342 0.09 7.16 5.01 9.35
5/21/2021 8:15:00 PM 20.09 68.162 0.092 7.1 5.1 9.17
5/21/2021 8:30:00 PM 19.99 67.982 0.093 7.05 5.32 9.04
5/21/2021 8:45:00 PM 19.9 67.82 0.087 7.01 5.38 8.92
5/21/2021 9:00:00 PM 19.82 67.676 0.094 6.99 5.67 8.81
5/21/2021 9:15:00 PM 19.73 67.514 0.094 6.94 5.66 8.72
5/21/2021 9:30:00 PM 19.65 67.37 0.086 6.91 5.7 8.62
5/21/2021 9:45:00 PM 19.56 67.208 0.094 6.88 5.6 8.54
5/21/2021 10:00:00 PM 19.47 67.046 0.088 6.86 5.55 8.45
5/21/2021 10:15:00 PM 19.39 66.902 0.087 6.85 5.28 8.38
5/21/2021 10:30:00 PM 19.32 66.776 0.087 6.84 5.77 8.33
5/21/2021 10:45:00 PM 19.25 66.65 0.095 6.81 6.29 8.28
5/21/2021 11:00:00 PM 19.18 66.524 0.083 6.81 5.97 8.25
5/21/2021 11:15:00 PM 19.11 66.398 0.095 6.81 5.91 8.22
5/21/2021 11:30:00 PM 19.04 66.272 0.088 6.8 7.27 8.2
5/21/2021 11:45:00 PM 18.98 66.164 0.09 6.84 6.11 8.17
5/22/2021 12:00:00 AM 18.92 66.056 0.094 6.8 11.14 8.15
5/22/2021 12:15:00 AM 18.85 65.93 0.089 6.81 6.52 8.13
5/22/2021 12:30:00 AM 18.78 65.804 0.094 6.78 12.41 8.11
5/22/2021 12:45:00 AM 18.7 65.66 0.096 6.77 4.39 8.09
5/22/2021 1:00:00 AM 18.62 65.516 0.095 6.75 5.25 8.07
5/22/2021 1:15:00 AM 18.55 65.39 0.039 6.74 5.1 8.06
5/22/2021 1:30:00 AM 18.47 65.246 0.096 6.78 5.29 8.06
5/22/2021 1:45:00 AM 18.39 65.102 0.096 6.74 5.03 8.05
5/22/2021 2:00:00 AM 18.29 64.922 0.095 6.74 14.88 8.04
5/22/2021 2:15:00 AM 18.2 64.76 0.095 6.72 10.9 8.05
5/22/2021 2:30:00 AM 18.11 64.598 0.096 6.72 5.67 8.05
5/22/2021 2:45:00 AM 18.03 64.454 0.1 6.72 25.79 8.07
5/22/2021 3:00:00 AM 17.94 64.292 0.095 6.72 5.52 8.08
5/22/2021 3:15:00 AM 17.87 64.166 0.096 6.71 5.5 8.08
5/22/2021 3:30:00 AM 17.78 64.004 0.096 6.72 5.34 8.1
5/22/2021 3:45:00 AM 17.69 63.842 0.095 6.75 5.2 8.11
5/22/2021 4:00:00 AM 17.59 63.662 0.095 6.7 13.61 8.13
5/22/2021 4:15:00 AM 17.49 63.482 0.096 6.73 5.18 8.15
5/22/2021 4:30:00 AM 17.4 63.32 0.096 6.72 5.71 8.17
5/22/2021 4:45:00 AM 17.3 63.14 0.096 6.73 5.46 8.19
5/22/2021 5:00:00 AM 17.2 62.96 0.096 6.71 5.26 8.21
5/22/2021 5:15:00 AM 17.11 62.798 0.095 6.71 5.24 8.23
5/22/2021 5:30:00 AM 17 62.6 0.096 6.71 5.41 8.26
5/22/2021 5:45:00 AM 16.9 62.42 0.096 6.75 5.04 8.28
5/22/2021 6:00:00 AM 16.81 62.258 0.096 6.71 4.99 8.33
5/22/2021 6:15:00 AM 16.71 62.078 0.095 6.72 4.68 8.4
5/22/2021 6:30:00 AM 16.62 61.916 0.096 6.73 4.7 8.49
5/22/2021 6:45:00 AM 16.54 61.772 0.096 6.75 4.85 8.58
5/22/2021 7:00:00 AM 16.48 61.664 0.096 6.77 4.91 8.7
5/22/2021 7:15:00 AM 16.44 61.592 0.096 6.79 4.73 8.86
5/22/2021 7:30:00 AM 16.4 61.52 0.096 6.81 4.61 8.97
5/22/2021 7:45:00 AM 16.37 61.466 0.097 6.83 4.75 9.11
5/22/2021 8:00:00 AM 16.36 61.448 0.096 6.86 5.02 9.26
5/22/2021 8:15:00 AM 16.34 61.412 0.097 6.89 4.89 9.38
5/22/2021 8:30:00 AM 16.33 61.394 0.096 6.93 4.78 9.52
5/22/2021 8:45:00 AM 16.34 61.412 0.096 6.93 5.11 9.65
5/22/2021 9:00:00 AM 16.38 61.484 0.096 6.98 4.97 9.8
5/22/2021 9:15:00 AM 16.46 61.628 0.096 7.03 4.68 9.94
5/22/2021 9:30:00 AM 16.54 61.772 0.097 7.1 4.98 10.07
5/22/2021 9:45:00 AM 16.6 61.88 0.097 7.1 5.14 10.18
5/22/2021 10:00:00 AM 16.66 61.988 0.096 7.13 5.12 10.25
5/22/2021 10:15:00 AM 16.77 62.186 0.096 7.17 5.02 10.33
5/22/2021 10:30:00 AM 16.8 62.24 0.097 7.18 4.79 10.39
5/22/2021 10:45:00 AM 16.93 62.474 0.097 7.23 5.28 10.49
5/22/2021 11:00:00 AM 17.15 62.87 0.096 7.31 5.11 10.58
5/22/2021 11:15:00 AM 17.23 63.014 0.095 7.34 4.95 10.65
5/22/2021 11:30:00 AM 17.44 63.392 0.095 7.39 5.03 10.7
5/22/2021 11:45:00 AM 17.5 63.5 0.096 7.43 4.68 10.75
5/22/2021 12:00:00 PM 17.63 63.734 0.096 7.46 4.88 10.8
5/22/2021 12:15:00 PM 17.87 64.166 0.095 7.56 4.72 10.84
5/22/2021 12:30:00 PM 18.18 64.724 0.095 7.59 4.86 10.89
5/22/2021 12:45:00 PM 18.44 65.192 0.095 7.64 4.65 10.91
5/22/2021 1:00:00 PM 18.62 65.516 0.095 7.7 4.75 10.94
5/22/2021 1:15:00 PM 18.73 65.714 0.096 7.73 4.28 10.94
5/22/2021 1:30:00 PM 18.87 65.966 0.096 7.77 4.63 10.95
5/22/2021 1:45:00 PM 19.05 66.29 0.096 7.82 4.47 10.93
5/22/2021 2:00:00 PM 19.09 66.362 0.086 7.77 4.33 10.82
5/22/2021 2:15:00 PM 19.21 66.578 0.095 7.77 4.29 10.79
5/22/2021 2:30:00 PM 19.31 66.758 0.083 7.81 4.27 10.8
5/22/2021 2:45:00 PM 19.49 67.082 0.1 7.87 4.45 10.83
5/22/2021 3:00:00 PM 19.57 67.226 0.094 7.96 4.28 10.81
5/22/2021 3:15:00 PM 19.65 67.37 0.087 7.94 4.85 10.79
5/22/2021 3:30:00 PM 19.69 67.442 0.096 7.95 4.76 10.77
5/22/2021 3:45:00 PM 19.73 67.514 0.095 7.98 5.43 10.75
5/22/2021 4:00:00 PM 19.77 67.586 0.1 8 4.89 10.72
5/22/2021 4:15:00 PM 19.79 67.622 0.095 8 5.22 10.68
5/22/2021 4:30:00 PM 19.84 67.712 0.086 7.98 4.77 10.67
5/22/2021 4:45:00 PM 19.88 67.784 0.086 8.02 4.72 10.64
5/22/2021 5:00:00 PM 19.9 67.82 0.094 7.99 4.56 10.6
5/22/2021 5:15:00 PM 19.99 67.982 0.095 7.99 4.8 10.57
5/22/2021 5:30:00 PM 19.99 67.982 0.089 7.98 4.31 10.52
5/22/2021 5:45:00 PM 19.92 67.856 0.088 7.94 4.41 10.46
5/22/2021 6:00:00 PM 19.87 67.766 0.086 7.9 4.36 10.41
5/22/2021 6:15:00 PM 19.81 67.658 0.095 7.85 4.4 10.34
5/22/2021 6:30:00 PM 19.75 67.55 0.094 7.77 4.53 10.25
5/22/2021 6:45:00 PM 19.7 67.46 0.09 7.65 4.86 10.11
5/22/2021 7:00:00 PM 19.64 67.352 0.095 7.56 4.27 9.97
5/22/2021 7:15:00 PM 19.57 67.226 0.087 7.48 4.46 9.87
5/22/2021 7:30:00 PM 19.51 67.118 0.095 7.41 4.3 9.74
5/22/2021 7:45:00 PM 19.45 67.01 0.092 7.34 5.06 9.61
5/22/2021 8:00:00 PM 19.38 66.884 0.087 7.28 5.03 9.45
5/22/2021 8:15:00 PM 19.31 66.758 0.096 7.2 4.43 9.3
5/22/2021 8:30:00 PM 19.24 66.632 0.091 7.14 4.72 9.15
5/22/2021 8:45:00 PM 19.18 66.524 0.096 7.09 4.45 9.02
5/22/2021 9:00:00 PM 19.13 66.434 0.088 7.06 5.3 8.9
5/22/2021 9:15:00 PM 19.07 66.326 0.091 7.04 7.16 8.79
5/22/2021 9:30:00 PM 19.02 66.236 0.087 6.99 6.49 8.67
5/22/2021 9:45:00 PM 18.95 66.11 0.092 6.97 5.28 8.59
5/22/2021 10:00:00 PM 18.9 66.02 0.101 6.93 4.58 8.52
5/22/2021 10:15:00 PM 18.84 65.912 0.092 6.93 6.47 8.45
5/22/2021 10:30:00 PM 18.79 65.82201 0.09 6.91 4.86 8.4
5/22/2021 10:45:00 PM 18.74 65.732 0.097 6.9 4.96 8.36
5/22/2021 11:00:00 PM 18.69 65.642 0.092 6.88 4.77 8.32
5/22/2021 11:15:00 PM 18.64 65.552 0.097 6.88 5.09 8.29
5/22/2021 11:30:00 PM 18.6 65.48 0.087 6.87 5.02 8.27
5/22/2021 11:45:00 PM 18.55 65.39 0.095 6.86 4.82 8.24
5/23/2021 12:00:00 AM 18.51 65.318 0.096 6.82 5.83 8.19
5/23/2021 12:15:00 AM 18.48 65.264 0.094 6.84 8.79 8.15
5/23/2021 12:30:00 AM 18.47 65.246 0.093 6.83 4.95 8.13
5/23/2021 12:45:00 AM 18.45 65.21 0.094 6.83 4.92 8.1
5/23/2021 1:00:00 AM 18.43 65.174 0.091 6.83 5.25 8.09
5/23/2021 1:15:00 AM 18.4 65.12 0.093 6.81 5.41 8.08
5/23/2021 1:30:00 AM 18.37 65.066 0.092 6.82 5.48 8.08
5/23/2021 1:45:00 AM 18.34 65.012 0.092 6.81 5.34 8.08
5/23/2021 2:00:00 AM 18.32 64.976 0.093 6.82 5.34 8.08
5/23/2021 2:15:00 AM 18.3 64.94 0.093 6.81 4.94 8.09
5/23/2021 2:30:00 AM 18.27 64.886 0.091 6.8 5.16 8.1
5/23/2021 2:45:00 AM 18.23 64.814 0.093 6.8 6.86 8.11
5/23/2021 3:00:00 AM 18.18 64.724 0.093 6.81 4.94 8.12
5/23/2021 3:15:00 AM 18.12 64.616 0.084 6.8 4.73 8.12
5/23/2021 3:30:00 AM 18.05 64.49 0.093 6.79 4.97 8.14
5/23/2021 3:45:00 AM 17.97 64.346 0.093 6.8 4.73 8.15
5/23/2021 4:00:00 AM 17.89 64.202 0.093 6.78 4.73 8.17
5/23/2021 4:15:00 AM 17.79 64.022 0.093 6.79 5.35 8.18
5/23/2021 4:30:00 AM 17.69 63.842 0.092 6.77 4.87 8.21
5/23/2021 4:45:00 AM 17.6 63.68 0.092 6.76 4.9 8.22
5/23/2021 5:00:00 AM 17.51 63.518 0.091 6.76 4.8 8.25
5/23/2021 5:15:00 AM 17.41 63.338 0.091 6.77 5.11 8.26
5/23/2021 5:30:00 AM 17.32 63.176 0.091 6.76 4.98 8.28
5/23/2021 5:45:00 AM 17.24 63.032 0.091 6.76 4.98 8.3
5/23/2021 6:00:00 AM 17.17 62.906 0.09 6.75 5.07 8.33
5/23/2021 6:15:00 AM 17.11 62.798 0.09 6.75 4.75 8.39
5/23/2021 6:30:00 AM 17.04 62.672 0.089 6.77 4.71 8.43
5/23/2021 6:45:00 AM 16.99 62.582 0.088 6.76 4.86 8.5
5/23/2021 7:00:00 AM 16.94 62.492 0.088 6.77 5.18 8.58
5/23/2021 7:15:00 AM 16.91 62.438 0.087 6.8 5.03 8.71
5/23/2021 7:30:00 AM 16.87 62.366 0.086 6.79 5.28 8.79
5/23/2021 7:45:00 AM 16.87 62.366 0.084 6.84 5.21 8.94
5/23/2021 8:00:00 AM 16.87 62.366 0.084 6.86 5.05 9.09
5/23/2021 8:15:00 AM 16.86 62.348 0.083 6.89 5.17 9.19
5/23/2021 8:30:00 AM 16.89 62.402 0.083 6.9 4.88 9.29
5/23/2021 8:45:00 AM 16.92 62.456 0.081 6.93 5.67 9.39
5/23/2021 9:00:00 AM 16.98 62.564 0.081 6.97 4.91 9.49
5/23/2021 9:15:00 AM 17.04 62.672 0.08 7 4.84 9.57
5/23/2021 9:30:00 AM 17.12 62.816 0.08 7.02 4.9 9.64
5/23/2021 9:45:00 AM 17.18 62.924 0.08 7.05 4.98 9.73
5/23/2021 10:00:00 AM 17.26 63.068 0.079 7.09 5 9.8
5/23/2021 10:15:00 AM 17.34 63.212 0.079 7.13 4.89 9.88
5/23/2021 10:30:00 AM 17.49 63.482 0.078 7.19 4.88 10
5/23/2021 10:45:00 AM 17.66 63.788 0.078 7.25 4.77 10.1
5/23/2021 11:00:00 AM 17.78 64.004 0.077 7.26 4.81 10.16
5/23/2021 11:15:00 AM 18.02 64.436 0.077 7.38 4.78 10.24
5/23/2021 11:30:00 AM 18.21 64.778 0.077 7.4 4.89 10.31
5/23/2021 11:45:00 AM 18.3 64.94 0.076 7.45 4.8 10.3
5/23/2021 12:00:00 PM 18.52 65.336 0.076 7.48 4.78 10.33
5/23/2021 12:15:00 PM 18.67 65.606 0.076 7.52 4.68 10.36
5/23/2021 12:30:00 PM 18.75 65.75 0.076 7.58 4.56 10.37
5/23/2021 12:45:00 PM 18.92 66.056 0.075 7.62 4.47 10.41
5/23/2021 1:00:00 PM 19.01 66.218 0.076 7.65 4.46 10.42
5/23/2021 1:15:00 PM 19.2 66.56 0.075 7.75 4.78 10.45
5/23/2021 1:30:00 PM 19.5 67.1 0.075 7.84 4.59 10.51
5/23/2021 1:45:00 PM 19.74 67.532 0.075 7.93 4.71 10.55
5/23/2021 2:00:00 PM 19.85 67.73 0.075 7.94 4.46 10.53
5/23/2021 2:15:00 PM 19.9 67.82 0.075 7.92 4.65 10.49
5/23/2021 2:30:00 PM 20.13 68.234 0.075 8.01 4.43 10.51
5/23/2021 2:45:00 PM 20.23 68.414 0.075 8.08 4.33 10.5
5/23/2021 3:00:00 PM 20.14 68.252 0.075 7.92 4.51 10.3
5/23/2021 3:15:00 PM 20.13 68.234 0.075 7.86 4.64 10.26
5/23/2021 3:30:00 PM 20.2 68.36 0.075 7.92 4.44 10.29
5/23/2021 3:45:00 PM 20.24 68.432 0.075 7.92 4.64 10.24
5/23/2021 4:00:00 PM 20.36 68.648 0.075 7.94 4.74 10.23
5/23/2021 4:15:00 PM 20.43 68.774 0.075 8 4.62 10.25
5/23/2021 4:30:00 PM 20.42 68.756 0.075 7.99 4.39 10.22
5/23/2021 4:45:00 PM 20.41 68.738 0.074 7.89 4.64 10.08
5/23/2021 5:00:00 PM 20.43 68.774 0.075 7.84 4.48 10
5/23/2021 5:15:00 PM 20.42 68.756 0.074 7.74 4.48 9.89
5/23/2021 5:30:00 PM 20.41 68.738 0.074 7.72 4.5 9.86
5/23/2021 5:45:00 PM 20.35 68.63 0.075 7.62 4.49 9.7
5/23/2021 6:00:00 PM 20.26 68.468 0.075 7.44 5.79 9.47
5/23/2021 6:15:00 PM 20.19 68.342 0.075 7.34 5.36 9.33
5/23/2021 6:30:00 PM 20.13 68.234 0.075 7.27 4.54 9.23
5/23/2021 6:45:00 PM 20.08 68.144 0.075 7.21 4.52 9.16
5/23/2021 7:00:00 PM 20.02 68.036 0.075 7.16 4.47 9.04
5/23/2021 7:15:00 PM 19.96 67.92799 0.075 7.14 4.49 8.95
5/23/2021 7:30:00 PM 19.9 67.82 0.075 7.11 4.29 8.91
5/23/2021 7:45:00 PM 19.85 67.73 0.075 7.08 4.41 8.87
5/23/2021 8:00:00 PM 19.79 67.622 0.075 7.05 4.66 8.8
5/23/2021 8:15:00 PM 19.72 67.496 0.076 7.01 4.35 8.71
5/23/2021 8:30:00 PM 19.64 67.352 0.075 7 4.55 8.62
5/23/2021 8:45:00 PM 19.57 67.226 0.076 6.96 4.94 8.55
5/23/2021 9:00:00 PM 19.49 67.082 0.076 6.92 4.89 8.47
5/23/2021 9:15:00 PM 19.41 66.938 0.076 6.9 4.91 8.39
5/23/2021 9:30:00 PM 19.31 66.758 0.076 6.87 4.88 8.33
5/23/2021 9:45:00 PM 19.2 66.56 0.076 6.83 4.76 8.27
5/23/2021 10:00:00 PM 19.1 66.38 0.076 6.87 9.98 8.23
5/23/2021 10:15:00 PM 18.99 66.182 0.077 6.83 10.97 8.21
5/23/2021 10:30:00 PM 18.9 66.02 0.077 6.83 15.47 8.19
5/23/2021 10:45:00 PM 18.8 65.84 0.077 6.8 5.39 8.18
5/23/2021 11:00:00 PM 18.7 65.66 0.077 6.83 4.87 8.17
5/23/2021 11:15:00 PM 18.61 65.498 0.077 6.78 5.19 8.16
5/23/2021 11:30:00 PM 18.5 65.3 0.077 6.77 4.89 8.15
5/23/2021 11:45:00 PM 18.41 65.138 0.077 6.77 4.82 8.14
5/24/2021 12:00:00 AM 18.3 64.94 0.077 6.81 5.36 8.14
5/24/2021 12:15:00 AM 18.2 64.76 0.078 6.77 4.81 8.13
5/24/2021 12:30:00 AM 18.09 64.562 0.078 6.75 4.79 8.14
5/24/2021 12:45:00 AM 17.99 64.382 0.078 6.75 5.12 8.14
5/24/2021 1:00:00 AM 17.87 64.166 0.078 6.74 5.03 8.15
5/24/2021 1:15:00 AM 17.77 63.986 0.078 6.76 5.03 8.16
5/24/2021 1:30:00 AM 17.66 63.788 0.078 6.76 4.83 8.17
5/24/2021 1:45:00 AM 17.54 63.572 0.079 6.74 4.93 8.19
5/24/2021 2:00:00 AM 17.44 63.392 0.079 6.73 4.95 8.21
5/24/2021 2:15:00 AM 17.33 63.194 0.079 6.75 5 8.23
5/24/2021 2:30:00 AM 17.21 62.978 0.079 6.73 5.82 8.25
5/24/2021 2:45:00 AM 17.11 62.798 0.079 6.72 4.82 8.26
5/24/2021 3:00:00 AM 17.01 62.618 0.079 6.74 4.74 8.29
5/24/2021 3:15:00 AM 16.92 62.456 0.079 6.73 6.38 8.3
5/24/2021 3:30:00 AM 16.83 62.294 0.08 6.75 5.47 8.32
5/24/2021 3:45:00 AM 16.73 62.114 0.08 6.74 5.26 8.34
5/24/2021 4:00:00 AM 16.64 61.952 0.08 6.73 5.55 8.36
5/24/2021 4:15:00 AM 16.55 61.79 0.08 6.73 4.71 8.38
5/24/2021 4:30:00 AM 16.46 61.628 0.08 6.73 4.84 8.4
5/24/2021 4:45:00 AM 16.37 61.466 0.08 6.73 4.91 8.42
5/24/2021 5:00:00 AM 16.28 61.304 0.08 6.74 5.02 8.44
5/24/2021 5:15:00 AM 16.19 61.142 0.073 6.76 3.73 8.47
5/24/2021 5:30:00 AM 16.09 60.962 0.08 6.77 4.88 8.49
5/24/2021 5:45:00 AM 16 60.8 0.081 6.77 6.37 8.53
5/24/2021 6:00:00 AM 15.91 60.638 0.081 6.72 5.04 8.57
5/24/2021 6:15:00 AM 15.84 60.512 0.081 6.73 11.77 8.62
5/24/2021 6:30:00 AM 15.77 60.386 0.081 6.79 6.14 8.69
5/24/2021 6:45:00 AM 15.7 60.26 0.081 6.77 5.98 8.78
5/24/2021 7:00:00 AM 15.65 60.17 0.081 6.82 5.24 8.93
5/24/2021 7:15:00 AM 15.59 60.062 0.081 6.81 4.94 9.06
5/24/2021 7:30:00 AM 15.55 59.99 0.081 6.84 12.81 9.17
5/24/2021 7:45:00 AM 15.54 59.972 0.081 6.87 4.91 9.34
5/24/2021 8:00:00 AM 15.54 59.972 0.081 6.91 4.67 9.5
5/24/2021 8:15:00 AM 15.55 59.99 0.081 6.94 4.64 9.65
5/24/2021 8:30:00 AM 15.52 59.936 0.081 6.97 4.42 9.77
5/24/2021 8:45:00 AM 15.57 60.026 0.081 7.03 4.5 9.91
5/24/2021 9:00:00 AM 15.57 60.026 0.081 7.05 5.2 10.04
5/24/2021 9:15:00 AM 15.63 60.134 0.081 7.14 4.66 10.18
5/24/2021 9:30:00 AM 15.62 60.116 0.081 7.12 4.46 10.26
5/24/2021 9:45:00 AM 15.71 60.278 0.081 7.22 4.22 10.37
5/24/2021 10:00:00 AM 15.76 60.368 0.081 7.2 4.32 10.46
5/24/2021 10:15:00 AM 15.89 60.602 0.081 7.29 4.42 10.56
5/24/2021 10:30:00 AM 16.02 60.836 0.08 7.32 4.21 10.63
5/24/2021 10:45:00 AM 16.14 61.052 0.08 7.36 4.2 10.7
5/24/2021 11:00:00 AM 16.31 61.358 0.08 7.45 4.61 10.76
5/24/2021 11:15:00 AM 16.36 61.448 0.08 7.43 4.2 10.8
5/24/2021 11:30:00 AM 16.57 61.826 0.08 7.5 4.21 10.86
5/24/2021 11:45:00 AM 16.78 62.204 0.08 7.58 4.06 10.9
5/24/2021 12:00:00 PM 17.09 62.762 0.08 7.64 4.14 10.93
5/24/2021 12:15:00 PM 17.43 63.374 0.08 7.7 4.08 10.95
5/24/2021 12:30:00 PM 17.7 63.86 0.08 7.79 4.28 10.96
5/24/2021 12:45:00 PM 17.99 64.382 0.079 7.84 4.12 10.97
5/24/2021 1:00:00 PM 18.32 64.976 0.08 7.88 4.16 10.98
5/24/2021 1:15:00 PM 18.61 65.498 0.079 7.92 4.07 10.97
5/24/2021 1:30:00 PM 18.95 66.11 0.08 8.03 4.15 10.96
5/24/2021 1:45:00 PM 19.24 66.632 0.08 8.02 4.1 10.91
5/24/2021 2:00:00 PM 19.57 67.226 0.08 8.09 4.12 10.91
5/24/2021 2:15:00 PM 19.81 67.658 0.08 8.13 4.02 10.88
5/24/2021 2:30:00 PM 20.05 68.09 0.08 8.2 4.04 10.86
5/24/2021 2:45:00 PM 20.12 68.216 0.08 8.18 3.92 10.81
5/24/2021 3:00:00 PM 20.12 68.216 0.08 8.14 5.08 10.73
5/24/2021 3:15:00 PM 20.19 68.342 0.08 8.15 4.01 10.69
5/24/2021 3:30:00 PM 20.22 68.396 0.08 8.16 3.78 10.65
5/24/2021 3:45:00 PM 20.29 68.522 0.08 8.18 3.77 10.64
5/24/2021 4:00:00 PM 20.36 68.648 0.08 8.21 3.77 10.59
5/24/2021 4:15:00 PM 20.41 68.738 0.08 8.22 3.85 10.59
5/24/2021 4:30:00 PM 20.25 68.45 0.08 8.21 3.8 10.54
5/24/2021 4:45:00 PM 20.13 68.234 0.08 8.16 3.87 10.52
5/24/2021 5:00:00 PM 20.07 68.126 0.08 8.12 3.88 10.47
5/24/2021 5:15:00 PM 20.07 68.126 0.08 8.11 3.93 10.4
5/24/2021 5:30:00 PM 20.05 68.09 0.08 8.1 4.1 10.37
5/24/2021 5:45:00 PM 19.98 67.964 0.08 8.07 3.9 10.34
5/24/2021 6:00:00 PM 19.88 67.784 0.08 8.03 7.2 10.28
5/24/2021 6:15:00 PM 19.79 67.622 0.08 7.98 3.99 10.24
5/24/2021 6:30:00 PM 19.72 67.496 0.08 7.93 4.16 10.18
5/24/2021 6:45:00 PM 19.65 67.37 0.08 7.87 3.92 10.12
5/24/2021 7:00:00 PM 19.56 67.208 0.08 7.77 3.87 10.01
5/24/2021 7:15:00 PM 19.47 67.046 0.08 7.65 3.85 9.89
5/24/2021 7:30:00 PM 19.42 66.956 0.08 7.58 4.45 9.77
5/24/2021 7:45:00 PM 19.37 66.866 0.08 7.51 3.94 9.64
5/24/2021 8:00:00 PM 19.31 66.758 0.08 7.42 4.05 9.49
5/24/2021 8:15:00 PM 19.24 66.632 0.08 7.31 4.04 9.35
5/24/2021 8:30:00 PM 19.17 66.506 0.08 7.24 4.31 9.21
5/24/2021 8:45:00 PM 19.08 66.344 0.081 7.2 4.08 9.07
5/24/2021 9:00:00 PM 18.99 66.182 0.081 7.1 4.24 8.94
5/24/2021 9:15:00 PM 18.91 66.038 0.081 7.07 4.3 8.83
5/24/2021 9:30:00 PM 18.82 65.876 0.081 7.03 4.49 8.72
5/24/2021 9:45:00 PM 18.73 65.714 0.082 7.01 4.41 8.63
5/24/2021 10:00:00 PM 18.66 65.588 0.082 6.96 4.49 8.56
5/24/2021 10:15:00 PM 18.58 65.444 0.081 6.94 4.74 8.5
5/24/2021 10:30:00 PM 18.5 65.3 0.081 6.91 4.6 8.46
5/24/2021 10:45:00 PM 18.43 65.174 0.082 6.9 6.54 8.42
5/24/2021 11:00:00 PM 18.36 65.048 0.082 6.89 5.36 8.38
5/24/2021 11:15:00 PM 18.29 64.922 0.082 6.87 4.85 8.35
5/24/2021 11:30:00 PM 18.21 64.778 0.082 6.87 4.55 8.32
5/24/2021 11:45:00 PM 18.14 64.652 0.083 6.85 4.99 8.29
5/25/2021 12:00:00 AM 18.06 64.508 0.083 6.85 4.6 8.26
5/25/2021 12:15:00 AM 17.99 64.382 0.083 6.84 4.75 8.24
5/25/2021 12:30:00 AM 17.92 64.256 0.083 6.84 4.84 8.22
5/25/2021 12:45:00 AM 17.85 64.13 0.083 6.83 4.95 8.2
5/25/2021 1:00:00 AM 17.77 63.986 0.083 6.81 4.78 8.18
5/25/2021 1:15:00 AM 17.69 63.842 0.083 6.8 7.94 8.17
5/25/2021 1:30:00 AM 17.62 63.716 0.084 6.81 4.55 8.17
5/25/2021 1:45:00 AM 17.54 63.572 0.084 6.78 4.61 8.16
5/25/2021 2:00:00 AM 17.46 63.428 0.084 6.78 4.64 8.16
5/25/2021 2:15:00 AM 17.39 63.302 0.084 6.78 4.38 8.17
5/25/2021 2:30:00 AM 17.31 63.158 0.084 6.78 4.62 8.17
5/25/2021 2:45:00 AM 17.23 63.014 0.084 6.78 4.54 8.18
5/25/2021 3:00:00 AM 17.16 62.888 0.084 6.77 4.67 8.19
5/25/2021 3:15:00 AM 17.08 62.744 0.084 6.81 4.73 8.21
5/25/2021 3:30:00 AM 17 62.6 0.085 6.78 4.51 8.22
5/25/2021 3:45:00 AM 16.93 62.474 0.084 6.78 4.95 8.24
5/25/2021 4:00:00 AM 16.86 62.348 0.085 6.78 14.35 8.24
5/25/2021 4:15:00 AM 16.79 62.222 0.085 6.78 7.96 8.26
5/25/2021 4:30:00 AM 16.7 62.06 0.085 6.8 7.81 8.28
5/25/2021 4:45:00 AM 16.63 61.934 0.09 6.84 6.71 8.3
5/25/2021 5:00:00 AM 16.55 61.79 0.086 6.75 5.73 8.31
5/25/2021 5:15:00 AM 16.47 61.646 0.085 6.77 5.38 8.33
5/25/2021 5:30:00 AM 16.4 61.52 0.086 6.75 6.31 8.35
5/25/2021 5:45:00 AM 16.33 61.394 0.085 6.79 4.68 8.36
5/25/2021 6:00:00 AM 16.26 61.268 0.085 6.76 6.51 8.4
5/25/2021 6:15:00 AM 16.19 61.142 0.086 6.78 8.9 8.44
5/25/2021 6:30:00 AM 16.12 61.016 0.086 6.77 4.63 8.49
5/25/2021 6:45:00 AM 16.06 60.908 0.086 6.81 4.38 8.56
5/25/2021 7:00:00 AM 16 60.8 0.086 6.81 4.56 8.65
5/25/2021 7:15:00 AM 15.95 60.71 0.086 6.83 4.8 8.74
5/25/2021 7:30:00 AM 15.91 60.638 0.086 6.85 4.57 8.86
5/25/2021 7:45:00 AM 15.88 60.584 0.086 6.88 4.55 9.03
5/25/2021 8:00:00 AM 15.86 60.548 0.086 6.9 7.11 9.17
5/25/2021 8:15:00 AM 15.86 60.548 0.086 6.93 4.36 9.33
5/25/2021 8:30:00 AM 15.85 60.53 0.087 6.97 4.32 9.46
5/25/2021 8:45:00 AM 15.86 60.548 0.086 7 4.72 9.61
5/25/2021 9:00:00 AM 15.87 60.566 0.086 7.03 4.63 9.77
5/25/2021 9:15:00 AM 15.89 60.602 0.086 7.08 13.08 9.91
5/25/2021 9:30:00 AM 15.97 60.746 0.086 7.12 8.57 10.06
5/25/2021 9:45:00 AM 16.1 60.98 0.086 7.18 7.06 10.21
5/25/2021 10:00:00 AM 16.16 61.088 0.086 7.27 13.64 10.33
5/25/2021 10:15:00 AM 16.28 61.304 0.086 7.28 5.96 10.42
5/25/2021 10:30:00 AM 16.42 61.556 0.087 7.33 8.09 10.5
5/25/2021 10:45:00 AM 16.53 61.754 0.086 7.41 4.89 10.58
5/25/2021 11:00:00 AM 16.62 61.916 0.086 7.42 7.09 10.68
5/25/2021 11:15:00 AM 16.69 62.042 0.086 7.47 15.58 10.75
5/25/2021 11:30:00 AM 16.79 62.222 0.087 7.52 4.04 10.82
5/25/2021 11:45:00 AM 17.05 62.69 0.086 7.61 17.11 10.86
5/25/2021 12:00:00 PM 17.34 63.212 0.086 7.66 12.4 10.91
5/25/2021 12:15:00 PM 17.65 63.77 0.087 7.72 4.88 10.91
5/25/2021 12:30:00 PM 17.94 64.292 0.087 7.82 9.65 10.96
5/25/2021 12:45:00 PM 18.19 64.742 0.086 7.84 12.36 10.98
5/25/2021 1:00:00 PM 18.38 65.084 0.086 7.9 3.81 11
5/25/2021 1:15:00 PM 18.69 65.642 0.086 7.98 3.72 11.01
5/25/2021 1:30:00 PM 19.01 66.218 0.086 8.03 4 11.01
5/25/2021 1:45:00 PM 19.33 66.794 0.086 8.09 4.18 11.01
5/25/2021 2:00:00 PM 19.66 67.388 0.086 8.14 4.23 10.98
5/25/2021 2:15:00 PM 20 68 0.086 8.19 3.74 10.96
5/25/2021 2:30:00 PM 20.27 68.486 0.086 8.23 3.61 10.94
5/25/2021 2:45:00 PM 20.49 68.882 0.086 8.27 5.66 10.91
5/25/2021 3:00:00 PM 20.68 69.224 0.086 8.3 3.72 10.9
5/25/2021 3:15:00 PM 20.84 69.512 0.086 8.31 3.79 10.86
5/25/2021 3:30:00 PM 21.03 69.854 0.086 8.35 3.49 10.84
5/25/2021 3:45:00 PM 21.21 70.17799 0.086 8.39 3.48 10.82
5/25/2021 4:00:00 PM 21.31 70.358 0.086 8.39 3.93 10.75
5/25/2021 4:15:00 PM 21.31 70.358 0.085 8.35 3.74 10.66
5/25/2021 4:30:00 PM 21.34 70.412 0.087 8.34 3.5 10.6
5/25/2021 4:45:00 PM 21.4 70.52 0.086 8.33 3.63 10.56
5/25/2021 5:00:00 PM 21.47 70.646 0.087 8.33 3.69 10.5
5/25/2021 5:15:00 PM 21.44 70.592 0.087 8.3 3.65 10.45
5/25/2021 5:30:00 PM 21.36 70.448 0.087 8.29 3.7 10.37
5/25/2021 5:45:00 PM 21.25 70.25 0.042 8.19 3.63 10.29
5/25/2021 6:00:00 PM 21.14 70.052 0.086 8.12 3.57 10.21
5/25/2021 6:15:00 PM 21.03 69.854 0.087 8.02 3.73 10.13
5/25/2021 6:30:00 PM 20.94 69.692 0.087 7.96 3.78 10.06
5/25/2021 6:45:00 PM 20.86 69.548 0.086 7.88 3.53 9.97
5/25/2021 7:00:00 PM 20.77 69.386 0.088 7.76 3.72 9.84
5/25/2021 7:15:00 PM 20.66 69.188 0.088 7.62 3.69 9.67
5/25/2021 7:30:00 PM 20.58 69.044 0.088 7.52 3.7 9.55
5/25/2021 7:45:00 PM 20.5 68.9 0.088 7.44 3.69 9.42
5/25/2021 8:00:00 PM 20.43 68.774 0.087 7.38 4.03 9.29
5/25/2021 8:15:00 PM 20.37 68.666 0.089 7.29 4 9.14
5/25/2021 8:30:00 PM 20.3 68.54 0.089 7.22 5.14 8.98
5/25/2021 8:45:00 PM 20.23 68.414 0.088 7.16 4.58 8.83
5/25/2021 9:00:00 PM 20.17 68.306 0.09 7.11 4.11 8.7
5/25/2021 9:15:00 PM 20.11 68.198 0.089 7.06 4.18 8.58
5/25/2021 9:30:00 PM 20.06 68.108 0.089 7.04 4.35 8.48
5/25/2021 9:45:00 PM 20 68 0.09 6.99 5.7 8.38
5/25/2021 10:00:00 PM 19.94 67.892 0.09 6.98 4.06 8.29
5/25/2021 10:15:00 PM 19.89 67.802 0.091 6.95 4.26 8.21
5/25/2021 10:30:00 PM 19.83 67.694 0.089 6.94 4.23 8.13
5/25/2021 10:45:00 PM 19.78 67.604 0.09 6.92 4.65 8.07
5/25/2021 11:00:00 PM 19.72 67.496 0.091 6.9 13.74 8.01
5/25/2021 11:15:00 PM 19.66 67.388 0.091 6.9 7.58 7.98
5/25/2021 11:30:00 PM 19.6 67.28 0.091 6.91 7.03 7.94
5/25/2021 11:45:00 PM 19.54 67.172 0.09 6.88 7.36 7.9
5/26/2021 12:00:00 AM 19.48 67.064 0.091 6.89 6.04 7.88
5/26/2021 12:15:00 AM 19.42 66.956 0.09 6.86 5.72 7.86
5/26/2021 12:30:00 AM 19.37 66.866 0.09 6.84 5.92 7.83
5/26/2021 12:45:00 AM 19.32 66.776 0.091 6.84 5.32 7.81
5/26/2021 1:00:00 AM 19.26 66.668 0.09 6.84 5.68 7.79
5/26/2021 1:15:00 AM 19.2 66.56 0.083 6.83 6.38 7.77
5/26/2021 1:30:00 AM 19.13 66.434 0.091 6.87 5.33 7.75
5/26/2021 1:45:00 AM 19.07 66.326 0.091 6.8 5.27 7.73
5/26/2021 2:00:00 AM 19.01 66.218 0.092 6.79 4.81 7.72
5/26/2021 2:15:00 AM 18.95 66.11 0.092 6.8 4.42 7.7
5/26/2021 2:30:00 AM 18.89 66.002 0.092 6.79 4.89 7.69
5/26/2021 2:45:00 AM 18.83 65.894 0.092 6.79 5.14 7.68
5/26/2021 3:00:00 AM 18.77 65.786 0.092 6.81 5.31 7.68
5/26/2021 3:15:00 AM 18.71 65.67799 0.093 6.82 5.25 7.67
5/26/2021 3:30:00 AM 18.65 65.57 0.093 6.78 5.1 7.67
5/26/2021 3:45:00 AM 18.59 65.462 0.087 6.78 4.83 7.67
5/26/2021 4:00:00 AM 18.53 65.354 0.092 6.77 4.49 7.67
5/26/2021 4:15:00 AM 18.47 65.246 0.093 6.79 4.63 7.67
5/26/2021 4:30:00 AM 18.41 65.138 0.093 6.77 4.49 7.68
5/26/2021 4:45:00 AM 18.36 65.048 0.092 6.76 4.98 7.68
5/26/2021 5:00:00 AM 18.3 64.94 0.093 6.77 4.79 7.69
5/26/2021 5:15:00 AM 18.25 64.85 0.093 6.77 4.74 7.69
5/26/2021 5:30:00 AM 18.21 64.778 0.094 6.76 7.47 7.71
5/26/2021 5:45:00 AM 18.16 64.688 0.094 6.77 4.62 7.73
5/26/2021 6:00:00 AM 18.12 64.616 0.094 6.77 4.52 7.76
5/26/2021 6:15:00 AM 18.09 64.562 0.094 6.78 4.39 7.82
5/26/2021 6:30:00 AM 18.05 64.49 0.094 6.82 4.14 7.91
5/26/2021 6:45:00 AM 18.02 64.436 0.095 6.85 4.08 8
5/26/2021 7:00:00 AM 18 64.4 0.095 6.82 4.06 8.12
5/26/2021 7:15:00 AM 17.98 64.364 0.094 6.85 4.32 8.25
5/26/2021 7:30:00 AM 17.99 64.382 0.095 6.92 4.23 8.41
5/26/2021 7:45:00 AM 17.99 64.382 0.093 6.91 4.24 8.54
5/26/2021 8:00:00 AM 18.02 64.436 0.093 6.93 4.21 8.67
5/26/2021 8:15:00 AM 18.01 64.418 0.094 6.95 4.14 8.8
5/26/2021 8:30:00 AM 18.1 64.58 0.095 6.99 4.06 8.98
5/26/2021 8:45:00 AM 18.21 64.778 0.093 7.05 4.4 9.15
5/26/2021 9:00:00 AM 18.34 65.012 0.094 7.1 4.09 9.33
5/26/2021 9:15:00 AM 18.47 65.246 0.093 7.13 4.25 9.49
5/26/2021 9:30:00 AM 18.54 65.372 0.094 7.18 4.05 9.62
5/26/2021 9:45:00 AM 18.53 65.354 0.094 7.19 4.09 9.7
5/26/2021 10:00:00 AM 18.61 65.498 0.094 7.25 4.11 9.81
5/26/2021 10:15:00 AM 18.73 65.714 0.095 7.3 4.05 9.94
5/26/2021 10:30:00 AM 18.9 66.02 0.093 7.37 3.99 10.04
5/26/2021 10:45:00 AM 19.04 66.272 0.094 7.41 3.95 10.14
5/26/2021 11:00:00 AM 19.07 66.326 0.091 7.44 4.25 10.19
5/26/2021 11:15:00 AM 19.21 66.578 0.088 7.5 4.08 10.27
5/26/2021 11:30:00 AM 19.5 67.1 0.095 7.58 4.23 10.32
5/26/2021 11:45:00 AM 19.76 67.568 0.094 7.64 4.33 10.36
5/26/2021 12:00:00 PM 20.04 68.07201 0.089 7.7 3.91 10.42
5/26/2021 12:15:00 PM 20.29 68.522 0.089 7.75 4.02 10.45
5/26/2021 12:30:00 PM 20.55 68.99 0.091 7.81 3.99 10.49
5/26/2021 12:45:00 PM 20.85 69.53 0.088 7.88 3.9 10.51
5/26/2021 1:00:00 PM 21.17 70.106 0.092 7.96 4.99 10.57
5/26/2021 1:15:00 PM 21.48 70.664 0.088 8.03 4.37 10.56
5/26/2021 1:30:00 PM 21.82 71.276 0.09 8.09 3.84 10.57
5/26/2021 1:45:00 PM 22.11 71.798 0.09 8.14 3.99 10.53
5/26/2021 2:00:00 PM 22.44 72.392 0.089 8.2 3.91 10.56
5/26/2021 2:15:00 PM 22.63 72.734 0.093 8.24 3.82 10.53
5/26/2021 2:30:00 PM 22.71 72.878 0.093 8.23 3.69 10.47
5/26/2021 2:45:00 PM 22.91 73.238 0.089 8.29 3.95 10.43
5/26/2021 3:00:00 PM 23 73.4 0.091 8.28 3.58 10.38
5/26/2021 3:15:00 PM 22.92 73.256 0.091 8.14 3.65 10.12
5/26/2021 3:30:00 PM 22.87 73.166 0.09 8.01 3.54 9.96
5/26/2021 3:45:00 PM 22.7 72.86 0.094 7.77 44 9.58
5/26/2021 4:00:00 PM 22.66 72.788 0.099 7.69 11.66 9.58
5/26/2021 4:15:00 PM 22.73 72.914 0.087 7.75 8.45 9.64
5/26/2021 4:30:00 PM 22.78 73.004 0.089 7.86 6.59 9.71
5/26/2021 4:45:00 PM 22.84 73.112 0.091 7.89 6.15 9.76
5/26/2021 5:00:00 PM 22.75 72.95 0.092 7.83 5.48 9.69
5/26/2021 5:15:00 PM 22.69 72.842 0.093 7.76 4.88 9.63
5/26/2021 5:30:00 PM 22.63 72.734 0.101 7.69 4.89 9.55
5/26/2021 5:45:00 PM 22.57 72.626 0.093 7.62 5.57 9.47
5/26/2021 6:00:00 PM 22.45 72.41 0.092 7.5 6.69 9.32
5/26/2021 6:15:00 PM 22.34 72.212 0.092 7.42 7.03 9.14
5/26/2021 6:30:00 PM 22.26 72.068 0.092 7.32 7.39 8.94
5/26/2021 6:45:00 PM 22.16 71.888 0.093 7.22 9.22 8.73
5/26/2021 7:00:00 PM 22.1 71.78 0.095 7.21 8.1 8.59
5/26/2021 7:15:00 PM 22.06 71.708 0.092 7.16 7.61 8.51
5/26/2021 7:30:00 PM 22.03 71.654 0.093 7.17 6.71 8.5
5/26/2021 7:45:00 PM 21.95 71.51 0.096 7.12 6.34 8.37
5/26/2021 8:00:00 PM 21.86 71.348 0.093 7.07 6.09 8.24
5/26/2021 8:15:00 PM 21.73 71.114 0.097 7.05 5.75 8.07
5/26/2021 8:30:00 PM 21.58 70.844 0.106 6.97 5.65 7.92
5/26/2021 8:45:00 PM 21.43 70.574 0.098 6.94 5.78 7.81
5/26/2021 9:00:00 PM 21.31 70.358 0.096 6.93 5.84 7.74
5/26/2021 9:15:00 PM 21.19 70.142 0.093 6.9 6.69 7.69
5/26/2021 9:30:00 PM 21.1 69.98 0.096 6.89 6.67 7.65
5/26/2021 9:45:00 PM 21.02 69.836 0.094 6.89 6.77 7.61
5/26/2021 10:00:00 PM 20.95 69.71 0.096 6.87 7.41 7.59
5/26/2021 10:15:00 PM 20.88 69.584 0.093 6.85 6.63 7.55
5/26/2021 10:30:00 PM 20.81 69.458 0.096 6.85 6.6 7.51
5/26/2021 10:45:00 PM 20.74 69.332 0.097 6.83 6.13 7.49
5/26/2021 11:00:00 PM 20.66 69.188 0.093 6.82 5.94 7.46
5/26/2021 11:15:00 PM 20.59 69.062 0.095 6.85 5.83 7.45
5/26/2021 11:30:00 PM 20.52 68.936 0.092 6.82 5.94 7.44
5/26/2021 11:45:00 PM 20.45 68.81 0.09 6.81 7.04 7.43
5/27/2021 12:00:00 AM 20.34 68.612 0.089 6.85 6.54 7.43
5/27/2021 12:15:00 AM 20.26 68.468 0.093 6.79 7.07 7.44
5/27/2021 12:30:00 AM 20.2 68.36 0.09 6.81 6.76 7.44
5/27/2021 12:45:00 AM 20.17 68.306 0.089 6.81 8.64 7.45
5/27/2021 1:00:00 AM 20.13 68.234 0.088 6.81 8.04 7.46
5/27/2021 1:15:00 AM 20.09 68.162 0.091 6.81 8.27 7.47
5/27/2021 1:30:00 AM 20.03 68.054 0.087 6.81 7.31 7.5
5/27/2021 1:45:00 AM 19.97 67.946 0.092 6.83 8.07 7.53
5/27/2021 2:00:00 AM 19.87 67.766 0.089 6.81 6.43 7.56
5/27/2021 2:15:00 AM 19.77 67.586 0.094 6.81 6.14 7.59
5/27/2021 2:30:00 AM 19.64 67.352 0.094 6.82 6.35 7.63
5/27/2021 2:45:00 AM 19.48 67.064 0.095 6.78 6.33 7.65
5/27/2021 3:00:00 AM 19.33 66.794 0.088 6.79 9.5 7.69
5/27/2021 3:15:00 AM 19.18 66.524 0.096 6.79 7.38 7.72
5/27/2021 3:30:00 AM 19.02 66.236 0.096 6.79 7.14 7.75
5/27/2021 3:45:00 AM 18.88 65.984 0.091 6.78 7.71 7.78
5/27/2021 4:00:00 AM 18.72 65.696 0.094 6.78 7.35 7.82
5/27/2021 4:15:00 AM 18.58 65.444 0.095 6.79 6.71 7.84
5/27/2021 4:30:00 AM 18.43 65.174 0.094 6.76 7.09 7.87
5/27/2021 4:45:00 AM 18.29 64.922 0.092 6.78 7.04 7.9
5/27/2021 5:00:00 AM 18.15 64.67 0.093 6.77 7.53 7.93
5/27/2021 5:15:00 AM 18.01 64.418 0.092 6.75 7.7 7.96
5/27/2021 5:30:00 AM 17.9 64.22 0.098 6.81 8.53 7.97
5/27/2021 5:45:00 AM 17.8 64.04 0.092 6.76 8.75 8
5/27/2021 6:00:00 AM 17.7 63.86 0.087 6.79 7.68 8.04
5/27/2021 6:15:00 AM 17.59 63.662 0.092 6.78 7.59 8.08
5/27/2021 6:30:00 AM 17.51 63.518 0.091 6.79 7.86 8.12
5/27/2021 6:45:00 AM 17.44 63.392 0.092 6.83 8.16 8.18
5/27/2021 7:00:00 AM 17.38 63.284 0.091 6.82 8.25 8.24
5/27/2021 7:15:00 AM 17.33 63.194 0.092 6.83 7.72 8.32
5/27/2021 7:30:00 AM 17.29 63.122 0.093 6.85 7.77 8.41
5/27/2021 7:45:00 AM 17.24 63.032 0.094 6.85 7.93 8.47
5/27/2021 8:00:00 AM 17.21 62.978 0.094 6.88 7.84 8.55
5/27/2021 8:15:00 AM 17.2 62.96 0.094 6.94 7.98 8.69
5/27/2021 8:30:00 AM 17.2 62.96 0.095 6.92 8.15 8.78
5/27/2021 8:45:00 AM 17.14 62.852 0.096 6.91 7.79 8.83
5/27/2021 9:00:00 AM 17.15 62.87 0.095 6.95 7.53 8.9
5/27/2021 9:15:00 AM 17.24 63.032 0.096 7 7.48 9.05
5/27/2021 9:30:00 AM 17.23 63.014 0.097 6.97 7.48 9.11
5/27/2021 9:45:00 AM 17.3 63.14 0.097 7.03 7.34 9.22
5/27/2021 10:00:00 AM 17.35 63.23 0.087 7.04 7.56 9.32
5/27/2021 10:15:00 AM 17.48 63.464 0.098 7.08 7.6 9.43
5/27/2021 10:30:00 AM 17.55 63.59 0.089 7.1 7.98 9.49
5/27/2021 10:45:00 AM 17.58 63.644 0.092 7.13 7.68 9.57
5/27/2021 11:00:00 AM 17.75 63.95 0.102 7.18 6.76 9.68
5/27/2021 11:15:00 AM 17.88 64.184 0.087 7.2 7 9.75
5/27/2021 11:30:00 AM 18.04 64.472 0.093 7.22 6.56 9.81
5/27/2021 11:45:00 AM 18.3 64.94 0.09 7.28 6.4 9.9
5/27/2021 12:00:00 PM 18.47 65.246 0.092 7.31 6.26 9.97
5/27/2021 12:15:00 PM 18.63 65.534 0.103 7.33 6.06 10.03
5/27/2021 12:30:00 PM 18.83 65.894 0.091 7.38 6.13 10.11
5/27/2021 12:45:00 PM 19.01 66.218 0.089 7.39 6.43 10.14
5/27/2021 1:00:00 PM 19.24 66.632 0.088 7.44 5.82 10.2
5/27/2021 1:15:00 PM 19.4 66.92 0.091 7.49 5.66 10.24
5/27/2021 1:30:00 PM 19.56 67.208 0.091 7.5 5.56 10.27
5/27/2021 1:45:00 PM 19.8 67.64 0.092 7.59 5.17 10.32
5/27/2021 2:00:00 PM 20.02 68.036 0.091 7.6 5.29 10.34
5/27/2021 2:15:00 PM 20.25 68.45 0.098 7.62 5.65 10.33
5/27/2021 2:30:00 PM 20.44 68.792 0.097 7.66 7.06 10.34
5/27/2021 2:45:00 PM 20.6 69.08 0.091 7.7 5.59 10.35
5/27/2021 3:00:00 PM 20.75 69.35 0.092 7.72 5.31 10.34
5/27/2021 3:15:00 PM 20.87 69.566 0.091 7.76 5.12 10.32
5/27/2021 3:30:00 PM 20.96 69.728 0.093 7.74 5.03 10.29
5/27/2021 3:45:00 PM 20.94 69.692 0.092 7.75 5.04 10.28
5/27/2021 4:00:00 PM 20.99 69.782 0.092 7.78 4.61 10.27
5/27/2021 4:15:00 PM 20.97 69.746 0.091 7.77 4.81 10.22
5/27/2021 4:30:00 PM 20.87 69.566 0.091 7.75 4.47 10.16
5/27/2021 4:45:00 PM 20.78 69.404 0.093 7.7 4.45 10.13
5/27/2021 5:00:00 PM 20.68 69.224 0.093 7.72 4.49 10.08
5/27/2021 5:15:00 PM 20.55 68.99 0.09 7.64 4.27 10.03
5/27/2021 5:30:00 PM 20.43 68.774 0.09 7.6 4.41 9.97
5/27/2021 5:45:00 PM 20.3 68.54 0.09 7.57 4.13 9.91
5/27/2021 6:00:00 PM 20.16 68.288 0.091 7.51 4.25 9.83
5/27/2021 6:15:00 PM 20.02 68.036 0.089 7.46 4.45 9.76
5/27/2021 6:30:00 PM 19.89 67.802 0.087 7.43 4.18 9.65
5/27/2021 6:45:00 PM 19.76 67.568 0.087 7.37 4.11 9.54
5/27/2021 7:00:00 PM 19.63 67.334 0.088 7.3 4.25 9.42
5/27/2021 7:15:00 PM 19.5 67.1 0.088 7.25 4.36 9.3
5/27/2021 7:30:00 PM 19.37 66.866 0.089 7.21 4.19 9.19
5/27/2021 7:45:00 PM 19.26 66.668 0.092 7.17 4.16 9.08
5/27/2021 8:00:00 PM 19.14 66.452 0.091 7.13 4.35 8.98
5/27/2021 8:15:00 PM 19.02 66.236 0.096 7.1 4.22 8.89
5/27/2021 8:30:00 PM 18.91 66.038 0.091 7.07 4.3 8.8
5/27/2021 8:45:00 PM 18.79 65.82201 0.088 7.04 4.37 8.7
5/27/2021 9:00:00 PM 18.68 65.624 0.09 7.02 4.41 8.61
5/27/2021 9:15:00 PM 18.57 65.426 0.098 6.99 4.55 8.53
5/27/2021 9:30:00 PM 18.46 65.228 0.097 6.97 4.66 8.47
5/27/2021 9:45:00 PM 18.35 65.03 0.094 6.96 4.5 8.41
5/27/2021 10:00:00 PM 18.25 64.85 0.089 6.95 4.73 8.36
5/27/2021 10:15:00 PM 18.15 64.67 0.092 6.93 4.47 8.32
5/27/2021 10:30:00 PM 18.04 64.472 0.09 6.91 4.59 8.27
5/27/2021 10:45:00 PM 17.93 64.274 0.098 6.91 4.57 8.24
5/27/2021 11:00:00 PM 17.83 64.094 0.095 6.93 5.1 8.21
5/27/2021 11:15:00 PM 17.72 63.896 0.098 6.88 4.64 8.19
5/27/2021 11:30:00 PM 17.61 63.698 0.092 6.88 5.36 8.17
5/27/2021 11:45:00 PM 17.51 63.518 0.094 6.87 4.66 8.17
5/28/2021 12:00:00 AM 17.4 63.32 0.09 6.86 4.69 8.15
5/28/2021 12:15:00 AM 17.3 63.14 0.098 6.85 4.72 8.14
5/28/2021 12:30:00 AM 17.2 62.96 0.091 6.86 4.85 8.13
5/28/2021 12:45:00 AM 17.1 62.78 0.099 6.85 4.78 8.13
5/28/2021 1:00:00 AM 17 62.6 0.099 6.83 5.06 8.13
5/28/2021 1:15:00 AM 16.9 62.42 0.098 6.83 4.72 8.13
5/28/2021 1:30:00 AM 16.81 62.258 0.098 6.83 4.69 8.12
5/28/2021 1:45:00 AM 16.71 62.078 0.098 6.83 4.82 8.12
5/28/2021 2:00:00 AM 16.61 61.898 0.099 6.82 4.68 8.13
5/28/2021 2:15:00 AM 16.52 61.736 0.1 6.82 6.57 8.13
5/28/2021 2:30:00 AM 16.43 61.574 0.094 6.82 6.67 8.14
5/28/2021 2:45:00 AM 16.35 61.43 0.099 6.85 5.5 8.14
5/28/2021 3:00:00 AM 16.26 61.268 0.093 6.82 5.98 8.15
5/28/2021 3:15:00 AM 16.18 61.124 0.099 6.82 5.92 8.17
5/28/2021 3:30:00 AM 16.09 60.962 0.094 6.81 6.15 8.18
5/28/2021 3:45:00 AM 16.01 60.818 0.092 6.81 5.63 8.19
5/28/2021 4:00:00 AM 15.92 60.656 0.099 6.84 6.22 8.2
5/28/2021 4:15:00 AM 15.84 60.512 0.099 6.82 5.98 8.21
5/28/2021 4:30:00 AM 15.75 60.35 0.099 6.81 5.93 8.23
5/28/2021 4:45:00 AM 15.66 60.188 0.1 6.81 5.81 8.25
5/28/2021 5:00:00 AM 15.58 60.044 0.099 6.81 6.65 8.28
5/28/2021 5:15:00 AM 15.5 59.9 0.101 6.79 6.36 8.29
5/28/2021 5:30:00 AM 15.41 59.738 0.1 6.79 6.14 8.32
5/28/2021 5:45:00 AM 15.33 59.594 0.095 6.84 4.46 8.35
5/28/2021 6:00:00 AM 15.25 59.45 0.101 6.81 4.29 8.39
5/28/2021 6:15:00 AM 15.18 59.324 0.101 6.81 4.17 8.44
5/28/2021 6:30:00 AM 15.1 59.18 0.1 6.82 4.2 8.52
5/28/2021 6:45:00 AM 15.04 59.072 0.1 6.82 4.46 8.6
5/28/2021 7:00:00 AM 14.98 58.964 0.1 6.84 4.37 8.7
5/28/2021 7:15:00 AM 14.92 58.856 0.101 6.86 4.28 8.79
5/28/2021 7:30:00 AM 14.89 58.802 0.102 6.87 4.22 8.89
5/28/2021 7:45:00 AM 14.85 58.73 0.101 6.89 4.44 8.99
5/28/2021 8:00:00 AM 14.84 58.712 0.101 6.91 4.32 9.12
5/28/2021 8:15:00 AM 14.83 58.694 0.101 6.93 4.24 9.24
5/28/2021 8:30:00 AM 14.8 58.64 0.1 6.94 4.31 9.35
5/28/2021 8:45:00 AM 14.8 58.64 0.101 6.97 4.33 9.47
5/28/2021 9:00:00 AM 14.79 58.622 0.102 6.98 4.24 9.55
5/28/2021 9:15:00 AM 14.76 58.568 0.096 7.01 4.22 9.61
5/28/2021 9:30:00 AM 14.74 58.532 0.102 7 4.35 9.68
5/28/2021 9:45:00 AM 14.73 58.514 0.101 7.04 4.22 9.78
5/28/2021 10:00:00 AM 14.75 58.55 0.101 7.05 4.01